Provisional Data: West Branch Susquehanna River near Milton, PA


Please select a monitoring station.
Please select start date.
Please select start date.

Toggle Unit: C/F Toggle Unit: C/F
Sample Time Temperature (C) Temperature (F) Specific Conductivity (mS/cm) pH   Turbidity (NTU+) DO (mg/L)
3/23/2021 12:00:00 AM 7.22 44.996 115 7.27 4.12 12.77
3/23/2021 12:15:00 AM 7.21 44.978 115 7.26 4.17 12.76
3/23/2021 12:30:00 AM 7.2 44.96 115 7.26 4.19 12.74
3/23/2021 12:45:00 AM 7.19 44.942 115 7.26 4.25 12.72
3/23/2021 1:00:00 AM 7.17 44.906 115 7.26 5.23 12.71
3/23/2021 1:15:00 AM 7.15 44.87 115 7.26 4.25 12.7
3/23/2021 1:30:00 AM 7.14 44.852 115 7.25 4.2 12.68
3/23/2021 1:45:00 AM 7.12 44.816 115 7.25 4.06 12.67
3/23/2021 2:00:00 AM 7.1 44.78 115 7.25 4.23 12.67
3/23/2021 2:15:00 AM 7.08 44.744 115 7.25 3.83 12.65
3/23/2021 2:30:00 AM 7.06 44.708 115 7.25 4.24 12.64
3/23/2021 2:45:00 AM 7.03 44.654 115 7.24 4.04 12.63
3/23/2021 3:00:00 AM 7.01 44.618 114 7.24 4.11 12.62
3/23/2021 3:15:00 AM 6.98 44.564 114 7.24 4.39 12.6
3/23/2021 3:30:00 AM 6.96 44.528 114 7.23 4.4 12.59
3/23/2021 3:45:00 AM 6.93 44.474 114 7.23 4.26 12.59
3/23/2021 4:00:00 AM 6.9 44.42 114 7.23 4.13 12.58
3/23/2021 4:15:00 AM 6.88 44.384 114 7.23 4 12.58
3/23/2021 4:30:00 AM 6.85 44.33 114 7.23 4.08 12.57
3/23/2021 4:45:00 AM 6.91 44.438 124 7.25 3.14 12.74
3/23/2021 5:00:00 AM 6.84 44.312 120 7.17 3.27 12.63
3/23/2021 5:15:00 AM 6.78 44.204 115 7.21 3.71 12.56
3/23/2021 5:30:00 AM 6.75 44.15 114 7.21 3.8 12.54
3/23/2021 5:45:00 AM 6.72 44.096 114 7.21 3.89 12.54
3/23/2021 6:00:00 AM 6.69 44.042 114 7.21 3.98 12.53
3/23/2021 6:15:00 AM 6.65 43.97 114 7.21 3.78 12.54
3/23/2021 6:30:00 AM 6.63 43.934 114 7.21 3.88 12.53
3/23/2021 6:45:00 AM 6.6 43.88 114 7.21 4.1 12.53
3/23/2021 7:00:00 AM 6.57 43.826 114 7.21 4.21 12.53
3/23/2021 7:15:00 AM 6.54 43.772 114 7.2 4.14 12.53
3/23/2021 7:30:00 AM 6.52 43.736 114 7.21 4.21 12.53
3/23/2021 7:45:00 AM 6.51 43.718 114 7.2 4 12.54
3/23/2021 8:00:00 AM 6.49 43.682 114 7.2 4.06 12.54
3/23/2021 8:15:00 AM 6.49 43.682 114 7.2 4.01 12.54
3/23/2021 8:30:00 AM 6.48 43.664 114 7.2 4.19 12.55
3/23/2021 8:45:00 AM 6.48 43.664 114 7.2 4.87 12.55
3/23/2021 9:00:00 AM 6.49 43.682 114 7.21 4.43 12.56
3/23/2021 9:15:00 AM 6.5 43.7 114 7.21 4.13 12.57
3/23/2021 9:30:00 AM 6.53 43.754 114 7.21 4.16 12.57
3/23/2021 9:45:00 AM 6.55 43.79 114 7.21 4.38 12.58
3/23/2021 10:00:00 AM 6.58 43.844 114 7.21 4.14 12.6
3/23/2021 10:15:00 AM 6.62 43.916 114 7.21 4.31 12.6
3/23/2021 10:30:00 AM 6.66 43.988 114 7.21 4.36 12.61
3/23/2021 10:45:00 AM 6.7 44.06 114 7.22 4.13 12.62
3/23/2021 11:00:00 AM 6.93 44.474 123 7.18 3.13 12.7
3/23/2021 11:15:00 AM 6.9 44.42 118 7.17 2.99 12.64
3/23/2021 11:30:00 AM 6.86 44.348 114 7.21 4.81 12.64
3/23/2021 11:45:00 AM 6.91 44.438 114 7.22 4.51 12.64
3/23/2021 12:00:00 PM 6.96 44.528 114 7.22 4.1 12.64
3/23/2021 12:15:00 PM 7.01 44.618 113 7.22 3.7 12.65
3/23/2021 12:30:00 PM 7.06 44.708 114 7.23 3.34 12.66
3/23/2021 12:45:00 PM 7.11 44.798 114 7.23 3.81 12.65
3/23/2021 1:00:00 PM 7.16 44.888 114 7.23 3.77 12.66
3/23/2021 1:15:00 PM 7.22 44.996 114 7.23 3.75 12.67
3/23/2021 1:30:00 PM 7.26 45.068 114 7.23 4.59 12.68
3/23/2021 1:45:00 PM 7.31 45.158 113 7.24 3.37 12.69
3/23/2021 2:00:00 PM 7.36 45.248 114 7.24 4.15 12.69
3/23/2021 2:15:00 PM 7.41 45.338 114 7.24 3.71 12.69
3/23/2021 2:30:00 PM 7.45 45.41 114 7.24 3.5 12.69
3/23/2021 2:45:00 PM 7.49 45.482 114 7.25 3.72 12.69
3/23/2021 3:00:00 PM 7.53 45.554 113 7.25 3.67 12.7
3/23/2021 3:15:00 PM 7.56 45.608 114 7.25 3.93 12.7
3/23/2021 3:30:00 PM 7.59 45.662 114 7.25 3.44 12.71
3/23/2021 3:45:00 PM 7.61 45.698 114 7.26 4.26 12.71
3/23/2021 4:00:00 PM 7.63 45.734 114 7.26 3.52 12.72
3/23/2021 4:15:00 PM 7.65 45.77 114 7.26 3.88 12.73
3/23/2021 4:30:00 PM 7.66 45.788 114 7.27 3.54 12.73
3/23/2021 4:45:00 PM 7.68 45.824 114 7.27 3.26 12.73
3/23/2021 5:00:00 PM 7.69 45.842 114 7.27 3.86 12.74
3/23/2021 5:15:00 PM 7.71 45.878 114 7.27 3.86 12.75
3/23/2021 5:30:00 PM 7.72 45.896 114 7.28 3.87 12.75
3/23/2021 5:45:00 PM 7.72 45.896 114 7.28 3.52 12.76
3/23/2021 6:00:00 PM 7.73 45.914 114 7.28 3.71 12.76
3/23/2021 6:15:00 PM 7.73 45.914 114 7.28 4 12.76
3/23/2021 6:30:00 PM 7.73 45.914 114 7.29 3.99 12.76
3/23/2021 6:45:00 PM 7.73 45.914 114 7.29 4.39 12.76
3/23/2021 7:00:00 PM 7.74 45.932 114 7.29 4.68 12.76
3/23/2021 7:15:00 PM 7.74 45.932 114 7.29 4.11 12.75
3/23/2021 7:30:00 PM 7.75 45.95 114 7.29 3.93 12.75
3/23/2021 7:45:00 PM 7.75 45.95 114 7.29 4.27 12.74
3/23/2021 8:00:00 PM 7.76 45.968 114 7.29 3.59 12.74
3/23/2021 8:15:00 PM 7.77 45.986 114 7.29 3.96 12.74
3/23/2021 8:30:00 PM 7.77 45.986 115 7.29 3.92 12.73
3/23/2021 8:45:00 PM 7.78 46.004 115 7.29 4.59 12.72
3/23/2021 9:00:00 PM 7.79 46.022 115 7.29 4 12.71
3/23/2021 9:15:00 PM 7.8 46.04 115 7.29 4.46 12.7
3/23/2021 9:30:00 PM 7.81 46.058 115 7.29 3.89 12.68
3/23/2021 9:45:00 PM 7.81 46.058 115 7.29 4.12 12.68
3/23/2021 10:00:00 PM 7.81 46.058 115 7.29 4.04 12.67
3/23/2021 10:15:00 PM 7.81 46.058 115 7.29 4.44 12.65
3/23/2021 10:30:00 PM 7.81 46.058 115 7.29 3.75 12.64
3/23/2021 10:45:00 PM 7.81 46.058 115 7.28 3.93 12.63
3/23/2021 11:00:00 PM 7.81 46.058 115 7.28 4.01 12.61
3/23/2021 11:15:00 PM 7.81 46.058 115 7.28 3.71 12.61
3/23/2021 11:30:00 PM 7.81 46.058 116 7.28 3.78 12.59
3/23/2021 11:45:00 PM 7.81 46.058 116 7.28 3.93 12.58
3/24/2021 12:00:00 AM 7.8 46.04 116 7.28 4.44 12.61
3/24/2021 12:15:00 AM 7.8 46.04 116 7.28 3.33 12.55
3/24/2021 12:30:00 AM 7.8 46.04 116 7.27 3.47 12.54
3/24/2021 12:45:00 AM 7.79 46.022 116 7.27 3.39 12.52
3/24/2021 1:00:00 AM 7.79 46.022 116 7.27 3.33 12.51
3/24/2021 1:15:00 AM 7.78 46.004 116 7.27 3.57 12.49
3/24/2021 1:30:00 AM 7.77 45.986 116 7.27 3.78 12.48
3/24/2021 1:45:00 AM 7.76 45.968 116 7.27 3.83 12.47
3/24/2021 2:00:00 AM 7.75 45.95 116 7.26 3.68 12.46
3/24/2021 2:15:00 AM 7.75 45.95 116 7.26 3.62 12.44
3/24/2021 2:30:00 AM 7.74 45.932 116 7.26 3.69 12.43
3/24/2021 2:45:00 AM 7.73 45.914 116 7.26 4.36 12.42
3/24/2021 3:00:00 AM 7.73 45.914 116 7.26 4.43 12.4
3/24/2021 3:15:00 AM 7.72 45.896 116 7.26 3.64 12.39
3/24/2021 3:30:00 AM 7.72 45.896 116 7.25 3.58 12.38
3/24/2021 3:45:00 AM 7.71 45.878 116 7.25 3.7 12.36
3/24/2021 4:00:00 AM 7.71 45.878 117 7.25 3.62 12.35
3/24/2021 4:15:00 AM 7.7 45.86 116 7.24 3.33 12.34
3/24/2021 4:30:00 AM 7.7 45.86 117 7.25 3.73 12.34
3/24/2021 4:45:00 AM 7.69 45.842 116 7.25 3.59 12.32
3/24/2021 5:00:00 AM 7.69 45.842 117 7.24 3.42 12.31
3/24/2021 5:15:00 AM 7.68 45.824 117 7.24 3.18 12.3
3/24/2021 5:30:00 AM 7.68 45.824 117 7.24 3.78 12.29
3/24/2021 5:45:00 AM 7.67 45.806 117 7.24 3.73 12.29
3/24/2021 6:00:00 AM 7.66 45.788 117 7.23 3.48 12.28
3/24/2021 6:15:00 AM 7.66 45.788 117 7.23 3.36 12.27
3/24/2021 6:30:00 AM 7.65 45.77 117 7.23 3.38 12.26
3/24/2021 6:45:00 AM 7.64 45.752 117 7.23 3.51 12.26
3/24/2021 7:00:00 AM 7.63 45.734 117 7.23 3.31 12.25
3/24/2021 7:15:00 AM 7.62 45.716 117 7.23 3.21 12.25
3/24/2021 7:30:00 AM 7.61 45.698 117 7.23 3.57 12.24
3/24/2021 7:45:00 AM 7.61 45.698 117 7.23 3.11 12.24
3/24/2021 8:00:00 AM 7.6 45.68 117 7.22 3.41 12.24
3/24/2021 8:15:00 AM 7.59 45.662 117 7.22 3.53 12.23
3/24/2021 8:30:00 AM 7.58 45.644 117 7.22 3.14 12.24
3/24/2021 8:45:00 AM 7.58 45.644 117 7.22 3.68 12.24
3/24/2021 9:00:00 AM 7.57 45.626 117 7.22 3.36 12.23
3/24/2021 9:15:00 AM 7.57 45.626 117 7.22 3.55 12.24
3/24/2021 9:30:00 AM 7.56 45.608 117 7.22 3.18 12.24
3/24/2021 9:45:00 AM 7.56 45.608 117 7.22 3.6 12.24
3/24/2021 10:00:00 AM 7.78 46.004 125 7.22 2.56 12.37
3/24/2021 10:15:00 AM 7.63 45.734 120 7.2 3.55 12.29
3/24/2021 10:30:00 AM 7.57 45.626 117 7.22 3.67 12.25
3/24/2021 10:45:00 AM 7.57 45.626 117 7.22 3.28 12.26
3/24/2021 11:00:00 AM 7.57 45.626 117 7.22 3.37 12.27
3/24/2021 11:15:00 AM 7.58 45.644 117 7.22 3.57 12.27
3/24/2021 11:30:00 AM 7.59 45.662 117 7.23 3.38 12.27
3/24/2021 11:45:00 AM 7.61 45.698 117 7.23 3.27 12.28
3/24/2021 12:00:00 PM 7.62 45.716 117 7.23 3.35 12.28
3/24/2021 12:15:00 PM 7.64 45.752 117 7.23 3.56 12.29
3/24/2021 12:30:00 PM 7.65 45.77 118 7.24 3.61 12.3
3/24/2021 12:45:00 PM 7.66 45.788 118 7.24 3.5 12.3
3/24/2021 1:00:00 PM 7.68 45.824 118 7.24 3.39 12.3
3/24/2021 1:15:00 PM 7.69 45.842 118 7.25 3.66 12.31
3/24/2021 1:30:00 PM 7.7 45.86 118 7.25 3.84 12.32
3/24/2021 1:45:00 PM 7.71 45.878 118 7.25 3.55 12.32
3/24/2021 2:00:00 PM 7.73 45.914 118 7.25 3.32 12.33
3/24/2021 2:15:00 PM 7.75 45.95 118 7.25 3.3 12.33
3/24/2021 2:30:00 PM 7.77 45.986 118 7.26 3.32 12.33
3/24/2021 2:45:00 PM 7.78 46.004 118 7.26 3.49 12.34
3/24/2021 3:00:00 PM 7.8 46.04 118 7.26 3.36 12.34
3/24/2021 3:15:00 PM 7.8 46.04 118 7.26 3.37 12.34
3/24/2021 3:30:00 PM 7.81 46.058 118 7.26 3.39 12.34
3/24/2021 3:45:00 PM 7.82 46.076 118 7.26 3.34 12.35
3/24/2021 4:00:00 PM 7.83 46.094 118 7.26 3.79 12.35
3/24/2021 4:15:00 PM 7.84 46.112 118 7.27 3.93 12.35
3/24/2021 4:30:00 PM 7.85 46.13 118 7.27 3.04 12.35
3/24/2021 4:45:00 PM 7.84 46.112 118 7.27 3.76 12.35
3/24/2021 5:00:00 PM 7.85 46.13 119 7.27 3.19 12.35
3/24/2021 5:15:00 PM 7.85 46.13 119 7.27 3.45 12.34
3/24/2021 5:30:00 PM 7.85 46.13 119 7.28 3.6 12.35
3/24/2021 5:45:00 PM 7.86 46.148 119 7.28 4.05 12.35
3/24/2021 6:00:00 PM 7.86 46.148 119 7.28 3.73 12.35
3/24/2021 6:15:00 PM 7.87 46.166 120 7.29 3.73 12.35
3/24/2021 6:30:00 PM 7.88 46.184 120 7.29 3.52 12.36
3/24/2021 6:45:00 PM 7.89 46.202 120 7.29 3.49 12.35
3/24/2021 7:00:00 PM 7.9 46.22 120 7.29 3.31 12.36
3/24/2021 7:15:00 PM 7.91 46.238 120 7.29 3.78 12.36
3/24/2021 7:30:00 PM 7.92 46.256 120 7.3 3.45 12.36
3/24/2021 7:45:00 PM 7.93 46.274 120 7.29 4.12 12.36
3/24/2021 8:00:00 PM 7.94 46.292 120 7.29 3.16 12.37
3/24/2021 8:15:00 PM 7.95 46.31 120 7.29 3.75 12.37
3/24/2021 8:30:00 PM 7.96 46.328 120 7.29 3.54 12.37
3/24/2021 8:45:00 PM 7.96 46.328 119 7.29 4.08 12.38
3/24/2021 9:00:00 PM 7.98 46.364 119 7.29 3.71 12.37
3/24/2021 9:15:00 PM 7.99 46.382 119 7.29 3.59 12.38
3/24/2021 9:30:00 PM 8 46.4 119 7.29 3.82 12.36
3/24/2021 9:45:00 PM 8 46.4 119 7.29 3.85 12.37
3/24/2021 10:00:00 PM 8.01 46.418 119 7.29 3.87 12.36
3/24/2021 10:15:00 PM 8.01 46.418 119 7.29 4.32 12.35
3/24/2021 10:30:00 PM 8.02 46.436 120 7.29 3.5 12.35
3/24/2021 10:45:00 PM 8.02 46.436 120 7.29 3.99 12.34
3/24/2021 11:00:00 PM 8.03 46.454 120 7.29 4.11 12.33
3/24/2021 11:15:00 PM 8.03 46.454 120 7.29 3.86 12.32
3/24/2021 11:30:00 PM 8.03 46.454 120 7.3 3.84 12.31
3/24/2021 11:45:00 PM 8.03 46.454 120 7.29 4 12.31
3/25/2021 12:00:00 AM 8.03 46.454 120 7.29 3.86 12.3
3/25/2021 12:15:00 AM 8.03 46.454 120 7.29 3.73 12.29
3/25/2021 12:30:00 AM 8.03 46.454 120 7.29 3.75 12.29
3/25/2021 12:45:00 AM 8.03 46.454 119 7.29 4.13 12.28
3/25/2021 1:00:00 AM 8.03 46.454 119 7.29 3.72 12.28
3/25/2021 1:15:00 AM 8.03 46.454 119 7.28 4.54 12.27
3/25/2021 1:30:00 AM 8.03 46.454 119 7.28 4.02 12.25
3/25/2021 1:45:00 AM 8.22 46.796 128 7.23 2.86 12.31
3/25/2021 2:00:00 AM 8.07 46.526 122 7.21 3.17 12.27
3/25/2021 2:15:00 AM 8.04 46.472 119 7.26 3.78 12.24
3/25/2021 2:30:00 AM 8.03 46.454 119 7.27 3.97 12.22
3/25/2021 2:45:00 AM 8.03 46.454 119 7.27 4.27 12.21
3/25/2021 3:00:00 AM 8.03 46.454 119 7.26 4.2 12.2
3/25/2021 3:15:00 AM 8.03 46.454 118 7.26 3.96 12.19
3/25/2021 3:30:00 AM 8.03 46.454 118 7.26 3.86 12.18
3/25/2021 3:45:00 AM 8.03 46.454 118 7.26 3.91 12.17
3/25/2021 4:00:00 AM 8.03 46.454 118 7.25 4.03 12.16
3/25/2021 4:15:00 AM 8.02 46.436 118 7.25 4.13 12.15
3/25/2021 4:30:00 AM 8.02 46.436 117 7.25 4.69 12.14
3/25/2021 4:45:00 AM 8.02 46.436 117 7.25 4.24 12.13
3/25/2021 5:00:00 AM 8.01 46.418 117 7.25 3.97 12.12
3/25/2021 5:15:00 AM 8.01 46.418 117 7.25 4.23 12.11
3/25/2021 5:30:00 AM 8.01 46.418 117 7.24 4.25 12.1
3/25/2021 5:45:00 AM 8 46.4 117 7.24 4.11 12.1
3/25/2021 6:00:00 AM 8 46.4 116 7.24 4.23 12.08
3/25/2021 6:15:00 AM 8 46.4 116 7.24 4.43 12.08
3/25/2021 6:30:00 AM 7.99 46.382 116 7.24 6.03 12.08
3/25/2021 6:45:00 AM 7.99 46.382 116 7.24 4.47 12.07
3/25/2021 7:00:00 AM 7.99 46.382 116 7.23 4.83 12.06
3/25/2021 7:15:00 AM 7.99 46.382 115 7.23 3.99 12.06
3/25/2021 7:30:00 AM 7.99 46.382 115 7.23 4.5 12.05
3/25/2021 7:45:00 AM 7.99 46.382 115 7.23 4.61 12.05
3/25/2021 8:00:00 AM 7.99 46.382 115 7.23 4.53 12.05
3/25/2021 8:15:00 AM 7.99 46.382 115 7.23 4.83 12.05
3/25/2021 8:30:00 AM 8 46.4 115 7.23 4.88 12.05
3/25/2021 8:45:00 AM 8 46.4 114 7.23 4.27 12.04
3/25/2021 9:00:00 AM 8.01 46.418 114 7.22 4.77 12.04
3/25/2021 9:15:00 AM 8.02 46.436 114 7.22 4.22 12.05
3/25/2021 9:30:00 AM 8.02 46.436 114 7.22 4.51 12.05
3/25/2021 9:45:00 AM 8.03 46.454 114 7.22 5.11 12.05
3/25/2021 10:00:00 AM 8.23 46.814 123 7.25 3.32 12.18
3/25/2021 10:15:00 AM 8.15 46.67 121 7.18 3.14 12.15
3/25/2021 10:30:00 AM 8.06 46.508 114 7.22 4.47 12.07
3/25/2021 10:45:00 AM 8.07 46.526 113 7.22 4.25 12.07
3/25/2021 11:00:00 AM 8.09 46.562 113 7.22 4.53 12.08
3/25/2021 11:15:00 AM 8.11 46.598 113 7.22 5.42 12.08
3/25/2021 11:30:00 AM 8.14 46.652 113 7.22 4.64 12.09
3/25/2021 11:45:00 AM 8.16 46.688 113 7.23 4.74 12.1
3/25/2021 12:00:00 PM 8.19 46.742 112 7.23 4.42 12.1
3/25/2021 12:15:00 PM 8.22 46.796 112 7.23 4.91 12.11
3/25/2021 12:30:00 PM 8.26 46.868 112 7.23 5.35 12.11
3/25/2021 12:45:00 PM 8.32 46.976 112 7.23 4.97 12.13
3/25/2021 1:00:00 PM 8.38 47.084 111 7.23 4.6 12.13
3/25/2021 1:15:00 PM 8.41 47.138 112 7.23 5.51 12.14
3/25/2021 1:30:00 PM 8.45 47.21 111 7.24 5.34 12.14
3/25/2021 1:45:00 PM 8.5 47.3 111 7.24 4.99 12.15
3/25/2021 2:00:00 PM 8.56 47.408 111 7.23 5.51 12.16
3/25/2021 2:15:00 PM 8.61 47.498 111 7.24 4.87 12.17
3/25/2021 2:30:00 PM 8.65 47.57 111 7.24 4.74 12.18
3/25/2021 2:45:00 PM 8.66 47.588 110 7.24 4.81 12.18
3/25/2021 3:00:00 PM 8.69 47.642 110 7.25 5.52 12.18
3/25/2021 3:15:00 PM 8.72 47.696 110 7.25 4.67 12.19
3/25/2021 3:30:00 PM 8.76 47.768 110 7.25 4.9 12.2
3/25/2021 3:45:00 PM 8.78 47.804 110 7.25 5.24 12.2
3/25/2021 4:00:00 PM 8.81 47.858 109 7.25 4.84 12.2
3/25/2021 4:15:00 PM 8.85 47.93 109 7.26 6.62 12.21
3/25/2021 4:30:00 PM 8.87 47.966 109 7.26 6.31 12.22
3/25/2021 4:45:00 PM 8.88 47.984 109 7.26 5.26 12.23
3/25/2021 5:00:00 PM 8.9 48.02 109 7.26 6.58 12.23
3/25/2021 5:15:00 PM 8.91 48.038 109 7.27 6.11 12.23
3/25/2021 5:30:00 PM 8.91 48.038 109 7.26 6.58 12.24
3/25/2021 5:45:00 PM 8.91 48.038 109 7.27 10.24 12.23
3/25/2021 6:00:00 PM 8.9 48.02 109 7.27 6.99 12.24
3/25/2021 6:15:00 PM 8.89 48.002 109 7.27 8.38 12.25
3/25/2021 6:30:00 PM 8.88 47.984 108 7.27 7.03 12.25
3/25/2021 6:45:00 PM 8.88 47.984 108 7.28 7.61 12.25
3/25/2021 7:00:00 PM 8.87 47.966 109 7.28 12.74 12.25
3/25/2021 7:15:00 PM 8.87 47.966 108 7.28 8.83 12.25
3/25/2021 7:30:00 PM 8.87 47.966 109 7.28 7.12 12.25
3/25/2021 7:45:00 PM 8.87 47.966 108 7.28 6.88 12.27
3/25/2021 8:00:00 PM 8.87 47.966 108 7.28 5.3 12.25
3/25/2021 8:15:00 PM 8.87 47.966 108 7.28 7.18 12.24
3/25/2021 8:30:00 PM 8.89 48.002 109 7.28 7.46 12.25
3/25/2021 8:45:00 PM 8.9 48.02 108 7.28 6.91 12.23
3/25/2021 9:00:00 PM 8.91 48.038 109 7.28 6.77 12.22
3/25/2021 9:15:00 PM 8.92 48.056 109 7.28 6.66 12.22
3/25/2021 9:30:00 PM 8.93 48.074 109 7.28 7.07 12.21
3/25/2021 9:45:00 PM 8.95 48.11 109 7.28 6.18 12.21
3/25/2021 10:00:00 PM 8.97 48.146 109 7.28 7.44 12.2
3/25/2021 10:15:00 PM 8.98 48.164 109 7.28 6.56 12.19
3/25/2021 10:30:00 PM 9 48.2 109 7.28 6.18 12.17
3/25/2021 10:45:00 PM 9.01 48.218 109 7.28 5.98 12.16
3/25/2021 11:00:00 PM 9.03 48.254 109 7.28 5.49 12.15
3/25/2021 11:15:00 PM 9.04 48.272 109 7.28 6.39 12.15
3/25/2021 11:30:00 PM 9.06 48.308 109 7.28 5.57 12.13
3/25/2021 11:45:00 PM 9.07 48.326 109 7.28 5.1 12.13
3/26/2021 12:00:00 AM 9.08 48.344 109 7.28 4.87 12.11
3/26/2021 12:15:00 AM 9.09 48.362 109 7.27 4.86 12.1
3/26/2021 12:30:00 AM 9.1 48.38 109 7.27 5.37 12.08
3/26/2021 12:45:00 AM 9.11 48.398 109 7.27 5.06 12.07
3/26/2021 1:00:00 AM 9.12 48.416 109 7.27 6 12.06
3/26/2021 1:15:00 AM 9.13 48.434 109 7.27 5.38 12.04
3/26/2021 1:30:00 AM 9.13 48.434 109 7.27 5.38 12.02
3/26/2021 1:45:00 AM 9.13 48.434 109 7.26 4.97 12.01
3/26/2021 2:00:00 AM 9.14 48.452 109 7.26 5.2 11.99
3/26/2021 2:15:00 AM 9.15 48.47 109 7.26 5.1 11.99
3/26/2021 2:30:00 AM 9.16 48.488 109 7.26 4.91 11.97
3/26/2021 2:45:00 AM 9.17 48.506 109 7.26 5.12 11.95
3/26/2021 3:00:00 AM 9.18 48.524 109 7.25 5.05 11.94
3/26/2021 3:15:00 AM 9.18 48.524 109 7.25 4.22 11.92
3/26/2021 3:30:00 AM 9.19 48.542 109 7.25 4.63 11.9
3/26/2021 3:45:00 AM 9.19 48.542 109 7.25 4.91 11.89
3/26/2021 4:00:00 AM 9.19 48.542 109 7.25 4.51 11.88
3/26/2021 4:15:00 AM 9.19 48.542 109 7.24 4.72 11.86
3/26/2021 4:30:00 AM 9.19 48.542 109 7.24 4.19 11.85
3/26/2021 4:45:00 AM 9.19 48.542 109 7.24 4.33 11.83
3/26/2021 5:00:00 AM 9.19 48.542 109 7.24 4.51 11.83
3/26/2021 5:15:00 AM 9.2 48.56 109 7.24 4.63 11.81
3/26/2021 5:30:00 AM 9.2 48.56 109 7.23 4.26 11.8
3/26/2021 5:45:00 AM 9.21 48.578 109 7.23 4.62 11.78
3/26/2021 6:00:00 AM 9.21 48.578 109 7.23 4.4 11.77
3/26/2021 6:15:00 AM 9.22 48.596 109 7.23 4.02 11.76
3/26/2021 6:30:00 AM 9.23 48.614 109 7.23 3.9 11.75
3/26/2021 6:45:00 AM 9.25 48.65 109 7.22 4.32 11.74
3/26/2021 7:00:00 AM 9.27 48.686 109 7.22 4.54 11.73
3/26/2021 7:15:00 AM 9.29 48.722 109 7.22 4.18 11.72
3/26/2021 7:30:00 AM 9.3 48.74 109 7.22 4.37 11.72
3/26/2021 7:45:00 AM 9.33 48.794 109 7.22 4.09 11.7
3/26/2021 8:00:00 AM 9.35 48.83 109 7.22 4.64 11.69
3/26/2021 8:15:00 AM 9.39 48.902 109 7.22 4.33 11.7
3/26/2021 8:30:00 AM 9.42 48.956 109 7.22 4.58 11.68
3/26/2021 8:45:00 AM 9.47 49.046 109 7.22 4.3 11.69
3/26/2021 9:00:00 AM 9.52 49.136 109 7.22 4.31 11.68
3/26/2021 9:15:00 AM 9.65 49.37 117 7.2 3.02 11.78
3/26/2021 9:30:00 AM 9.62 49.316 111 7.2 4.02 11.69
3/26/2021 9:45:00 AM 9.71 49.478 109 7.22 5.04 11.68
3/26/2021 10:00:00 AM 9.78 49.604 109 7.22 4.77 11.69
3/26/2021 10:15:00 AM 9.83 49.694 109 7.22 4.74 11.67
3/26/2021 10:30:00 AM 9.87 49.766 109 7.23 4.93 11.66
3/26/2021 10:45:00 AM 9.9 49.82 110 7.23 4.57 11.66
3/26/2021 11:00:00 AM 9.95 49.91 110 7.23 4.02 11.66
3/26/2021 11:15:00 AM 10 50 110 7.23 4.55 11.67
3/26/2021 11:30:00 AM 10.05 50.09 110 7.23 4.54 11.67
3/26/2021 11:45:00 AM 10.11 50.198 110 7.23 4.98 11.66
3/26/2021 12:00:00 PM 10.16 50.288 110 7.24 4.18 11.67
3/26/2021 12:15:00 PM 10.22 50.396 110 7.24 4.51 11.67
3/26/2021 12:30:00 PM 10.26 50.468 110 7.24 4.87 11.67
3/26/2021 12:45:00 PM 10.28 50.504 110 7.24 4.32 11.67
3/26/2021 1:00:00 PM 10.32 50.576 110 7.25 4.29 11.67
3/26/2021 1:15:00 PM 10.38 50.684 110 7.25 4.04 11.67
3/26/2021 1:30:00 PM 10.46 50.828 110 7.25 4.61 11.67
3/26/2021 1:45:00 PM 10.52 50.936 110 7.25 4.57 11.67
3/26/2021 2:00:00 PM 10.53 50.954 110 7.26 4.44 11.66
3/26/2021 2:15:00 PM 10.51 50.918 110 7.26 4.39 11.67
3/26/2021 2:30:00 PM 10.51 50.918 110 7.26 4.63 11.67
3/26/2021 2:45:00 PM 10.52 50.936 111 7.26 4.21 11.67
3/26/2021 3:00:00 PM 10.52 50.936 111 7.27 4.17 11.66
3/26/2021 3:15:00 PM 10.53 50.954 111 7.27 4.06 11.66
3/26/2021 3:30:00 PM 10.54 50.972 110 7.27 4.93 11.65
3/26/2021 3:45:00 PM 10.56 51.008 110 7.27 4.83 11.65
3/26/2021 4:00:00 PM 10.58 51.044 110 7.28 4.58 11.65
3/26/2021 4:15:00 PM 10.62 51.116 110 7.28 4.53 11.64
3/26/2021 4:30:00 PM 10.71 51.278 110 7.28 5 11.64
3/26/2021 4:45:00 PM 10.77 51.386 110 7.28 4.87 11.65
3/26/2021 5:00:00 PM 10.68 51.224 120 7.23 2.9 11.68
3/26/2021 5:15:00 PM 10.67 51.206 114 7.23 3.54 11.65
3/26/2021 5:30:00 PM 10.76 51.368 111 7.28 4.6 11.63
3/26/2021 5:45:00 PM 10.72 51.296 111 7.29 4.67 11.63
3/26/2021 6:00:00 PM 10.67 51.206 110 7.29 4.33 11.62
3/26/2021 6:15:00 PM 10.62 51.116 111 7.29 4.38 11.63
3/26/2021 6:30:00 PM 10.6 51.08 110 7.29 4.99 11.63
3/26/2021 6:45:00 PM 10.6 51.08 110 7.3 5.17 11.63
3/26/2021 7:00:00 PM 10.6 51.08 110 7.3 4.35 11.64
3/26/2021 7:15:00 PM 10.59 51.062 111 7.3 5.22 11.63
3/26/2021 7:30:00 PM 10.57 51.026 111 7.3 4.77 11.63
3/26/2021 7:45:00 PM 10.56 51.008 111 7.3 4.51 11.63
3/26/2021 8:00:00 PM 10.55 50.99 111 7.3 4.43 11.63
3/26/2021 8:15:00 PM 10.55 50.99 111 7.3 3.86 11.62
3/26/2021 8:30:00 PM 10.55 50.99 111 7.3 3.91 11.63
3/26/2021 8:45:00 PM 10.55 50.99 111 7.3 4.38 11.63
3/26/2021 9:00:00 PM 10.56 51.008 111 7.3 4.9 11.62
3/26/2021 9:15:00 PM 10.58 51.044 111 7.3 4.64 11.62
3/26/2021 9:30:00 PM 10.59 51.062 111 7.3 4.55 11.62
3/26/2021 9:45:00 PM 10.61 51.098 111 7.3 4.33 11.61
3/26/2021 10:00:00 PM 10.62 51.116 111 7.3 3.96 11.6
3/26/2021 10:15:00 PM 10.64 51.152 111 7.3 4.24 11.6
3/26/2021 10:30:00 PM 10.65 51.17 111 7.3 4.29 11.58
3/26/2021 10:45:00 PM 10.66 51.188 111 7.3 4.78 11.57
3/26/2021 11:00:00 PM 10.68 51.224 111 7.3 4.34 11.56
3/26/2021 11:15:00 PM 10.68 51.224 111 7.29 4.24 11.54
3/26/2021 11:30:00 PM 10.69 51.242 111 7.29 5.12 11.53
3/26/2021 11:45:00 PM 10.7 51.26 111 7.29 4.18 11.52
3/27/2021 12:00:00 AM 10.71 51.278 111 7.29 4.41 11.51
3/27/2021 12:15:00 AM 10.72 51.296 112 7.29 4.7 11.5
3/27/2021 12:30:00 AM 10.74 51.332 111 7.29 4.67 11.49
3/27/2021 12:45:00 AM 10.74 51.332 111 7.29 4.22 11.47
3/27/2021 1:00:00 AM 10.74 51.332 111 7.29 4.27 11.46
3/27/2021 1:15:00 AM 10.74 51.332 111 7.28 4.2 11.45
3/27/2021 1:30:00 AM 10.73 51.314 111 7.28 4.47 11.44
3/27/2021 1:45:00 AM 10.72 51.296 111 7.28 4.8 11.42
3/27/2021 2:00:00 AM 10.71 51.278 111 7.28 4.55 11.41
3/27/2021 2:15:00 AM 10.7 51.26 112 7.28 4.81 11.4
3/27/2021 2:30:00 AM 10.69 51.242 112 7.27 4.67 11.38
3/27/2021 2:45:00 AM 10.68 51.224 112 7.27 4.41 11.37
3/27/2021 3:00:00 AM 10.67 51.206 112 7.27 4.61 11.37
3/27/2021 3:15:00 AM 10.66 51.188 112 7.27 4.45 11.35
3/27/2021 3:30:00 AM 10.65 51.17 112 7.26 4.62 11.34
3/27/2021 3:45:00 AM 10.64 51.152 112 7.26 4.76 11.32
3/27/2021 4:00:00 AM 10.63 51.134 112 7.26 4.68 11.31
3/27/2021 4:15:00 AM 10.61 51.098 112 7.26 4.99 11.3
3/27/2021 4:30:00 AM 10.6 51.08 112 7.25 4.48 11.3
3/27/2021 4:45:00 AM 10.59 51.062 111 7.25 4.58 11.28
3/27/2021 5:00:00 AM 10.58 51.044 111 7.25 4.6 11.27
3/27/2021 5:15:00 AM 10.57 51.026 111 7.25 4.77 11.26
3/27/2021 5:30:00 AM 10.56 51.008 111 7.25 5.07 11.26
3/27/2021 5:45:00 AM 10.55 50.99 111 7.24 4.77 11.24
3/27/2021 6:00:00 AM 10.53 50.954 112 7.24 4.97 11.24
3/27/2021 6:15:00 AM 10.52 50.936 112 7.24 4.46 11.22
3/27/2021 6:30:00 AM 10.51 50.918 112 7.24 4.89 11.22
3/27/2021 6:45:00 AM 10.5 50.9 112 7.23 4.97 11.21
3/27/2021 7:00:00 AM 10.49 50.882 112 7.23 4.91 11.2
3/27/2021 7:15:00 AM 10.49 50.882 112 7.23 5.02 11.2
3/27/2021 7:30:00 AM 10.48 50.864 112 7.23 4.23 11.2
3/27/2021 7:45:00 AM 10.47 50.846 112 7.23 5.46 11.19
3/27/2021 8:00:00 AM 10.47 50.846 112 7.23 4.89 11.19
3/27/2021 8:15:00 AM 10.48 50.864 112 7.23 4.25 11.19
3/27/2021 8:30:00 AM 10.49 50.882 112 7.23 5.74 11.19
3/27/2021 8:45:00 AM 10.5 50.9 112 7.23 4.92 11.19
3/27/2021 9:00:00 AM 10.52 50.936 112 7.23 4.81 11.19
3/27/2021 9:15:00 AM 10.55 50.99 112 7.23 4.62 11.21
3/27/2021 9:30:00 AM 10.58 51.044 112 7.23 5.22 11.2
3/27/2021 9:45:00 AM 10.62 51.116 113 7.23 4.64 11.21
3/27/2021 10:00:00 AM 10.66 51.188 113 7.23 4.15 11.22
3/27/2021 10:15:00 AM 10.7 51.26 113 7.23 4.55 11.23
3/27/2021 10:30:00 AM 10.75 51.35 113 7.24 4.57 11.22
3/27/2021 10:45:00 AM 10.79 51.422 113 7.24 4.98 11.25
3/27/2021 11:00:00 AM 10.83 51.494 113 7.24 4.89 11.24
3/27/2021 11:15:00 AM 10.86 51.548 113 7.24 4.75 11.25
3/27/2021 11:30:00 AM 10.9 51.62 113 7.24 4.47 11.27
3/27/2021 11:45:00 AM 10.96 51.728 113 7.25 4.67 11.27
3/27/2021 12:00:00 PM 11.01 51.818 113 7.25 4.25 11.28
3/27/2021 12:15:00 PM 11.09 51.962 113 7.25 6.21 11.28
3/27/2021 12:30:00 PM 11.14 52.052 113 7.25 4.32 11.29
3/27/2021 12:45:00 PM 11.2 52.16 113 7.26 4.38 11.28
3/27/2021 1:00:00 PM 11.27 52.286 113 7.26 4.35 11.31
3/27/2021 1:15:00 PM 11.35 52.43 113 7.26 4.38 11.3
3/27/2021 1:30:00 PM 11.43 52.574 113 7.27 4.47 11.32
3/27/2021 1:45:00 PM 11.48 52.664 113 7.27 4.04 11.32
3/27/2021 2:00:00 PM 11.55 52.79 113 7.27 3.74 11.33
3/27/2021 2:15:00 PM 11.63 52.934 113 7.27 4.38 11.34
3/27/2021 2:30:00 PM 11.67 53.006 113 7.28 4.49 11.34
3/27/2021 2:45:00 PM 11.7 53.06 113 7.28 4.13 11.35
3/27/2021 3:00:00 PM 11.74 53.132 113 7.28 4.17 11.35
3/27/2021 3:15:00 PM 11.78 53.204 113 7.29 3.64 11.37
3/27/2021 3:30:00 PM 11.81 53.258 113 7.29 4.05 11.37
3/27/2021 3:45:00 PM 11.84 53.312 114 7.29 4.2 11.37
3/27/2021 4:00:00 PM 11.85 53.33 114 7.29 4.36 11.38
3/27/2021 4:15:00 PM 11.85 53.33 114 7.3 4.29 11.38
3/27/2021 4:30:00 PM 11.86 53.348 114 7.3 3.83 11.39
3/27/2021 4:45:00 PM 11.87 53.366 114 7.3 4.5 11.41
3/27/2021 5:00:00 PM 11.88 53.384 114 7.31 3.9 11.41
3/27/2021 5:15:00 PM 11.89 53.402 114 7.31 4.21 11.42
3/27/2021 5:30:00 PM 11.9 53.42 114 7.31 4.1 11.43
3/27/2021 5:45:00 PM 11.92 53.456 114 7.32 4.07 11.44
3/27/2021 6:00:00 PM 11.93 53.474 114 7.32 3.66 11.44
3/27/2021 6:15:00 PM 11.93 53.474 114 7.32 3.77 11.44
3/27/2021 6:30:00 PM 11.73 53.114 120 7.34 3.65 11.51
3/27/2021 6:45:00 PM 11.63 52.934 120 7.25 2.82 11.46
3/27/2021 7:00:00 PM 11.86 53.348 114 7.31 4.79 11.46
3/27/2021 7:15:00 PM 11.88 53.384 114 7.33 4.39 11.46
3/27/2021 7:30:00 PM 11.88 53.384 114 7.32 4.93 11.46
3/27/2021 7:45:00 PM 11.88 53.384 114 7.33 5.36 11.46
3/27/2021 8:00:00 PM 11.88 53.384 114 7.33 5.44 11.46
3/27/2021 8:15:00 PM 11.88 53.384 114 7.33 5.58 11.46
3/27/2021 8:30:00 PM 11.89 53.402 114 7.33 5.13 11.45
3/27/2021 8:45:00 PM 11.89 53.402 114 7.33 4.76 11.45
3/27/2021 9:00:00 PM 11.89 53.402 114 7.33 4.95 11.45
3/27/2021 9:15:00 PM 11.9 53.42 114 7.33 4.45 11.44
3/27/2021 9:30:00 PM 11.89 53.402 114 7.33 4.68 11.43
3/27/2021 9:45:00 PM 11.89 53.402 114 7.33 4.64 11.43
3/27/2021 10:00:00 PM 11.9 53.42 114 7.33 4.23 11.42
3/27/2021 10:15:00 PM 11.9 53.42 115 7.33 4.9 11.41
3/27/2021 10:30:00 PM 11.9 53.42 114 7.33 4.47 11.4
3/27/2021 10:45:00 PM 11.9 53.42 115 7.32 4.7 11.38
3/27/2021 11:00:00 PM 11.9 53.42 115 7.32 4.28 11.38
3/27/2021 11:15:00 PM 11.9 53.42 115 7.32 4.01 11.36
3/27/2021 11:30:00 PM 11.89 53.402 115 7.32 4.22 11.35
3/27/2021 11:45:00 PM 11.88 53.384 115 7.31 4.46 11.34
3/28/2021 12:00:00 AM 11.86 53.348 115 7.31 4.13 11.33
3/28/2021 12:15:00 AM 11.85 53.33 115 7.31 4.66 11.32
3/28/2021 12:30:00 AM 11.83 53.294 115 7.3 3.54 11.31
3/28/2021 12:45:00 AM 11.82 53.276 115 7.3 3.83 11.3
3/28/2021 1:00:00 AM 11.79 53.222 115 7.3 3.44 11.29
3/28/2021 1:15:00 AM 11.77 53.186 115 7.3 4.31 11.28
3/28/2021 1:30:00 AM 11.75 53.15 115 7.29 3.78 11.26
3/28/2021 1:45:00 AM 11.73 53.114 115 7.29 4.11 11.26
3/28/2021 2:00:00 AM 11.7 53.06 115 7.29 4.23 11.25
3/28/2021 2:15:00 AM 11.67 53.006 115 7.29 4.42 11.23
3/28/2021 2:30:00 AM 11.65 52.97 115 7.28 3.88 11.22
3/28/2021 2:45:00 AM 11.62 52.916 116 7.28 4.12 11.21
3/28/2021 3:00:00 AM 11.61 52.898 115 7.28 4.26 11.19
3/28/2021 3:15:00 AM 11.59 52.862 116 7.27 3.73 11.18
3/28/2021 3:30:00 AM 11.56 52.808 115 7.27 4.43 11.17
3/28/2021 3:45:00 AM 11.55 52.79 116 7.27 3.78 11.16
3/28/2021 4:00:00 AM 11.52 52.736 116 7.27 4.02 11.14
3/28/2021 4:15:00 AM 11.51 52.718 116 7.26 3.25 11.13
3/28/2021 4:30:00 AM 11.49 52.682 116 7.26 3.73 11.12
3/28/2021 4:45:00 AM 11.47 52.646 116 7.26 3.96 11.11
3/28/2021 5:00:00 AM 11.45 52.61 116 7.25 3.94 11.09
3/28/2021 5:15:00 AM 11.44 52.592 116 7.25 3.76 11.08
3/28/2021 5:30:00 AM 11.42 52.556 116 7.25 3.45 11.07
3/28/2021 5:45:00 AM 11.41 52.538 116 7.24 3.69 11.06
3/28/2021 6:00:00 AM 11.4 52.52 116 7.24 3.69 11.06
3/28/2021 6:15:00 AM 11.38 52.484 116 7.24 3.95 11.04
3/28/2021 6:30:00 AM 11.37 52.466 116 7.24 3.97 11.03
3/28/2021 6:45:00 AM 11.36 52.448 116 7.23 3.46 11.02
3/28/2021 7:00:00 AM 11.34 52.412 116 7.23 3.7 11.02
3/28/2021 7:15:00 AM 11.33 52.394 116 7.23 4.12 11.01
3/28/2021 7:30:00 AM 11.32 52.376 116 7.23 3.47 11
3/28/2021 7:45:00 AM 11.31 52.358 117 7.23 3.67 10.99
3/28/2021 8:00:00 AM 11.3 52.34 117 7.23 3.63 10.99
3/28/2021 8:15:00 AM 11.29 52.322 117 7.23 3.82 10.99
3/28/2021 8:30:00 AM 11.28 52.304 117 7.23 4 10.99
3/28/2021 8:45:00 AM 11.27 52.286 117 7.23 3.17 10.98
3/28/2021 9:00:00 AM 11.26 52.268 117 7.23 3.6 10.97
3/28/2021 9:15:00 AM 11.25 52.25 117 7.22 3.37 10.97
3/28/2021 9:30:00 AM 11.27 52.286 125 7.28 3.08 11.19
3/28/2021 9:45:00 AM 11.28 52.304 122 7.2 2.77 11.11
3/28/2021 10:00:00 AM 11.23 52.214 118 7.22 3.55 11
3/28/2021 10:15:00 AM 11.22 52.196 117 7.22 3.62 10.99
3/28/2021 10:30:00 AM 11.22 52.196 117 7.23 3.35 10.99
3/28/2021 10:45:00 AM 11.22 52.196 118 7.23 3.19 11
3/28/2021 11:00:00 AM 11.21 52.178 118 7.23 3.14 11
3/28/2021 11:15:00 AM 11.21 52.178 118 7.23 3.21 11.01
3/28/2021 11:30:00 AM 11.2 52.16 118 7.23 3.16 11.01
3/28/2021 11:45:00 AM 11.19 52.142 118 7.23 3.11 11.01
3/28/2021 12:00:00 PM 11.18 52.124 118 7.23 3.02 11.02
3/28/2021 12:15:00 PM 11.18 52.124 118 7.23 3.19 11.02
3/28/2021 12:30:00 PM 11.17 52.106 118 7.23 3.34 11.03
3/28/2021 12:45:00 PM 11.17 52.106 118 7.23 3.1 11.03
3/28/2021 1:00:00 PM 11.17 52.106 118 7.24 3.14 11.05
3/28/2021 1:15:00 PM 11.17 52.106 118 7.24 3.25 11.05
3/28/2021 1:30:00 PM 11.18 52.124 118 7.24 3.33 11.07
3/28/2021 1:45:00 PM 11.19 52.142 118 7.24 2.93 11.08
3/28/2021 2:00:00 PM 11.19 52.142 118 7.24 2.95 11.08
3/28/2021 2:15:00 PM 11.19 52.142 119 7.25 3.42 11.09
3/28/2021 2:30:00 PM 11.2 52.16 119 7.25 3.22 11.09
3/28/2021 2:45:00 PM 11.19 52.142 119 7.25 3.27 11.09
3/28/2021 3:00:00 PM 11.19 52.142 119 7.25 3.28 11.08
3/28/2021 3:15:00 PM 11.19 52.142 119 7.25 3.09 11.1
3/28/2021 3:30:00 PM 11.19 52.142 119 7.25 3.14 11.1
3/28/2021 3:45:00 PM 11.19 52.142 119 7.26 3.28 11.1
3/28/2021 4:00:00 PM 11.2 52.16 119 7.26 3.37 11.11
3/28/2021 4:15:00 PM 11.21 52.178 119 7.28 3.47 11.12
3/28/2021 4:30:00 PM 11.22 52.196 120 7.28 3.37 11.12
3/28/2021 4:45:00 PM 11.22 52.196 120 7.28 3.33 11.14
3/28/2021 5:00:00 PM 11.22 52.196 120 7.28 3.4 11.13
3/28/2021 5:15:00 PM 11.39 52.502 128 7.27 2.28 11.23
3/28/2021 5:30:00 PM 11.29 52.322 122 7.23 2.96 11.16
3/28/2021 5:45:00 PM 11.22 52.196 120 7.27 3.27 11.14
3/28/2021 6:00:00 PM 11.21 52.178 120 7.28 3.13 11.16
3/28/2021 6:15:00 PM 11.21 52.178 120 7.28 2.96 11.17
3/28/2021 6:30:00 PM 11.2 52.16 120 7.28 3.23 11.17
3/28/2021 6:45:00 PM 11.19 52.142 120 7.28 2.9 11.17
3/28/2021 7:00:00 PM 11.19 52.142 121 7.29 3.23 11.16
3/28/2021 7:15:00 PM 11.16 52.088 121 7.29 3.03 11.17
3/28/2021 7:30:00 PM 11.13 52.034 121 7.29 3.18 11.17
3/28/2021 7:45:00 PM 11.1 51.98 121 7.29 3.55 11.18
3/28/2021 8:00:00 PM 11.08 51.944 121 7.29 3.3 11.18
3/28/2021 8:15:00 PM 11.05 51.89 121 7.29 3.34 11.18
3/28/2021 8:30:00 PM 11.03 51.854 121 7.29 3.17 11.19
3/28/2021 8:45:00 PM 11.02 51.836 121 7.29 2.96 11.19
3/28/2021 9:00:00 PM 10.99 51.782 122 7.3 3.24 11.19
3/28/2021 9:15:00 PM 10.97 51.746 122 7.3 3.26 11.2
3/28/2021 9:30:00 PM 10.95 51.71 122 7.3 3.17 11.21
3/28/2021 9:45:00 PM 10.92 51.656 122 7.3 3.31 11.21
3/28/2021 10:00:00 PM 10.91 51.638 122 7.3 3.18 11.22
3/28/2021 10:15:00 PM 10.88 51.584 122 7.3 3.02 11.21
3/28/2021 10:30:00 PM 10.85 51.53 122 7.3 3.19 11.21
3/28/2021 10:45:00 PM 10.83 51.494 122 7.3 2.96 11.2
3/28/2021 11:00:00 PM 10.82 51.476 122 7.3 3.47 11.2
3/28/2021 11:15:00 PM 10.8 51.44 122 7.3 3.64 11.21
3/28/2021 11:30:00 PM 10.77 51.386 122 7.3 3.27 11.21
3/28/2021 11:45:00 PM 10.74 51.332 122 7.3 3.34 11.21
3/29/2021 12:00:00 AM 10.7 51.26 122 7.31 3.53 11.22
3/29/2021 12:15:00 AM 10.67 51.206 122 7.31 3.72 11.22
3/29/2021 12:30:00 AM 10.64 51.152 122 7.31 3.71 11.22
3/29/2021 12:45:00 AM 10.61 51.098 122 7.31 4.17 11.23
3/29/2021 1:00:00 AM 10.59 51.062 123 7.31 3.88 11.22
3/29/2021 1:15:00 AM 10.57 51.026 123 7.31 3.91 11.23
3/29/2021 1:30:00 AM 10.55 50.99 123 7.31 3.64 11.23
3/29/2021 1:45:00 AM 10.53 50.954 123 7.31 3.71 11.22
3/29/2021 2:00:00 AM 10.52 50.936 123 7.31 3.5 11.22
3/29/2021 2:15:00 AM 10.5 50.9 123 7.31 3.47 11.22
3/29/2021 2:30:00 AM 10.48 50.864 123 7.31 3.12 11.23
3/29/2021 2:45:00 AM 10.46 50.828 122 7.31 3.44 11.22
3/29/2021 3:00:00 AM 10.44 50.792 122 7.3 3.43 11.22
3/29/2021 3:15:00 AM 10.41 50.738 122 7.3 3.59 11.21
3/29/2021 3:30:00 AM 10.38 50.684 122 7.3 3.44 11.22
3/29/2021 3:45:00 AM 10.36 50.648 122 7.3 3.18 11.21
3/29/2021 4:00:00 AM 10.33 50.594 122 7.3 3.27 11.21
3/29/2021 4:15:00 AM 10.31 50.558 122 7.3 3.57 11.21
3/29/2021 4:30:00 AM 10.29 50.522 122 7.3 3.03 11.2
3/29/2021 4:45:00 AM 10.25 50.45 122 7.29 3.45 11.2
3/29/2021 5:00:00 AM 10.22 50.396 122 7.29 3.65 11.2
3/29/2021 5:15:00 AM 10.19 50.342 122 7.29 3.86 11.19
3/29/2021 5:30:00 AM 10.15 50.27 122 7.29 3.72 11.19
3/29/2021 5:45:00 AM 10.12 50.216 122 7.29 3.82 11.19
3/29/2021 6:00:00 AM 10.09 50.162 122 7.28 3.73 11.19
3/29/2021 6:15:00 AM 10.06 50.108 122 7.28 3.92 11.19
3/29/2021 6:30:00 AM 10.02 50.036 122 7.28 4.08 11.19
3/29/2021 6:45:00 AM 9.98 49.964 122 7.28 5 11.19
3/29/2021 7:00:00 AM 9.96 49.928 122 7.28 4.65 11.19
3/29/2021 7:15:00 AM 9.92 49.856 122 7.28 4.61 11.19
3/29/2021 7:30:00 AM 9.9 49.82 122 7.28 4.37 11.18
3/29/2021 7:45:00 AM 9.87 49.766 122 7.28 4.61 11.18
3/29/2021 8:00:00 AM 9.85 49.73 122 7.28 3.84 11.19
3/29/2021 8:15:00 AM 9.83 49.694 122 7.28 4.01 11.2
3/29/2021 8:30:00 AM 9.8 49.64 122 7.28 4.22 11.2
3/29/2021 8:45:00 AM 9.79 49.622 122 7.28 5.1 11.22
3/29/2021 9:00:00 AM 9.78 49.604 122 7.28 4.79 11.23
3/29/2021 9:15:00 AM 9.77 49.586 122 7.28 4.96 11.24
3/29/2021 9:30:00 AM 9.78 49.604 121 7.28 4.01 11.26
3/29/2021 9:45:00 AM 9.79 49.622 121 7.29 4.74 11.27
3/29/2021 10:00:00 AM 9.81 49.658 121 7.29 5.05 11.29
3/29/2021 10:15:00 AM 9.83 49.694 121 7.29 4.66 11.3
3/29/2021 10:30:00 AM 9.86 49.748 121 7.29 4.76 11.32
3/29/2021 10:45:00 AM 9.87 49.766 121 7.29 4.61 11.33
3/29/2021 11:00:00 AM 9.89 49.802 121 7.3 4.35 11.35
3/29/2021 11:15:00 AM 9.89 49.802 120 7.3 4.7 11.38
3/29/2021 11:30:00 AM 9.94 49.892 120 7.3 4.44 11.39
3/29/2021 11:45:00 AM 9.99 49.982 120 7.3 4.44 11.41
3/29/2021 12:00:00 PM 10.03 50.054 120 7.31 4.27 11.42
3/29/2021 12:15:00 PM 10.04 50.072 120 7.31 4.96 11.44
3/29/2021 12:30:00 PM 10.08 50.144 119 7.31 4.38 11.46
3/29/2021 12:45:00 PM 10.17 50.306 119 7.31 3.88 11.47
3/29/2021 1:00:00 PM 10.22 50.396 119 7.31 3.87 11.48
3/29/2021 1:15:00 PM 10.26 50.468 119 7.32 4.1 11.49
3/29/2021 1:30:00 PM 10.33 50.594 119 7.32 3.73 11.5
3/29/2021 1:45:00 PM 10.39 50.702 119 7.32 4.09 11.52
3/29/2021 2:00:00 PM 10.42 50.756 119 7.32 4.3 11.53
3/29/2021 2:15:00 PM 10.47 50.846 119 7.32 3.93 11.54
3/29/2021 2:30:00 PM 10.52 50.936 119 7.33 4.07 11.57
3/29/2021 2:45:00 PM 10.54 50.972 119 7.33 4.07 11.57
3/29/2021 3:00:00 PM 10.57 51.026 118 7.33 3.58 11.59
3/29/2021 3:15:00 PM 10.58 51.044 118 7.33 4.14 11.6
3/29/2021 3:30:00 PM 10.6 51.08 118 7.34 4.01 11.61
3/29/2021 3:45:00 PM 10.62 51.116 118 7.34 4.11 11.63
3/29/2021 4:00:00 PM 10.64 51.152 118 7.34 4.22 11.64
3/29/2021 4:15:00 PM 10.64 51.152 118 7.34 3.89 11.65
3/29/2021 4:30:00 PM 10.64 51.152 118 7.35 4.21 11.68
3/29/2021 4:45:00 PM 10.64 51.152 118 7.35 4.71 11.69
3/29/2021 5:00:00 PM 10.64 51.152 118 7.35 4.22 11.71
3/29/2021 5:15:00 PM 10.63 51.134 118 7.36 3.74 11.72
3/29/2021 5:30:00 PM 10.62 51.116 118 7.36 4.04 11.73
3/29/2021 5:45:00 PM 10.6 51.08 118 7.36 4.14 11.75
3/29/2021 6:00:00 PM 10.57 51.026 118 7.36 4.31 11.76
3/29/2021 6:15:00 PM 10.54 50.972 118 7.37 4.47 11.77
3/29/2021 6:30:00 PM 10.5 50.9 118 7.37 3.79 11.78
3/29/2021 6:45:00 PM 10.48 50.864 118 7.37 4.36 11.78
3/29/2021 7:00:00 PM 10.45 50.81 118 7.37 3.89 11.8
3/29/2021 7:15:00 PM 10.42 50.756 118 7.37 4.06 11.8
3/29/2021 7:30:00 PM 10.67 51.206 126 7.31 2.48 11.73
3/29/2021 7:45:00 PM 10.4 50.72 119 7.35 3.65 11.8
3/29/2021 8:00:00 PM 10.33 50.594 118 7.37 3.7 11.82
3/29/2021 8:15:00 PM 10.31 50.558 118 7.37 3.61 11.83
3/29/2021 8:30:00 PM 10.28 50.504 118 7.37 3.99 11.83
3/29/2021 8:45:00 PM 10.26 50.468 118 7.37 3.67 11.84
3/29/2021 9:00:00 PM 10.24 50.432 118 7.38 3.7 11.84
3/29/2021 9:15:00 PM 10.22 50.396 118 7.37 3.69 11.84
3/29/2021 9:30:00 PM 10.2 50.36 118 7.37 3.67 11.84
3/29/2021 9:45:00 PM 10.17 50.306 118 7.37 4.11 11.84
3/29/2021 10:00:00 PM 10.14 50.252 118 7.37 4.13 11.83
3/29/2021 10:15:00 PM 10.13 50.234 118 7.37 4.24 11.83
3/29/2021 10:30:00 PM 10.11 50.198 118 7.37 4.12 11.82
3/29/2021 10:45:00 PM 10.1 50.18 118 7.37 3.54 11.83
3/29/2021 11:00:00 PM 10.09 50.162 118 7.37 4.02 11.82
3/29/2021 11:15:00 PM 10.07 50.126 118 7.37 3.66 11.82
3/29/2021 11:30:00 PM 10.05 50.09 118 7.36 3.92 11.81
3/29/2021 11:45:00 PM 10.04 50.072 119 7.36 3.59 11.81
3/30/2021 12:00:00 AM 10.03 50.054 118 7.36 3.86 11.8
3/30/2021 12:15:00 AM 10.02 50.036 119 7.36 3.87 11.8
3/30/2021 12:30:00 AM 10.01 50.018 119 7.36 3.55 11.79
3/30/2021 12:45:00 AM 9.99 49.982 119 7.36 3.84 11.78
3/30/2021 1:00:00 AM 9.97 49.946 119 7.35 4.01 11.78
3/30/2021 1:15:00 AM 9.96 49.928 119 7.35 3.9 11.76
3/30/2021 1:30:00 AM 9.94 49.892 119 7.35 3.82 11.76
3/30/2021 1:45:00 AM 9.91 49.838 119 7.35 3.85 11.74
3/30/2021 2:00:00 AM 9.89 49.802 119 7.34 3.7 11.74
3/30/2021 2:15:00 AM 9.86 49.748 119 7.34 3.9 11.72
3/30/2021 2:30:00 AM 9.84 49.712 120 7.34 3.55 11.72
3/30/2021 2:45:00 AM 9.8 49.64 120 7.34 3.53 11.71
3/30/2021 3:00:00 AM 9.77 49.586 120 7.33 3.21 11.69
3/30/2021 3:15:00 AM 9.74 49.532 120 7.33 3.64 11.69
3/30/2021 3:30:00 AM 9.7 49.46 120 7.33 3.42 11.68
3/30/2021 3:45:00 AM 9.66 49.388 120 7.32 3.58 11.67
3/30/2021 4:00:00 AM 9.62 49.316 120 7.32 3.49 11.66
3/30/2021 4:15:00 AM 9.58 49.244 120 7.31 3.64 11.65
3/30/2021 4:30:00 AM 9.54 49.172 121 7.31 3.6 11.64
3/30/2021 4:45:00 AM 9.5 49.1 121 7.31 3.61 11.63
3/30/2021 5:00:00 AM 9.45 49.01 121 7.3 3.5 11.63
3/30/2021 5:15:00 AM 9.41 48.938 121 7.3 3.61 11.62
3/30/2021 5:30:00 AM 9.37 48.866 121 7.3 3.22 11.61
3/30/2021 5:45:00 AM 9.32 48.776 121 7.29 3.17 11.61
3/30/2021 6:00:00 AM 9.27 48.686 121 7.29 3.4 11.61
3/30/2021 6:15:00 AM 9.23 48.614 121 7.29 3.4 11.6
3/30/2021 6:30:00 AM 9.18 48.524 122 7.28 3.41 11.61
3/30/2021 6:45:00 AM 9.15 48.47 122 7.28 3.46 11.6
3/30/2021 7:00:00 AM 9.11 48.398 122 7.28 3.51 11.61
3/30/2021 7:15:00 AM 9.07 48.326 122 7.28 3.37 11.61
3/30/2021 7:30:00 AM 9.04 48.272 122 7.28 3.81 11.61
3/30/2021 7:45:00 AM 9.01 48.218 122 7.28 3.52 11.62
3/30/2021 8:00:00 AM 8.99 48.182 122 7.28 3.24 11.62
3/30/2021 8:15:00 AM 8.98 48.164 122 7.28 3.45 11.63
3/30/2021 8:30:00 AM 8.96 48.128 123 7.28 3.82 11.64
3/30/2021 8:45:00 AM 8.96 48.128 123 7.28 3.38 11.65
3/30/2021 9:00:00 AM 8.97 48.146 123 7.28 3.28 11.66
3/30/2021 9:15:00 AM 8.98 48.164 123 7.28 3.42 11.67
3/30/2021 9:30:00 AM 9 48.2 123 7.28 3.54 11.69
3/30/2021 9:45:00 AM 9.01 48.218 123 7.28 3.49 11.7
3/30/2021 10:00:00 AM 9.51 49.118 128 7.29 2.51 11.79
3/30/2021 10:15:00 AM 9.25 48.65 125 7.27 3.12 11.73
3/30/2021 10:30:00 AM 9.13 48.434 124 7.28 3.88 11.75
3/30/2021 10:45:00 AM 9.16 48.488 124 7.29 3.75 11.76
3/30/2021 11:00:00 AM 9.2 48.56 124 7.29 3.54 11.78
3/30/2021 11:15:00 AM 9.24 48.632 124 7.29 3.33 11.79
3/30/2021 11:30:00 AM 9.31 48.758 124 7.3 3.33 11.81
3/30/2021 11:45:00 AM 9.36 48.848 124 7.3 3.7 11.82
3/30/2021 12:00:00 PM 9.41 48.938 124 7.3 4.02 11.84
3/30/2021 12:15:00 PM 9.46 49.028 124 7.31 3.56 11.86
3/30/2021 12:30:00 PM 9.52 49.136 124 7.31 3.4 11.87
3/30/2021 12:45:00 PM 9.58 49.244 124 7.32 3.83 11.88
3/30/2021 1:00:00 PM 9.64 49.352 124 7.32 3.65 11.9
3/30/2021 1:15:00 PM 9.7 49.46 124 7.33 4.12 11.9
3/30/2021 1:30:00 PM 9.75 49.55 124 7.33 4.5 11.91
3/30/2021 1:45:00 PM 9.83 49.694 124 7.33 4.13 11.92
3/30/2021 2:00:00 PM 9.89 49.802 124 7.32 3.78 11.93
3/30/2021 2:15:00 PM 9.95 49.91 124 7.34 3.98 11.94
3/30/2021 2:30:00 PM 10.01 50.018 124 7.34 3.9 11.95
3/30/2021 2:45:00 PM 10.07 50.126 124 7.35 4.03 11.96
3/30/2021 3:00:00 PM 10.12 50.216 125 7.35 3.68 11.97
3/30/2021 3:15:00 PM 10.16 50.288 124 7.35 3.96 11.98
3/30/2021 3:30:00 PM 10.2 50.36 124 7.36 3.38 11.99
3/30/2021 3:45:00 PM 10.25 50.45 124 7.36 3.91 12
3/30/2021 4:00:00 PM 10.27 50.486 124 7.36 4.18 12
3/30/2021 4:15:00 PM 10.3 50.54 124 7.37 4.07 12.01
3/30/2021 4:30:00 PM 10.32 50.576 124 7.37 4.51 12.02
3/30/2021 4:45:00 PM 10.34 50.612 124 7.38 3.9 12.04
3/30/2021 5:00:00 PM 10.36 50.648 124 7.38 3.58 12.05
3/30/2021 5:15:00 PM 10.37 50.666 124 7.39 3.97 12.06
3/30/2021 5:30:00 PM 10.38 50.684 124 7.39 4.3 12.07
3/30/2021 5:45:00 PM 10.38 50.684 124 7.39 3.44 12.08
3/30/2021 6:00:00 PM 10.37 50.666 124 7.4 3.23 12.08
3/30/2021 6:15:00 PM 10.37 50.666 124 7.4 3.63 12.1
3/30/2021 6:30:00 PM 10.37 50.666 124 7.4 3.5 12.1
3/30/2021 6:45:00 PM 10.37 50.666 124 7.4 3.9 12.11
3/30/2021 7:00:00 PM 10.36 50.648 124 7.4 3.48 12.11
3/30/2021 7:15:00 PM 10.34 50.612 124 7.4 4.06 12.11
3/30/2021 7:30:00 PM 10.52 50.936 130 7.42 3.36 12.03
3/30/2021 7:45:00 PM 10.39 50.702 129 7.3 2.6 11.97
3/30/2021 8:00:00 PM 10.31 50.558 124 7.4 4.4 12.11
3/30/2021 8:15:00 PM 10.3 50.54 124 7.41 4.16 12.12
3/30/2021 8:30:00 PM 10.28 50.504 124 7.41 4.31 12.12
3/30/2021 8:45:00 PM 10.27 50.486 124 7.41 3.74 12.12
3/30/2021 9:00:00 PM 10.26 50.468 124 7.41 4.1 12.11
3/30/2021 9:15:00 PM 10.26 50.468 124 7.4 5.33 12.1
3/30/2021 9:30:00 PM 10.25 50.45 124 7.4 4.29 12.1
3/30/2021 9:45:00 PM 10.24 50.432 125 7.4 3.29 12.1
3/30/2021 10:00:00 PM 10.23 50.414 125 7.4 3.91 12.1
3/30/2021 10:15:00 PM 10.22 50.396 125 7.4 3.66 12.09
3/30/2021 10:30:00 PM 10.22 50.396 125 7.39 3.26 12.08
3/30/2021 10:45:00 PM 10.21 50.378 125 7.39 3.74 12.07
3/30/2021 11:00:00 PM 10.21 50.378 125 7.39 3.31 12.06
3/30/2021 11:15:00 PM 10.2 50.36 125 7.38 3.56 12.05
3/30/2021 11:30:00 PM 10.2 50.36 125 7.38 4.43 12.05
3/30/2021 11:45:00 PM 10.19 50.342 125 7.38 3.8 12.04
3/31/2021 12:00:00 AM 10.19 50.342 126 7.38 3.49 12.03
3/31/2021 12:15:00 AM 10.19 50.342 126 7.37 4 12.02
3/31/2021 12:30:00 AM 10.18 50.324 126 7.37 2.97 12.01
3/31/2021 12:45:00 AM 10.17 50.306 126 7.37 3.91 11.99
3/31/2021 1:00:00 AM 10.16 50.288 126 7.37 3.24 11.98
3/31/2021 1:15:00 AM 10.15 50.27 126 7.36 2.96 11.97
3/31/2021 1:30:00 AM 10.13 50.234 126 7.36 3.8 11.96
3/31/2021 1:45:00 AM 10.12 50.216 126 7.36 2.87 11.95
3/31/2021 2:00:00 AM 10.1 50.18 126 7.35 3.35 11.94
3/31/2021 2:15:00 AM 10.08 50.144 126 7.35 3.49 11.92
3/31/2021 2:30:00 AM 10.05 50.09 127 7.35 3.24 11.9
3/31/2021 2:45:00 AM 10.03 50.054 127 7.34 3.47 11.89
3/31/2021 3:00:00 AM 10 50 127 7.34 3.39 11.88
3/31/2021 3:15:00 AM 9.98 49.964 127 7.34 2.9 11.86
3/31/2021 3:30:00 AM 9.95 49.91 127 7.33 3.72 11.84
3/31/2021 3:45:00 AM 9.92 49.856 127 7.33 4.08 11.84
3/31/2021 4:00:00 AM 9.89 49.802 127 7.32 3.42 11.82
3/31/2021 4:15:00 AM 9.87 49.766 127 7.32 3.68 11.8
3/31/2021 4:30:00 AM 9.83 49.694 127 7.31 3.15 11.8
3/31/2021 4:45:00 AM 9.8 49.64 127 7.31 3.36 11.79
3/31/2021 5:00:00 AM 9.77 49.586 127 7.3 3.42 11.77
3/31/2021 5:15:00 AM 9.75 49.55 127 7.3 3.32 11.77
3/31/2021 5:30:00 AM 9.72 49.496 128 7.3 2.77 11.75
3/31/2021 5:45:00 AM 9.7 49.46 128 7.29 3.39 11.74
3/31/2021 6:00:00 AM 9.68 49.424 128 7.29 3.46 11.73
3/31/2021 6:15:00 AM 9.65 49.37 128 7.29 3.49 11.72
3/31/2021 6:30:00 AM 9.63 49.334 128 7.28 3.36 11.71
3/31/2021 6:45:00 AM 9.6 49.28 128 7.28 2.82 11.7
3/31/2021 7:00:00 AM 9.59 49.262 128 7.28 3.54 11.69
3/31/2021 7:15:00 AM 9.57 49.226 128 7.28 3.03 11.69
3/31/2021 7:30:00 AM 9.56 49.208 128 7.27 3.1 11.69
3/31/2021 7:45:00 AM 9.55 49.19 128 7.27 3.08 11.69
3/31/2021 8:00:00 AM 9.54 49.172 128 7.27 2.64 11.69
3/31/2021 8:15:00 AM 9.54 49.172 128 7.27 2.95 11.69
3/31/2021 8:30:00 AM 9.54 49.172 128 7.27 2.96 11.69
3/31/2021 8:45:00 AM 9.55 49.19 128 7.27 2.76 11.7
3/31/2021 9:00:00 AM 9.56 49.208 128 7.27 2.89 11.7
3/31/2021 9:15:00 AM 9.57 49.226 128 7.27 3.36 11.71
3/31/2021 9:30:00 AM 9.58 49.244 128 7.28 3.1 11.71
3/31/2021 9:45:00 AM 9.59 49.262 128 7.27 3.16 11.72
3/31/2021 10:00:00 AM 9.59 49.262 128 7.28 4.01 11.72
3/31/2021 10:15:00 AM 9.6 49.28 128 7.28 3.63 11.73
3/31/2021 10:30:00 AM 9.61 49.298 128 7.28 3.04 11.74
3/31/2021 10:45:00 AM 9.61 49.298 128 7.28 2.95 11.74
3/31/2021 11:00:00 AM 9.61 49.298 128 7.28 3.24 11.74
3/31/2021 11:15:00 AM 9.61 49.298 128 7.28 3.23 11.75
3/31/2021 11:30:00 AM 9.61 49.298 128 7.28 2.79 11.76
3/31/2021 11:45:00 AM 9.61 49.298 128 7.29 3.05 11.77
3/31/2021 12:00:00 PM 9.62 49.316 128 7.29 2.96 11.78
3/31/2021 12:15:00 PM 9.63 49.334 128 7.29 3.3 11.79
3/31/2021 12:30:00 PM 9.63 49.334 128 7.29 2.86 11.8
3/31/2021 12:45:00 PM 9.63 49.334 128 7.29 3.18 11.8
3/31/2021 1:00:00 PM 9.62 49.316 128 7.29 3.35 11.8
3/31/2021 1:15:00 PM 9.62 49.316 128 7.29 3.1 11.8
3/31/2021 1:30:00 PM 9.62 49.316 129 7.29 3.71 11.81
3/31/2021 1:45:00 PM 9.62 49.316 129 7.29 3.62 11.81
3/31/2021 2:00:00 PM 9.61 49.298 129 7.29 2.93 11.82
3/31/2021 2:15:00 PM 9.61 49.298 129 7.29 2.91 11.82
3/31/2021 2:30:00 PM 9.6 49.28 129 7.3 3 11.82
3/31/2021 2:45:00 PM 9.6 49.28 128 7.3 2.83 11.83
3/31/2021 3:00:00 PM 9.6 49.28 128 7.3 2.89 11.84
3/31/2021 3:15:00 PM 9.61 49.298 128 7.3 2.86 11.85
3/31/2021 3:30:00 PM 9.62 49.316 128 7.3 2.87 11.86
3/31/2021 3:45:00 PM 9.63 49.334 128 7.3 3.04 11.87
3/31/2021 4:00:00 PM 9.64 49.352 129 7.31 3.03 11.88
3/31/2021 4:15:00 PM 9.64 49.352 129 7.31 3.41 11.89
3/31/2021 4:30:00 PM 9.64 49.352 129 7.31 3.38 11.9
3/31/2021 4:45:00 PM 9.65 49.37 129 7.31 3.31 11.9
3/31/2021 5:00:00 PM 9.65 49.37 129 7.32 2.85 11.91
3/31/2021 5:15:00 PM 9.65 49.37 129 7.32 3.21 11.91
3/31/2021 5:30:00 PM 9.65 49.37 129 7.32 3.28 11.92
3/31/2021 5:45:00 PM 9.65 49.37 129 7.32 2.77 11.92
3/31/2021 6:00:00 PM 9.65 49.37 129 7.32 2.88 11.93
3/31/2021 6:15:00 PM 9.66 49.388 129 7.32 2.76 11.93
3/31/2021 6:30:00 PM 9.66 49.388 129 7.33 3.39 11.94
3/31/2021 6:45:00 PM 9.66 49.388 129 7.33 3.03 11.93
3/31/2021 7:00:00 PM 9.67 49.406 129 7.33 2.99 11.93
3/31/2021 7:15:00 PM 9.99 49.982 134 7.29 2.12 11.83
3/31/2021 7:30:00 PM 9.71 49.478 129 7.31 3.33 11.92
3/31/2021 7:45:00 PM 9.68 49.424 129 7.32 2.83 11.94
3/31/2021 8:00:00 PM 9.68 49.424 129 7.32 2.75 11.94
3/31/2021 8:15:00 PM 9.68 49.424 129 7.32 2.94 11.93
3/31/2021 8:30:00 PM 9.67 49.406 129 7.32 2.92 11.93
3/31/2021 8:45:00 PM 9.67 49.406 129 7.32 2.96 11.92
3/31/2021 9:00:00 PM 9.67 49.406 129 7.32 3.18 11.91
3/31/2021 9:15:00 PM 9.67 49.406 129 7.32 2.74 11.91
3/31/2021 9:30:00 PM 9.66 49.388 129 7.32 3.24 11.9
3/31/2021 9:45:00 PM 9.66 49.388 129 7.32 2.81 11.91
3/31/2021 10:00:00 PM 9.65 49.37 129 7.32 3.2 11.91
3/31/2021 10:15:00 PM 9.65 49.37 129 7.32 3.22 11.9
3/31/2021 10:30:00 PM 9.64 49.352 130 7.32 3.02 11.9
3/31/2021 10:45:00 PM 9.63 49.334 130 7.32 2.93 11.9
3/31/2021 11:00:00 PM 9.63 49.334 130 7.32 3.15 11.9
3/31/2021 11:15:00 PM 9.62 49.316 130 7.32 2.69 11.9
3/31/2021 11:30:00 PM 9.61 49.298 130 7.32 2.97 11.89
3/31/2021 11:45:00 PM 9.61 49.298 130 7.32 3.16 11.89
4/1/2021 12:00:00 AM 9.6 49.28 130 7.32 3.16 11.89
4/1/2021 12:15:00 AM 9.59 49.262 130 7.32 3.27 11.89
4/1/2021 12:30:00 AM 9.59 49.262 130 7.32 3.24 11.89
4/1/2021 12:45:00 AM 9.58 49.244 130 7.31 2.91 11.88
4/1/2021 1:00:00 AM 9.57 49.226 131 7.31 2.94 11.88
4/1/2021 1:15:00 AM 9.55 49.19 131 7.31 3.43 11.87
4/1/2021 1:30:00 AM 9.54 49.172 131 7.31 3.43 11.86
4/1/2021 1:45:00 AM 9.52 49.136 131 7.31 3.92 11.86
4/1/2021 2:00:00 AM 9.5 49.1 131 7.31 3.12 11.85
4/1/2021 2:15:00 AM 9.48 49.064 131 7.31 3 11.84
4/1/2021 2:30:00 AM 9.46 49.028 131 7.31 2.97 11.83
4/1/2021 2:45:00 AM 9.44 48.992 131 7.3 3.31 11.82
4/1/2021 3:00:00 AM 9.42 48.956 131 7.3 3.23 11.81
4/1/2021 3:15:00 AM 9.4 48.92 131 7.3 3.81 11.8
4/1/2021 3:30:00 AM 9.38 48.884 132 7.29 2.95 11.8
4/1/2021 3:45:00 AM 9.37 48.866 132 7.29 3.01 11.78
4/1/2021 4:00:00 AM 9.35 48.83 132 7.29 3.12 11.78
4/1/2021 4:15:00 AM 9.32 48.776 132 7.29 2.84 11.77
4/1/2021 4:30:00 AM 9.3 48.74 132 7.29 3.42 11.76
4/1/2021 4:45:00 AM 9.27 48.686 132 7.29 3.31 11.75
4/1/2021 5:00:00 AM 9.24 48.632 132 7.28 3.3 11.74
4/1/2021 5:15:00 AM 9.22 48.596 132 7.28 3.99 11.74
4/1/2021 5:30:00 AM 9.2 48.56 132 7.28 3.13 11.72
4/1/2021 5:45:00 AM 9.18 48.524 132 7.28 3.35 11.72
4/1/2021 6:00:00 AM 9.16 48.488 132 7.28 3.55 11.71
4/1/2021 6:15:00 AM 9.15 48.47 132 7.27 3.14 11.71
4/1/2021 6:30:00 AM 9.13 48.434 132 7.27 3.65 11.7
4/1/2021 6:45:00 AM 9.11 48.398 132 7.27 3.01 11.69
4/1/2021 7:00:00 AM 9.1 48.38 132 7.27 3.21 11.69
4/1/2021 7:15:00 AM 9.08 48.344 132 7.27 3.34 11.68
4/1/2021 7:30:00 AM 9.07 48.326 132 7.27 3.12 11.68
4/1/2021 7:45:00 AM 9.05 48.29 132 7.27 3.19 11.69
4/1/2021 8:00:00 AM 9.04 48.272 132 7.27 3.07 11.69
4/1/2021 8:15:00 AM 9.03 48.254 132 7.27 3.3 11.69
4/1/2021 8:30:00 AM 9.02 48.236 132 7.27 2.89 11.69
4/1/2021 8:45:00 AM 9.01 48.218 132 7.27 2.82 11.69
4/1/2021 9:00:00 AM 9.01 48.218 132 7.28 3.55 11.7
4/1/2021 9:15:00 AM 9.01 48.218 132 7.28 3.2 11.71
4/1/2021 9:30:00 AM 9.02 48.236 132 7.28 3.11 11.72
4/1/2021 9:45:00 AM 9.04 48.272 133 7.28 2.98 11.72
4/1/2021 10:00:00 AM 9.06 48.308 133 7.28 3.21 11.73
4/1/2021 10:15:00 AM 9.09 48.362 133 7.28 2.89 11.73
4/1/2021 10:30:00 AM 9.12 48.416 132 7.29 3.12 11.74
4/1/2021 10:45:00 AM 9.16 48.488 132 7.29 3.02 11.76
4/1/2021 11:00:00 AM 9.21 48.578 132 7.29 3.01 11.77
4/1/2021 11:15:00 AM 9.25 48.65 132 7.3 3.17 11.79
4/1/2021 11:30:00 AM 9.38 48.884 136 7.34 2.7 11.84
4/1/2021 11:45:00 AM 9.43 48.974 135 7.25 2.29 11.84
4/1/2021 12:00:00 PM 9.28 48.704 133 7.28 3.8 11.81
4/1/2021 12:15:00 PM 9.24 48.632 132 7.3 3.39 11.82
4/1/2021 12:30:00 PM 9.26 48.668 132 7.31 3.22 11.84
4/1/2021 12:45:00 PM 9.27 48.686 133 7.31 3.21 11.84
4/1/2021 1:00:00 PM 9.31 48.758 133 7.32 3.1 11.86
4/1/2021 1:15:00 PM 9.34 48.812 133 7.32 2.77 11.87
4/1/2021 1:30:00 PM 9.37 48.866 133 7.33 3.62 11.88
4/1/2021 1:45:00 PM 9.38 48.884 133 7.33 3.13 11.9
4/1/2021 2:00:00 PM 9.38 48.884 133 7.33 3.59 11.91
4/1/2021 2:15:00 PM 9.35 48.83 133 7.34 3.14 11.92
4/1/2021 2:30:00 PM 9.33 48.794 133 7.34 3.11 11.93
4/1/2021 2:45:00 PM 9.32 48.776 133 7.34 3.48 11.94
4/1/2021 3:00:00 PM 9.33 48.794 133 7.35 3.01 11.95
4/1/2021 3:15:00 PM 9.32 48.776 133 7.35 3.22 11.97
4/1/2021 3:30:00 PM 9.31 48.758 133 7.35 3.07 11.98
4/1/2021 3:45:00 PM 9.29 48.722 133 7.35 3.23 11.99
4/1/2021 4:00:00 PM 9.27 48.686 133 7.35 2.86 12
4/1/2021 4:15:00 PM 9.24 48.632 133 7.36 3.28 12.02
4/1/2021 4:30:00 PM 9.21 48.578 133 7.36 3.1 12.02
4/1/2021 4:45:00 PM 9.19 48.542 132 7.36 3.04 12.04
4/1/2021 5:00:00 PM 9.16 48.488 132 7.36 2.97 12.05
4/1/2021 5:15:00 PM 9.16 48.488 133 7.37 4.63 12.06
4/1/2021 5:30:00 PM 9.08 48.344 132 7.37 3.56 12.1
4/1/2021 5:45:00 PM 9.03 48.254 132 7.37 3.45 12.11
4/1/2021 6:00:00 PM 9.32 48.776 139 7.36 2.53 12.09
4/1/2021 6:15:00 PM 9.02 48.236 133 7.36 3.78 12.12
4/1/2021 6:30:00 PM 8.94 48.092 133 7.37 3.49 12.15
4/1/2021 6:45:00 PM 8.89 48.002 133 7.38 4.86 12.16
4/1/2021 7:00:00 PM 8.85 47.93 133 7.38 6.11 12.16
4/1/2021 7:15:00 PM 8.81 47.858 133 7.38 5.94 12.17
4/1/2021 7:30:00 PM 8.78 47.804 133 7.38 13.14 12.17
4/1/2021 7:45:00 PM 8.74 47.732 133 7.38 4.45 12.18
4/1/2021 8:00:00 PM 8.71 47.678 133 7.38 3.94 12.19
4/1/2021 8:15:00 PM 8.67 47.606 132 7.39 5.05 12.19
4/1/2021 8:30:00 PM 8.64 47.552 133 7.39 5.68 12.2
4/1/2021 8:45:00 PM 8.62 47.516 133 7.39 4.68 12.2
4/1/2021 9:00:00 PM 8.59 47.462 133 7.38 4.58 12.19
4/1/2021 9:15:00 PM 8.57 47.426 133 7.38 4.5 12.19
4/1/2021 9:30:00 PM 8.55 47.39 133 7.38 4.67 12.2
4/1/2021 9:45:00 PM 8.52 47.336 133 7.38 3.79 12.19
4/1/2021 10:00:00 PM 8.51 47.318 133 7.38 3.46 12.19
4/1/2021 10:15:00 PM 8.48 47.264 133 7.38 3.55 12.18
4/1/2021 10:30:00 PM 8.47 47.246 133 7.38 3.19 12.18
4/1/2021 10:45:00 PM 8.45 47.21 133 7.38 3.5 12.17
4/1/2021 11:00:00 PM 8.43 47.174 133 7.37 3.3 12.17
4/1/2021 11:15:00 PM 8.41 47.138 133 7.37 3.26 12.17
4/1/2021 11:30:00 PM 8.39 47.102 133 7.37 3.61 12.16
4/1/2021 11:45:00 PM 8.37 47.066 133 7.37 3.46 12.16
4/2/2021 12:00:00 AM 8.35 47.03 133 7.37 3.45 12.16
4/2/2021 12:15:00 AM 8.32 46.976 134 7.37 3.38 12.15
4/2/2021 12:30:00 AM 8.29 46.922 134 7.37 3.38 12.14
4/2/2021 12:45:00 AM 8.25 46.85 133 7.36 3.47 12.14
4/2/2021 1:00:00 AM 8.21 46.778 133 7.36 3.56 12.14
4/2/2021 1:15:00 AM 8.18 46.724 134 7.36 3.43 12.14
4/2/2021 1:30:00 AM 8.15 46.67 134 7.36 3.51 12.13
4/2/2021 1:45:00 AM 8.11 46.598 134 7.36 3.44 12.13
4/2/2021 2:00:00 AM 8.07 46.526 134 7.36 3.35 12.13
4/2/2021 2:15:00 AM 8.04 46.472 134 7.35 3.24 12.12
4/2/2021 2:30:00 AM 8 46.4 134 7.35 3.29 12.12
4/2/2021 2:45:00 AM 7.95 46.31 134 7.35 3.79 12.11
4/2/2021 3:00:00 AM 7.92 46.256 134 7.35 3.42 12.11
4/2/2021 3:15:00 AM 7.89 46.202 134 7.35 3.39 12.11
4/2/2021 3:30:00 AM 7.86 46.148 134 7.35 3.13 12.11
4/2/2021 3:45:00 AM 7.83 46.094 134 7.34 3.49 12.1
4/2/2021 4:00:00 AM 7.8 46.04 134 7.34 3.11 12.09
4/2/2021 4:15:00 AM 7.78 46.004 134 7.34 3.09 12.09
4/2/2021 4:30:00 AM 7.75 45.95 134 7.34 3.32 12.08
4/2/2021 4:45:00 AM 7.72 45.896 134 7.33 3.12 12.07
4/2/2021 5:00:00 AM 7.7 45.86 134 7.33 3.24 12.07
4/2/2021 5:15:00 AM 7.67 45.806 135 7.33 3.16 12.06
4/2/2021 5:30:00 AM 7.65 45.77 135 7.32 3.19 12.06
4/2/2021 5:45:00 AM 7.62 45.716 135 7.32 3.17 12.05
4/2/2021 6:00:00 AM 7.58 45.644 135 7.32 3.16 12.05
4/2/2021 6:15:00 AM 7.55 45.59 135 7.32 3.09 12.05
4/2/2021 6:30:00 AM 7.53 45.554 135 7.31 3.08 12.04
4/2/2021 6:45:00 AM 7.5 45.5 135 7.31 3.23 12.04
4/2/2021 7:00:00 AM 7.47 45.446 135 7.31 3.08 12.04
4/2/2021 7:15:00 AM 7.44 45.392 135 7.31 3.26 12.04
4/2/2021 7:30:00 AM 7.41 45.338 135 7.31 3.13 12.05
4/2/2021 7:45:00 AM 7.39 45.302 135 7.31 3.07 12.05
4/2/2021 8:00:00 AM 7.37 45.266 135 7.31 3.18 12.06
4/2/2021 8:15:00 AM 7.35 45.23 135 7.31 3.13 12.06
4/2/2021 8:30:00 AM 7.33 45.194 135 7.31 3.03 12.07
4/2/2021 8:45:00 AM 7.32 45.176 135 7.31 3.08 12.09
4/2/2021 9:00:00 AM 7.31 45.158 135 7.31 3.1 12.09
4/2/2021 9:15:00 AM 7.31 45.158 135 7.31 3.2 12.1
4/2/2021 9:30:00 AM 7.31 45.158 135 7.31 3.05 12.13
4/2/2021 9:45:00 AM 7.31 45.158 135 7.31 2.84 12.14
4/2/2021 10:00:00 AM 7.32 45.176 135 7.32 2.97 12.16
4/2/2021 10:15:00 AM 7.33 45.194 135 7.32 2.94 12.17
4/2/2021 10:30:00 AM 7.35 45.23 135 7.32 2.92 12.19
4/2/2021 10:45:00 AM 7.38 45.284 135 7.32 2.97 12.2
4/2/2021 11:00:00 AM 7.41 45.338 135 7.33 3.06 12.23
4/2/2021 11:15:00 AM 7.44 45.392 135 7.33 3.07 12.24
4/2/2021 11:30:00 AM 7.48 45.464 135 7.33 3.21 12.26
4/2/2021 11:45:00 AM 7.52 45.536 134 7.33 3 12.27
4/2/2021 12:00:00 PM 7.56 45.608 134 7.34 2.97 12.28
4/2/2021 12:15:00 PM 7.59 45.662 134 7.33 3.52 12.3
4/2/2021 12:30:00 PM 7.64 45.752 134 7.34 3.13 12.3
4/2/2021 12:45:00 PM 7.67 45.806 134 7.34 3.13 12.23
4/2/2021 1:00:00 PM 7.7 45.86 134 7.34 2.86 12.31
4/2/2021 1:15:00 PM 7.76 45.968 134 7.34 2.71 12.32
4/2/2021 1:30:00 PM 7.81 46.058 134 7.35 2.85 12.35
4/2/2021 1:45:00 PM 7.85 46.13 134 7.34 2.68 12.36
4/2/2021 2:00:00 PM 7.91 46.238 134 7.35 2.99 12.32
4/2/2021 2:15:00 PM 7.96 46.328 134 7.35 2.88 12.37
4/2/2021 2:30:00 PM 8.01 46.418 134 7.35 2.81 12.36
4/2/2021 2:45:00 PM 8.08 46.544 134 7.36 2.83 12.41
4/2/2021 3:00:00 PM 8.12 46.616 134 7.36 2.85 12.41
4/2/2021 3:15:00 PM 8.17 46.706 134 7.37 3 12.42
4/2/2021 3:30:00 PM 8.22 46.796 133 7.37 2.89 12.43
4/2/2021 3:45:00 PM 8.25 46.85 133 7.37 2.67 12.45
4/2/2021 4:00:00 PM 8.29 46.922 133 7.37 2.88 12.46
4/2/2021 4:15:00 PM 8.31 46.958 133 7.38 2.8 12.47
4/2/2021 4:30:00 PM 8.32 46.976 133 7.38 2.62 12.49
4/2/2021 4:45:00 PM 8.33 46.994 133 7.39 3.06 12.51
4/2/2021 5:00:00 PM 8.33 46.994 133 7.39 3.21 12.51
4/2/2021 5:15:00 PM 8.32 46.976 133 7.39 3 12.53
4/2/2021 5:30:00 PM 8.31 46.958 133 7.4 2.52 12.55
4/2/2021 5:45:00 PM 8.3 46.94 133 7.4 3.03 12.57
4/2/2021 6:00:00 PM 8.29 46.922 133 7.41 2.54 12.59
4/2/2021 6:15:00 PM 8.27 46.886 133 7.41 2.73 12.59
4/2/2021 6:30:00 PM 8.24 46.832 133 7.41 2.87 12.61
4/2/2021 6:45:00 PM 8.21 46.778 133 7.41 2.83 12.62
4/2/2021 7:00:00 PM 8.19 46.742 133 7.42 2.96 12.63
4/2/2021 7:15:00 PM 8.17 46.706 133 7.42 2.56 12.64
4/2/2021 7:30:00 PM 8.15 46.67 133 7.42 2.65 12.64
4/2/2021 7:45:00 PM 8.12 46.616 133 7.42 3.09 12.65
4/2/2021 8:00:00 PM 8.08 46.544 133 7.42 3.04 12.66
4/2/2021 8:15:00 PM 8.06 46.508 133 7.42 2.93 12.66
4/2/2021 8:30:00 PM 8.03 46.454 133 7.42 2.47 12.67
4/2/2021 8:45:00 PM 8.02 46.436 133 7.42 2.81 12.66
4/2/2021 9:00:00 PM 8 46.4 133 7.42 3.19 12.66
4/2/2021 9:15:00 PM 7.98 46.364 133 7.42 2.65 12.66
4/2/2021 9:30:00 PM 7.96 46.328 132 7.42 2.67 12.66
4/2/2021 9:45:00 PM 7.95 46.31 132 7.42 2.7 12.66
4/2/2021 10:00:00 PM 7.93 46.274 132 7.42 2.87 12.65
4/2/2021 10:15:00 PM 7.92 46.256 132 7.41 2.8 12.64
4/2/2021 10:30:00 PM 7.9 46.22 132 7.41 3.03 12.64
4/2/2021 10:45:00 PM 7.88 46.184 132 7.41 2.74 12.63
4/2/2021 11:00:00 PM 7.87 46.166 132 7.41 2.6 12.62
4/2/2021 11:15:00 PM 7.85 46.13 132 7.41 2.77 12.61
4/2/2021 11:30:00 PM 7.83 46.094 132 7.4 2.46 12.61
4/2/2021 11:45:00 PM 7.82 46.076 132 7.4 2.76 12.61
4/3/2021 12:00:00 AM 7.8 46.04 132 7.4 2.67 12.6
4/3/2021 12:15:00 AM 7.79 46.022 132 7.4 2.6 12.59
4/3/2021 12:30:00 AM 7.76 45.968 132 7.39 4.1 12.58
4/3/2021 12:45:00 AM 7.74 45.932 132 7.39 3.32 12.59
4/3/2021 1:00:00 AM 7.87 46.166 135 7.4 3.62 12.58
4/3/2021 1:15:00 AM 7.95 46.31 138 7.33 2.37 12.51
4/3/2021 1:30:00 AM 7.78 46.004 134 7.36 2.65 12.56
4/3/2021 1:45:00 AM 7.72 45.896 133 7.37 3.02 12.56
4/3/2021 2:00:00 AM 7.7 45.86 133 7.38 2.5 12.54
4/3/2021 2:15:00 AM 7.67 45.806 132 7.38 2.4 12.53
4/3/2021 2:30:00 AM 7.65 45.77 132 7.37 2.76 12.53
4/3/2021 2:45:00 AM 7.63 45.734 132 7.37 2.56 12.52
4/3/2021 3:00:00 AM 7.6 45.68 132 7.37 2.57 12.51
4/3/2021 3:15:00 AM 7.57 45.626 133 7.37 2.64 12.49
4/3/2021 3:30:00 AM 7.54 45.572 133 7.37 2.53 12.49
4/3/2021 3:45:00 AM 7.52 45.536 133 7.36 2.62 12.48
4/3/2021 4:00:00 AM 7.48 45.464 133 7.36 2.55 12.47
4/3/2021 4:15:00 AM 7.45 45.41 133 7.36 2.64 12.46
4/3/2021 4:30:00 AM 7.41 45.338 133 7.36 2.87 12.45
4/3/2021 4:45:00 AM 7.39 45.302 133 7.35 2.43 12.44
4/3/2021 5:00:00 AM 7.35 45.23 133 7.35 2.81 12.43
4/3/2021 5:15:00 AM 7.31 45.158 133 7.34 2.52 12.42
4/3/2021 5:30:00 AM 7.27 45.086 133 7.34 3.06 12.42
4/3/2021 5:45:00 AM 7.24 45.032 133 7.34 2.69 12.4
4/3/2021 6:00:00 AM 7.2 44.96 133 7.33 2.41 12.4
4/3/2021 6:15:00 AM 7.17 44.906 133 7.33 2.7 12.38
4/3/2021 6:30:00 AM 7.14 44.852 133 7.33 2.56 12.38
4/3/2021 6:45:00 AM 7.11 44.798 133 7.33 3.29 12.37
4/3/2021 7:00:00 AM 7.08 44.744 133 7.32 2.83 12.37
4/3/2021 7:15:00 AM 7.06 44.708 133 7.32 2.52 12.38
4/3/2021 7:30:00 AM 7.03 44.654 133 7.32 2.62 12.37
4/3/2021 7:45:00 AM 7 44.6 133 7.32 2.66 12.37
4/3/2021 8:00:00 AM 6.95 44.51 133 7.32 2.59 12.38
4/3/2021 8:15:00 AM 6.92 44.456 133 7.32 2.72 12.38
4/3/2021 8:30:00 AM 6.91 44.438 133 7.31 2.72 12.39
4/3/2021 8:45:00 AM 6.91 44.438 133 7.31 2.67 12.4
4/3/2021 9:00:00 AM 6.9 44.42 133 7.32 2.52 12.4
4/3/2021 9:15:00 AM 6.91 44.438 133 7.32 3.12 12.42
4/3/2021 9:30:00 AM 7.11 44.798 137 7.34 2.99 12.51
4/3/2021 9:45:00 AM 7.65 45.77 145 7.27 1.43 12.57
4/3/2021 10:00:00 AM 7.24 45.032 137 7.28 2.24 12.48
4/3/2021 10:15:00 AM 7.09 44.762 134 7.3 2.67 12.48
4/3/2021 10:30:00 AM 7.07 44.726 133 7.32 2.64 12.49
4/3/2021 10:45:00 AM 7.1 44.78 133 7.31 2.48 12.51
4/3/2021 11:00:00 AM 7.14 44.852 133 7.32 2.63 12.52
4/3/2021 11:15:00 AM 7.18 44.924 133 7.32 2.49 12.53
4/3/2021 11:30:00 AM 7.24 45.032 133 7.33 2.73 12.55
4/3/2021 11:45:00 AM 7.3 45.14 133 7.33 2.69 12.57
4/3/2021 12:00:00 PM 7.35 45.23 133 7.33 2.41 12.56
4/3/2021 12:15:00 PM 7.42 45.356 133 7.33 2.5 12.58
4/3/2021 12:30:00 PM 7.49 45.482 133 7.34 2.67 12.61
4/3/2021 12:45:00 PM 7.55 45.59 133 7.34 2.62 12.6
4/3/2021 1:00:00 PM 7.6 45.68 133 7.34 2.71 12.61
4/3/2021 1:15:00 PM 7.66 45.788 133 7.34 2.64 12.63
4/3/2021 1:30:00 PM 7.7 45.86 133 7.34 2.62 12.64
4/3/2021 1:45:00 PM 7.75 45.95 133 7.35 2.57 12.64
4/3/2021 2:00:00 PM 7.78 46.004 133 7.35 2.36 12.63
4/3/2021 2:15:00 PM 7.84 46.112 133 7.35 2.49 12.67
4/3/2021 2:30:00 PM 7.88 46.184 133 7.35 2.51 12.69
4/3/2021 2:45:00 PM 7.91 46.238 133 7.35 2.48 12.67
4/3/2021 3:00:00 PM 7.95 46.31 133 7.36 2.48 12.69
4/3/2021 3:15:00 PM 8 46.4 133 7.36 2.75 12.7
4/3/2021 3:30:00 PM 8.04 46.472 133 7.36 2.71 12.72
4/3/2021 3:45:00 PM 8.08 46.544 133 7.36 2.58 12.73
4/3/2021 4:00:00 PM 8.11 46.598 133 7.36 2.58 12.75
4/3/2021 4:15:00 PM 8.13 46.634 133 7.37 2.69 12.77
4/3/2021 4:30:00 PM 8.14 46.652 133 7.37 2.82 12.77
4/3/2021 4:45:00 PM 8.15 46.67 133 7.37 2.66 12.8
4/3/2021 5:00:00 PM 8.14 46.652 133 7.38 2.94 12.81
4/3/2021 5:15:00 PM 8.14 46.652 133 7.38 2.82 12.82
4/3/2021 5:30:00 PM 8.14 46.652 133 7.38 2.53 12.84
4/3/2021 5:45:00 PM 8.12 46.616 133 7.39 2.58 12.85
4/3/2021 6:00:00 PM 8.1 46.58 133 7.39 3.24 12.87
4/3/2021 6:15:00 PM 8.08 46.544 133 7.39 2.68 12.88
4/3/2021 6:30:00 PM 8.07 46.526 133 7.4 2.68 12.89
4/3/2021 6:45:00 PM 8.05 46.49 133 7.4 2.33 12.9
4/3/2021 7:00:00 PM 8.03 46.454 133 7.4 2.39 12.91
4/3/2021 7:15:00 PM 8.02 46.436 133 7.4 2.73 12.91
4/3/2021 7:30:00 PM 8 46.4 133 7.4 2.56 12.93
4/3/2021 7:45:00 PM 7.98 46.364 133 7.4 2.74 12.92
4/3/2021 8:00:00 PM 7.96 46.328 133 7.4 2.61 12.93
4/3/2021 8:15:00 PM 7.95 46.31 133 7.4 2.42 12.92
4/3/2021 8:30:00 PM 7.94 46.292 133 7.4 2.7 12.93
4/3/2021 8:45:00 PM 7.95 46.31 133 7.4 2.68 12.92
4/3/2021 9:00:00 PM 7.95 46.31 133 7.4 2.43 12.91
4/3/2021 9:15:00 PM 7.95 46.31 133 7.4 3.12 12.91
4/3/2021 9:30:00 PM 7.94 46.292 133 7.4 2.73 12.91
4/3/2021 9:45:00 PM 7.94 46.292 133 7.4 2.65 12.9
4/3/2021 10:00:00 PM 7.94 46.292 133 7.4 2.47 12.9
4/3/2021 10:15:00 PM 7.94 46.292 134 7.39 2.65 12.88
4/3/2021 10:30:00 PM 7.95 46.31 134 7.39 2.49 12.87
4/3/2021 10:45:00 PM 7.95 46.31 134 7.39 2.72 12.86
4/3/2021 11:00:00 PM 7.96 46.328 134 7.39 2.52 12.85
4/3/2021 11:15:00 PM 7.95 46.31 134 7.38 2.61 12.83
4/3/2021 11:30:00 PM 7.95 46.31 134 7.39 2.78 12.83
4/3/2021 11:45:00 PM 7.95 46.31 134 7.38 2.41 12.82
4/4/2021 12:00:00 AM 7.94 46.292 134 7.38 2.64 12.82
4/4/2021 12:15:00 AM 7.94 46.292 134 7.38 2.36 12.8
4/4/2021 12:30:00 AM 7.94 46.292 134 7.38 2.46 12.79
4/4/2021 12:45:00 AM 7.95 46.31 134 7.38 2.65 12.78
4/4/2021 1:00:00 AM 7.95 46.31 134 7.38 3.25 12.77
4/4/2021 1:15:00 AM 7.94 46.292 134 7.37 2.53 12.76
4/4/2021 1:30:00 AM 7.93 46.274 135 7.37 2.77 12.75
4/4/2021 1:45:00 AM 7.92 46.256 135 7.37 2.62 12.74
4/4/2021 2:00:00 AM 7.92 46.256 135 7.37 2.36 12.73
4/4/2021 2:15:00 AM 8.02 46.436 137 7.37 3.23 12.71
4/4/2021 2:30:00 AM 8.24 46.832 146 7.31 1.4 12.5
4/4/2021 2:45:00 AM 7.97 46.346 137 7.33 2.42 12.62
4/4/2021 3:00:00 AM 7.88 46.184 136 7.34 2.46 12.66
4/4/2021 3:15:00 AM 7.84 46.112 135 7.34 2.76 12.66
4/4/2021 3:30:00 AM 7.8 46.04 135 7.34 2.57 12.66
4/4/2021 3:45:00 AM 7.78 46.004 135 7.34 2.82 12.64
4/4/2021 4:00:00 AM 7.75 45.95 135 7.34 2.58 12.63
4/4/2021 4:15:00 AM 7.72 45.896 135 7.34 2.87 12.62
4/4/2021 4:30:00 AM 7.69 45.842 136 7.33 2.66 12.61
4/4/2021 4:45:00 AM 7.68 45.824 136 7.33 2.64 12.6
4/4/2021 5:00:00 AM 7.66 45.788 136 7.33 2.34 12.58
4/4/2021 5:15:00 AM 7.64 45.752 136 7.33 2.34 12.57
4/4/2021 5:30:00 AM 7.62 45.716 136 7.32 2.39 12.56
4/4/2021 5:45:00 AM 7.58 45.644 136 7.32 2.39 12.54
4/4/2021 6:00:00 AM 7.56 45.608 136 7.32 2.54 12.53
4/4/2021 6:15:00 AM 7.54 45.572 136 7.31 2.31 12.52
4/4/2021 6:30:00 AM 7.52 45.536 136 7.31 2.56 12.51
4/4/2021 6:45:00 AM 7.5 45.5 136 7.31 2.52 12.5
4/4/2021 7:00:00 AM 7.47 45.446 136 7.3 2.37 12.49
4/4/2021 7:15:00 AM 7.45 45.41 137 7.3 2.49 12.48
4/4/2021 7:30:00 AM 7.43 45.374 137 7.3 2.34 12.47
4/4/2021 7:45:00 AM 7.41 45.338 137 7.3 2.31 12.47
4/4/2021 8:00:00 AM 7.4 45.32 137 7.3 2.32 12.47
4/4/2021 8:15:00 AM 7.39 45.302 137 7.3 2.67 12.46
4/4/2021 8:30:00 AM 7.39 45.302 137 7.3 2.58 12.46
4/4/2021 8:45:00 AM 7.39 45.302 137 7.3 2.98 12.46
4/4/2021 9:00:00 AM 7.4 45.32 137 7.3 2.81 12.47
4/4/2021 9:15:00 AM 7.42 45.356 137 7.29 2.49 12.48
4/4/2021 9:30:00 AM 7.44 45.392 137 7.3 2.62 12.48
4/4/2021 9:45:00 AM 7.47 45.446 138 7.3 2.57 12.49
4/4/2021 10:00:00 AM 7.5 45.5 138 7.3 2.64 12.49
4/4/2021 10:15:00 AM 7.54 45.572 138 7.3 2.43 12.5
4/4/2021 10:30:00 AM 7.57 45.626 138 7.3 2.24 12.51
4/4/2021 10:45:00 AM 7.62 45.716 138 7.31 2.35 12.51
4/4/2021 11:00:00 AM 7.67 45.806 138 7.31 2.49 12.52
4/4/2021 11:15:00 AM 7.72 45.896 138 7.31 2.47 12.54
4/4/2021 11:30:00 AM 7.78 46.004 138 7.31 2.65 12.53
4/4/2021 11:45:00 AM 7.84 46.112 138 7.32 2.43 12.55
4/4/2021 12:00:00 PM 7.91 46.238 138 7.32 2.26 12.55
4/4/2021 12:15:00 PM 7.98 46.364 138 7.32 2.5 12.57
4/4/2021 12:30:00 PM 8.04 46.472 138 7.32 2.47 12.58
4/4/2021 12:45:00 PM 8.11 46.598 138 7.32 2.41 12.59
4/4/2021 1:00:00 PM 8.2 46.76 138 7.33 2.58 12.61
4/4/2021 1:15:00 PM 8.26 46.868 138 7.33 2.49 12.6
4/4/2021 1:30:00 PM 8.33 46.994 138 7.33 2.64 12.61
4/4/2021 1:45:00 PM 8.4 47.12 138 7.34 2.31 12.62
4/4/2021 2:00:00 PM 8.45 47.21 138 7.34 2.3 12.62
4/4/2021 2:15:00 PM 8.52 47.336 138 7.34 2.35 12.63
4/4/2021 2:30:00 PM 8.58 47.444 138 7.34 2.41 12.61
4/4/2021 2:45:00 PM 8.66 47.588 138 7.34 2.4 12.63
4/4/2021 3:00:00 PM 8.74 47.732 138 7.35 2.58 12.63
4/4/2021 3:15:00 PM 8.8 47.84 138 7.35 2.91 12.64
4/4/2021 3:30:00 PM 8.86 47.948 138 7.35 2.58 12.65
4/4/2021 3:45:00 PM 8.91 48.038 138 7.35 2.61 12.65
4/4/2021 4:00:00 PM 8.97 48.146 138 7.36 2.35 12.64
4/4/2021 4:15:00 PM 9.01 48.218 138 7.35 2.37 12.66
4/4/2021 4:30:00 PM 9.04 48.272 138 7.36 2.83 12.67
4/4/2021 4:45:00 PM 9.06 48.308 138 7.37 2.45 12.68
4/4/2021 5:00:00 PM 9.08 48.344 138 7.37 2.38 12.69
4/4/2021 5:15:00 PM 9.09 48.362 139 7.37 2.75 12.68
4/4/2021 5:30:00 PM 9.12 48.416 139 7.38 2.57 12.7
4/4/2021 5:45:00 PM 9.13 48.434 139 7.38 2.3 12.71
4/4/2021 6:00:00 PM 9.12 48.416 139 7.39 2.22 12.71
4/4/2021 6:15:00 PM 9.11 48.398 139 7.39 2.64 12.72
4/4/2021 6:30:00 PM 9.1 48.38 139 7.39 2.36 12.73
4/4/2021 6:45:00 PM 9.08 48.344 139 7.39 2.42 12.73
4/4/2021 7:00:00 PM 9.06 48.308 139 7.4 2.61 12.74
4/4/2021 7:15:00 PM 9.05 48.29 139 7.4 2.39 12.75
4/4/2021 7:30:00 PM 9.03 48.254 139 7.4 2.46 12.75
4/4/2021 7:45:00 PM 9 48.2 139 7.4 2.48 12.76
4/4/2021 8:00:00 PM 8.99 48.182 139 7.4 2.45 12.75
4/4/2021 8:15:00 PM 8.98 48.164 139 7.4 2.38 12.75
4/4/2021 8:30:00 PM 8.96 48.128 139 7.41 2.45 12.76
4/4/2021 8:45:00 PM 8.95 48.11 139 7.41 2.46 12.75
4/4/2021 9:00:00 PM 8.93 48.074 139 7.41 2.52 12.75
4/4/2021 9:15:00 PM 8.92 48.056 139 7.4 2.46 12.74
4/4/2021 9:30:00 PM 8.9 48.02 139 7.41 2.62 12.74
4/4/2021 9:45:00 PM 8.89 48.002 139 7.4 2.61 12.73
4/4/2021 10:00:00 PM 8.88 47.984 139 7.4 2.57 12.72
4/4/2021 10:15:00 PM 8.87 47.966 139 7.4 2.81 12.72
4/4/2021 10:30:00 PM 8.86 47.948 139 7.4 2.69 12.7
4/4/2021 10:45:00 PM 8.84 47.912 139 7.4 2.5 12.69
4/4/2021 11:00:00 PM 8.82 47.876 139 7.39 2.79 12.68
4/4/2021 11:15:00 PM 8.81 47.858 139 7.39 2.45 12.66
4/4/2021 11:30:00 PM 8.8 47.84 139 7.39 2.86 12.65
4/4/2021 11:45:00 PM 8.79 47.822 139 7.39 2.64 12.64
4/5/2021 12:00:00 AM 8.78 47.804 140 7.39 2.62 12.63
4/5/2021 12:15:00 AM 8.77 47.786 140 7.38 2.64 12.63
4/5/2021 12:30:00 AM 8.77 47.786 140 7.38 2.33 12.61
4/5/2021 12:45:00 AM 8.77 47.786 140 7.38 3.53 12.6
4/5/2021 1:00:00 AM 8.76 47.768 140 7.38 2.42 12.58
4/5/2021 1:15:00 AM 8.76 47.768 140 7.38 2.61 12.58
4/5/2021 1:30:00 AM 8.75 47.75 140 7.38 3.1 12.56
4/5/2021 1:45:00 AM 8.74 47.732 140 7.37 2.8 12.55
4/5/2021 2:00:00 AM 8.73 47.714 140 7.37 2.62 12.53
4/5/2021 2:15:00 AM 8.71 47.678 141 7.37 2.91 12.52
4/5/2021 2:30:00 AM 8.7 47.66 141 7.37 2.5 12.51
4/5/2021 2:45:00 AM 8.69 47.642 141 7.37 2.68 12.49
4/5/2021 3:00:00 AM 8.67 47.606 141 7.36 2.64 12.47
4/5/2021 3:15:00 AM 8.66 47.588 141 7.36 2.52 12.45
4/5/2021 3:30:00 AM 8.64 47.552 141 7.36 2.62 12.43
4/5/2021 3:45:00 AM 8.62 47.516 141 7.35 2.46 12.42
4/5/2021 4:00:00 AM 8.61 47.498 141 7.35 2.55 12.4
4/5/2021 4:15:00 AM 8.59 47.462 141 7.35 2.83 12.38
4/5/2021 4:30:00 AM 8.57 47.426 141 7.35 2.71 12.36
4/5/2021 4:45:00 AM 8.55 47.39 141 7.34 2.41 12.34
4/5/2021 5:00:00 AM 8.53 47.354 141 7.34 2.31 12.33
4/5/2021 5:15:00 AM 8.51 47.318 141 7.34 3.35 12.31
4/5/2021 5:30:00 AM 8.48 47.264 141 7.33 2.27 12.29
4/5/2021 5:45:00 AM 8.45 47.21 141 7.33 2.7 12.28
4/5/2021 6:00:00 AM 8.42 47.156 141 7.33 2.34 12.26
4/5/2021 6:15:00 AM 8.4 47.12 142 7.32 2.5 12.25
4/5/2021 6:30:00 AM 8.37 47.066 142 7.32 2.59 12.23
4/5/2021 6:45:00 AM 8.35 47.03 142 7.32 2.6 12.22
4/5/2021 7:00:00 AM 8.33 46.994 142 7.32 2.77 12.21
4/5/2021 7:15:00 AM 8.31 46.958 142 7.31 2.68 12.2
4/5/2021 7:30:00 AM 8.29 46.922 142 7.31 2.68 12.2
4/5/2021 7:45:00 AM 8.28 46.904 142 7.31 2.69 12.2
4/5/2021 8:00:00 AM 8.27 46.886 142 7.31 2.53 12.19
4/5/2021 8:15:00 AM 8.26 46.868 142 7.31 2.61 12.19
4/5/2021 8:30:00 AM 8.27 46.886 142 7.31 2.24 12.19
4/5/2021 8:45:00 AM 8.43 47.174 144 7.33 3.16 12.22
4/5/2021 9:00:00 AM 8.71 47.678 148 7.28 1.58 12.32
4/5/2021 9:15:00 AM 8.34 47.012 143 7.31 2.89 12.22
4/5/2021 9:30:00 AM 8.34 47.012 142 7.31 2.96 12.21
4/5/2021 9:45:00 AM 8.37 47.066 142 7.31 2.77 12.22
4/5/2021 10:00:00 AM 8.41 47.138 143 7.31 2.32 12.23
4/5/2021 10:15:00 AM 8.46 47.228 143 7.32 2.84 12.23
4/5/2021 10:30:00 AM 8.51 47.318 143 7.32 2.34 12.24
4/5/2021 10:45:00 AM 8.57 47.426 143 7.32 2.44 12.24
4/5/2021 11:00:00 AM 8.62 47.516 143 7.32 2.53 12.26
4/5/2021 11:15:00 AM 8.68 47.624 143 7.33 2.72 12.27
4/5/2021 11:30:00 AM 8.75 47.75 143 7.33 2.6 12.28
4/5/2021 11:45:00 AM 8.8 47.84 143 7.33 2.7 12.29
4/5/2021 12:00:00 PM 8.86 47.948 143 7.33 2.33 12.29
4/5/2021 12:15:00 PM 8.93 48.074 143 7.34 2.21 12.3
4/5/2021 12:30:00 PM 9 48.2 143 7.34 2.43 12.31
4/5/2021 12:45:00 PM 9.09 48.362 143 7.34 2.31 12.31
4/5/2021 1:00:00 PM 9.18 48.524 143 7.35 2.24 12.32
4/5/2021 1:15:00 PM 9.27 48.686 143 7.35 2.57 12.32
4/5/2021 1:30:00 PM 9.34 48.812 143 7.35 2.2 12.32
4/5/2021 1:45:00 PM 9.44 48.992 143 7.35 2.34 12.33
4/5/2021 2:00:00 PM 9.5 49.1 143 7.35 2.26 12.33
4/5/2021 2:15:00 PM 9.58 49.244 143 7.36 2.25 12.33
4/5/2021 2:30:00 PM 9.65 49.37 144 7.36 2.15 12.34
4/5/2021 2:45:00 PM 9.73 49.514 144 7.36 2.17 12.34
4/5/2021 3:00:00 PM 9.79 49.622 144 7.37 2.21 12.34
4/5/2021 3:15:00 PM 9.84 49.712 143 7.37 2.25 12.34
4/5/2021 3:30:00 PM 9.88 49.784 144 7.37 2.12 12.35
4/5/2021 3:45:00 PM 9.92 49.856 144 7.37 2.39 12.36
4/5/2021 4:00:00 PM 9.96 49.928 144 7.38 2.29 12.37
4/5/2021 4:15:00 PM 10 50 144 7.38 2.17 12.37
4/5/2021 4:30:00 PM 10.02 50.036 144 7.38 2.32 12.38
4/5/2021 4:45:00 PM 10.04 50.072 144 7.39 2.32 12.38
4/5/2021 5:00:00 PM 10.06 50.108 144 7.39 2.4 12.39
4/5/2021 5:15:00 PM 10.07 50.126 144 7.39 2.4 12.39
4/5/2021 5:30:00 PM 10.08 50.144 144 7.4 2.32 12.39
4/5/2021 5:45:00 PM 10.08 50.144 144 7.4 2.4 12.41
4/5/2021 6:00:00 PM 10.08 50.144 143 7.41 2.38 12.42
4/5/2021 6:15:00 PM 10.07 50.126 144 7.41 2.33 12.43
4/5/2021 6:30:00 PM 10.06 50.108 143 7.41 2.29 12.43
4/5/2021 6:45:00 PM 10.05 50.09 143 7.41 2.23 12.43
4/5/2021 7:00:00 PM 10.04 50.072 143 7.42 2.83 12.42
4/5/2021 7:15:00 PM 10.02 50.036 144 7.42 2.4 12.44
4/5/2021 7:30:00 PM 9.97 49.946 152 7.43 2.16 12.3
4/5/2021 7:45:00 PM 9.73 49.514 150 7.27 1.63 12.19
4/5/2021 8:00:00 PM 9.96 49.928 144 7.39 2.44 12.39
4/5/2021 8:15:00 PM 9.98 49.964 144 7.42 2.41 12.42
4/5/2021 8:30:00 PM 9.97 49.946 144 7.42 2.56 12.41
4/5/2021 8:45:00 PM 9.97 49.946 143 7.42 2.35 12.41
4/5/2021 9:00:00 PM 9.96 49.928 143 7.42 2.42 12.41
4/5/2021 9:15:00 PM 9.95 49.91 143 7.42 2.87 12.4
4/5/2021 9:30:00 PM 9.95 49.91 143 7.42 2.85 12.4
4/5/2021 9:45:00 PM 9.95 49.91 143 7.42 2.87 12.39
4/5/2021 10:00:00 PM 9.94 49.892 143 7.42 2.74 12.38
4/5/2021 10:15:00 PM 9.94 49.892 143 7.42 2.53 12.37
4/5/2021 10:30:00 PM 9.95 49.91 144 7.42 2.67 12.35
4/5/2021 10:45:00 PM 9.96 49.928 144 7.41 2.77 12.33
4/5/2021 11:00:00 PM 9.97 49.946 144 7.41 2.61 12.33
4/5/2021 11:15:00 PM 9.97 49.946 144 7.41 2.72 12.31
4/5/2021 11:30:00 PM 9.98 49.964 144 7.41 2.63 12.3
4/5/2021 11:45:00 PM 9.99 49.982 144 7.41 2.62 12.29
4/6/2021 12:00:00 AM 10 50 144 7.4 2.68 12.28
4/6/2021 12:15:00 AM 10.01 50.018 144 7.4 2.86 12.27
4/6/2021 12:30:00 AM 10.02 50.036 144 7.4 2.64 12.25
4/6/2021 12:45:00 AM 10.03 50.054 144 7.4 2.7 12.24
4/6/2021 1:00:00 AM 10.03 50.054 144 7.4 2.68 12.22
4/6/2021 1:15:00 AM 10.04 50.072 144 7.39 2.58 12.22
4/6/2021 1:30:00 AM 10.03 50.054 144 7.39 2.55 12.2
4/6/2021 1:45:00 AM 10.03 50.054 144 7.39 2.6 12.18
4/6/2021 2:00:00 AM 10.02 50.036 144 7.39 2.54 12.16
4/6/2021 2:15:00 AM 10.01 50.018 144 7.39 2.39 12.14
4/6/2021 2:30:00 AM 10 50 144 7.39 2.44 12.12
4/6/2021 2:45:00 AM 9.98 49.964 144 7.38 2.69 12.11
4/6/2021 3:00:00 AM 9.96 49.928 144 7.38 2.39 12.1
4/6/2021 3:15:00 AM 9.95 49.91 144 7.37 2.49 12.07
4/6/2021 3:30:00 AM 9.93 49.874 144 7.37 2.48 12.05
4/6/2021 3:45:00 AM 9.91 49.838 144 7.37 2.44 12.03
4/6/2021 4:00:00 AM 9.88 49.784 144 7.36 2.61 12.02
4/6/2021 4:15:00 AM 9.85 49.73 144 7.36 2.71 11.99
4/6/2021 4:30:00 AM 9.83 49.694 144 7.36 2.54 11.97
4/6/2021 4:45:00 AM 9.79 49.622 144 7.35 2.67 11.95
4/6/2021 5:00:00 AM 9.76 49.568 144 7.35 2.71 11.94
4/6/2021 5:15:00 AM 9.73 49.514 144 7.35 2.49 11.92
4/6/2021 5:30:00 AM 9.7 49.46 144 7.34 2.52 11.9
4/6/2021 5:45:00 AM 9.67 49.406 144 7.34 2.56 11.88
4/6/2021 6:00:00 AM 9.63 49.334 144 7.33 3.02 11.86
4/6/2021 6:15:00 AM 9.6 49.28 144 7.33 2.42 11.85
4/6/2021 6:30:00 AM 9.57 49.226 144 7.32 2.28 11.84
4/6/2021 6:45:00 AM 9.54 49.172 145 7.32 2.7 11.82
4/6/2021 7:00:00 AM 9.51 49.118 145 7.32 2.48 11.82
4/6/2021 7:15:00 AM 9.49 49.082 145 7.32 2.32 11.8
4/6/2021 7:30:00 AM 9.47 49.046 144 7.32 2.74 11.8
4/6/2021 7:45:00 AM 9.46 49.028 145 7.31 3 11.8
4/6/2021 8:00:00 AM 9.45 49.01 145 7.31 2.4 11.8
4/6/2021 8:15:00 AM 9.44 48.992 145 7.32 2.53 11.8
4/6/2021 8:30:00 AM 9.45 49.01 145 7.32 2.4 11.81
4/6/2021 8:45:00 AM 9.66 49.388 154 7.31 1.93 12.02
4/6/2021 9:00:00 AM 9.49 49.082 145 7.31 2.99 11.84
4/6/2021 9:15:00 AM 9.51 49.118 145 7.31 3.04 11.82
4/6/2021 9:30:00 AM 9.54 49.172 145 7.32 2.52 11.83
4/6/2021 9:45:00 AM 9.57 49.226 145 7.32 2.75 11.83
4/6/2021 10:00:00 AM 9.62 49.316 145 7.32 2.74 11.84
4/6/2021 10:15:00 AM 9.67 49.406 145 7.32 2.59 11.85
4/6/2021 10:30:00 AM 9.72 49.496 145 7.33 2.68 11.87
4/6/2021 10:45:00 AM 9.79 49.622 145 7.33 2.83 11.88
4/6/2021 11:00:00 AM 9.85 49.73 145 7.33 2.67 11.89
4/6/2021 11:15:00 AM 9.93 49.874 145 7.34 2.79 11.9
4/6/2021 11:30:00 AM 10 50 145 7.34 2.65 11.9
4/6/2021 11:45:00 AM 10.08 50.144 145 7.34 2.76 11.91
4/6/2021 12:00:00 PM 10.15 50.27 145 7.35 2.46 11.93
4/6/2021 12:15:00 PM 10.24 50.432 145 7.35 2.93 11.94
4/6/2021 12:30:00 PM 10.32 50.576 145 7.35 2.83 11.94
4/6/2021 12:45:00 PM 10.4 50.72 145 7.36 2.75 11.95
4/6/2021 1:00:00 PM 10.48 50.864 145 7.36 2.95 11.96
4/6/2021 1:15:00 PM 10.56 51.008 145 7.36 2.52 11.96
4/6/2021 1:30:00 PM 10.64 51.152 145 7.36 2.47 11.97
4/6/2021 1:45:00 PM 10.72 51.296 145 7.37 2.31 11.98
4/6/2021 2:00:00 PM 10.8 51.44 145 7.37 2.37 11.98
4/6/2021 2:15:00 PM 10.87 51.566 145 7.37 2.62 11.99
4/6/2021 2:30:00 PM 10.96 51.728 145 7.38 2.43 12
4/6/2021 2:45:00 PM 11.05 51.89 146 7.38 3.14 11.99
4/6/2021 3:00:00 PM 11.12 52.016 145 7.38 2.48 12
4/6/2021 3:15:00 PM 11.18 52.124 146 7.39 2.43 12.01
4/6/2021 3:30:00 PM 11.24 52.232 146 7.39 2.49 12.02
4/6/2021 3:45:00 PM 11.29 52.322 146 7.4 2.68 12.03
4/6/2021 4:00:00 PM 11.34 52.412 146 7.4 2.51 12.03
4/6/2021 4:15:00 PM 11.38 52.484 146 7.4 2.4 12.02
4/6/2021 4:30:00 PM 11.42 52.556 146 7.41 2.4 12.04
4/6/2021 4:45:00 PM 11.45 52.61 146 7.41 2.5 12.04
4/6/2021 5:00:00 PM 11.46 52.628 146 7.41 2.52 12.06
4/6/2021 5:15:00 PM 11.49 52.682 145 7.42 2.57 12.05
4/6/2021 5:30:00 PM 11.49 52.682 145 7.42 2.4 12.06
4/6/2021 5:45:00 PM 11.49 52.682 145 7.42 2.42 12.07
4/6/2021 6:00:00 PM 11.49 52.682 145 7.43 2.85 12.07
4/6/2021 6:15:00 PM 11.49 52.682 145 7.43 2.72 12.08
4/6/2021 6:30:00 PM 11.48 52.664 145 7.43 2.9 12.09
4/6/2021 6:45:00 PM 11.47 52.646 145 7.44 2.61 12.1
4/6/2021 7:00:00 PM 11.45 52.61 145 7.44 2.55 12.1
4/6/2021 7:15:00 PM 11.44 52.592 145 7.44 3.21 12.09
4/6/2021 7:30:00 PM 11.42 52.556 145 7.44 4.12 12.09
4/6/2021 7:45:00 PM 11.41 52.538 145 7.44 2.82 12.1
4/6/2021 8:00:00 PM 11.4 52.52 145 7.44 3.03 12.09
4/6/2021 8:15:00 PM 11.38 52.484 145 7.44 2.82 12.09
4/6/2021 8:30:00 PM 11.36 52.448 145 7.44 2.7 12.09
4/6/2021 8:45:00 PM 11.35 52.43 145 7.44 2.85 12.08
4/6/2021 9:00:00 PM 11.34 52.412 145 7.44 2.72 12.06
4/6/2021 9:15:00 PM 11.33 52.394 145 7.44 3.15 12.05
4/6/2021 9:30:00 PM 11.33 52.394 145 7.44 3.48 12.06
4/6/2021 9:45:00 PM 11.32 52.376 145 7.43 2.67 12.04
4/6/2021 10:00:00 PM 11.32 52.376 145 7.43 3.08 12.02
4/6/2021 10:15:00 PM 11.31 52.358 145 7.43 3.52 12.02
4/6/2021 10:30:00 PM 11.31 52.358 145 7.42 2.98 12.01
4/6/2021 10:45:00 PM 11.31 52.358 145 7.42 3.08 11.99
4/6/2021 11:00:00 PM 11.31 52.358 145 7.41 2.63 11.98
4/6/2021 11:15:00 PM 11.31 52.358 145 7.41 3.27 11.95
4/6/2021 11:30:00 PM 11.31 52.358 145 7.41 3.07 11.94
4/6/2021 11:45:00 PM 11.31 52.358 145 7.41 2.91 11.93
4/7/2021 12:00:00 AM 11.31 52.358 145 7.4 2.76 11.92
4/7/2021 12:15:00 AM 11.31 52.358 145 7.4 2.98 11.9
4/7/2021 12:30:00 AM 11.32 52.376 145 7.4 2.33 11.9
4/7/2021 12:45:00 AM 11.32 52.376 145 7.39 2.83 11.88
4/7/2021 1:00:00 AM 11.33 52.394 145 7.39 2.35 11.87
4/7/2021 1:15:00 AM 11.33 52.394 145 7.39 2.51 11.84
4/7/2021 1:30:00 AM 11.33 52.394 145 7.39 2.73 11.83
4/7/2021 1:45:00 AM 11.34 52.412 145 7.39 3.2 11.82
4/7/2021 2:00:00 AM 11.34 52.412 145 7.38 2.74 11.81
4/7/2021 2:15:00 AM 11.34 52.412 145 7.38 2.92 11.79
4/7/2021 2:30:00 AM 11.34 52.412 145 7.38 2.5 11.76
4/7/2021 2:45:00 AM 11.34 52.412 145 7.38 2.91 11.77
4/7/2021 3:00:00 AM 11.33 52.394 146 7.37 2.8 11.75
4/7/2021 3:15:00 AM 11.32 52.376 146 7.37 2.59 11.73
4/7/2021 3:30:00 AM 11.31 52.358 146 7.37 2.7 11.7
4/7/2021 3:45:00 AM 11.3 52.34 146 7.37 2.89 11.69
4/7/2021 4:00:00 AM 11.28 52.304 146 7.36 2.71 11.67
4/7/2021 4:15:00 AM 11.27 52.286 146 7.36 2.58 11.65
4/7/2021 4:30:00 AM 11.25 52.25 146 7.35 2.65 11.63
4/7/2021 4:45:00 AM 11.23 52.214 146 7.35 2.55 11.6
4/7/2021 5:00:00 AM 11.2 52.16 146 7.35 2.53 11.59
4/7/2021 5:15:00 AM 11.18 52.124 146 7.34 2.41 11.57
4/7/2021 5:30:00 AM 11.16 52.088 146 7.34 2.43 11.55
4/7/2021 5:45:00 AM 11.14 52.052 146 7.33 2.4 11.52
4/7/2021 6:00:00 AM 11.12 52.016 146 7.33 2.41 11.49
4/7/2021 6:15:00 AM 11.1 51.98 146 7.33 2.58 11.47
4/7/2021 6:30:00 AM 11.07 51.926 146 7.32 2.46 11.45
4/7/2021 6:45:00 AM 11.05 51.89 146 7.32 2.82 11.44
4/7/2021 7:00:00 AM 11.03 51.854 146 7.32 2.65 11.43
4/7/2021 7:15:00 AM 11.01 51.818 146 7.31 2.24 11.41
4/7/2021 7:30:00 AM 11 51.8 146 7.31 2.42 11.42
4/7/2021 7:45:00 AM 10.99 51.782 146 7.31 2.39 11.4
4/7/2021 8:00:00 AM 10.98 51.764 146 7.31 2.5 11.4
4/7/2021 8:15:00 AM 10.98 51.764 147 7.31 3.07 11.4
4/7/2021 8:30:00 AM 10.96 51.728 147 7.31 2.56 11.39
4/7/2021 8:45:00 AM 10.94 51.692 147 7.31 2.75 11.39
4/7/2021 9:00:00 AM 10.94 51.692 147 7.31 2.32 11.38
4/7/2021 9:15:00 AM 10.94 51.692 147 7.31 3.01 11.38
4/7/2021 9:30:00 AM 10.94 51.692 147 7.31 2.63 11.4
4/7/2021 9:45:00 AM 10.96 51.728 147 7.32 2.37 11.41
4/7/2021 10:00:00 AM 10.99 51.782 147 7.31 2.36 11.41
4/7/2021 10:15:00 AM 11.04 51.872 147 7.32 2.68 11.42
4/7/2021 10:30:00 AM 11.09 51.962 147 7.31 2.36 11.43
4/7/2021 10:45:00 AM 11.16 52.088 147 7.32 2.71 11.44
4/7/2021 11:00:00 AM 11.21 52.178 147 7.32 2.36 11.46
4/7/2021 11:15:00 AM 11.28 52.304 147 7.33 2.62 11.48
4/7/2021 11:30:00 AM 11.32 52.376 154 7.32 2.08 11.6
4/7/2021 11:45:00 AM 11.4 52.52 148 7.33 2.65 11.52
4/7/2021 12:00:00 PM 11.51 52.718 147 7.34 2.48 11.53
4/7/2021 12:15:00 PM 11.58 52.844 148 7.34 3.04 11.54
4/7/2021 12:30:00 PM 11.67 53.006 148 7.34 2.36 11.55
4/7/2021 12:45:00 PM 11.75 53.15 148 7.35 2.66 11.56
4/7/2021 1:00:00 PM 11.84 53.312 148 7.35 2.61 11.57
4/7/2021 1:15:00 PM 11.93 53.474 148 7.36 2.22 11.59
4/7/2021 1:30:00 PM 12.02 53.636 148 7.37 2.36 11.59
4/7/2021 1:45:00 PM 12.12 53.816 148 7.37 2.68 11.61
4/7/2021 2:00:00 PM 12.21 53.978 148 7.38 2.72 11.62
4/7/2021 2:15:00 PM 12.29 54.122 148 7.38 2.48 11.63
4/7/2021 2:30:00 PM 12.39 54.302 148 7.39 2.61 11.63
4/7/2021 2:45:00 PM 12.47 54.446 148 7.39 2.75 11.64
4/7/2021 3:00:00 PM 12.54 54.572 148 7.39 2.61 11.64
4/7/2021 3:15:00 PM 12.61 54.698 148 7.39 2.76 11.65
4/7/2021 3:30:00 PM 12.69 54.842 148 7.4 2.76 11.65
4/7/2021 3:45:00 PM 12.75 54.95 148 7.4 2.3 11.66
4/7/2021 4:00:00 PM 12.81 55.058 149 7.4 2.62 11.66
4/7/2021 4:15:00 PM 12.84 55.112 148 7.41 2.97 11.67
4/7/2021 4:30:00 PM 12.89 55.202 149 7.42 2.47 11.67
4/7/2021 4:45:00 PM 12.93 55.274 149 7.42 2.4 11.68
4/7/2021 5:00:00 PM 12.97 55.346 149 7.42 2.7 11.69
4/7/2021 5:15:00 PM 13 55.4 149 7.43 2.94 11.69
4/7/2021 5:30:00 PM 13.02 55.436 149 7.43 2.83 11.7
4/7/2021 5:45:00 PM 13.02 55.436 149 7.43 2.65 11.7
4/7/2021 6:00:00 PM 13.02 55.436 149 7.44 2.59 11.7
4/7/2021 6:15:00 PM 13.02 55.436 149 7.43 2.5 11.7
4/7/2021 6:30:00 PM 13.01 55.418 149 7.44 2.46 11.7
4/7/2021 6:45:00 PM 13 55.4 149 7.44 2.77 11.7
4/7/2021 7:00:00 PM 12.99 55.382 149 7.44 2.51 11.7
4/7/2021 7:15:00 PM 12.97 55.346 149 7.45 2.75 11.7
4/7/2021 7:30:00 PM 12.87 55.166 150 7.45 3.14 11.69
4/7/2021 7:45:00 PM 12.32 54.176 158 7.27 1.71 11.43
4/7/2021 8:00:00 PM 12.8 55.04 150 7.4 2.47 11.63
4/7/2021 8:15:00 PM 12.87 55.166 149 7.43 2.5 11.67
4/7/2021 8:30:00 PM 12.87 55.166 149 7.44 2.67 11.67
4/7/2021 8:45:00 PM 12.86 55.148 149 7.44 2.92 11.67
4/7/2021 9:00:00 PM 12.84 55.112 149 7.44 2.41 11.66
4/7/2021 9:15:00 PM 12.82 55.076 149 7.44 3.2 11.66
4/7/2021 9:30:00 PM 12.81 55.058 149 7.44 2.82 11.65
4/7/2021 9:45:00 PM 12.79 55.022 149 7.43 2.64 11.64
4/7/2021 10:00:00 PM 12.78 55.004 149 7.43 2.77 11.63
4/7/2021 10:15:00 PM 12.77 54.986 149 7.43 2.78 11.62
4/7/2021 10:30:00 PM 12.76 54.968 149 7.43 2.29 11.6
4/7/2021 10:45:00 PM 12.75 54.95 149 7.42 2.57 11.6
4/7/2021 11:00:00 PM 12.74 54.932 149 7.42 2.22 11.58
4/7/2021 11:15:00 PM 12.74 54.932 149 7.42 2.73 11.56
4/7/2021 11:30:00 PM 12.73 54.914 149 7.41 2.58 11.55
4/7/2021 11:45:00 PM 12.73 54.914 149 7.41 2.61 11.53
4/8/2021 12:00:00 AM 12.73 54.914 149 7.41 2.59 11.52
4/8/2021 12:15:00 AM 12.73 54.914 149 7.4 2.64 11.5
4/8/2021 12:30:00 AM 12.73 54.914 149 7.4 2.47 11.49
4/8/2021 12:45:00 AM 12.73 54.914 149 7.4 2.7 11.47
4/8/2021 1:00:00 AM 12.74 54.932 149 7.4 2.37 11.46
4/8/2021 1:15:00 AM 12.74 54.932 149 7.39 2.24 11.45
4/8/2021 1:30:00 AM 12.74 54.932 149 7.39 2.27 11.43
4/8/2021 1:45:00 AM 12.74 54.932 149 7.39 2.52 11.41
4/8/2021 2:00:00 AM 12.74 54.932 149 7.39 2.77 11.4
4/8/2021 2:15:00 AM 12.74 54.932 149 7.38 2.51 11.38
4/8/2021 2:30:00 AM 12.74 54.932 149 7.38 2.31 11.37
4/8/2021 2:45:00 AM 12.73 54.914 149 7.38 2.61 11.36
4/8/2021 3:00:00 AM 12.73 54.914 149 7.38 2.65 11.33
4/8/2021 3:15:00 AM 12.73 54.914 149 7.38 2.59 11.33
4/8/2021 3:30:00 AM 12.71 54.878 149 7.37 2.84 11.3
4/8/2021 3:45:00 AM 12.7 54.86 149 7.37 2.54 11.28
4/8/2021 4:00:00 AM 12.69 54.842 149 7.36 2.28 11.26
4/8/2021 4:15:00 AM 12.67 54.806 149 7.36 2.72 11.25
4/8/2021 4:30:00 AM 12.65 54.77 149 7.36 2.74 11.23
4/8/2021 4:45:00 AM 12.62 54.716 149 7.35 2.64 11.21
4/8/2021 5:00:00 AM 12.6 54.68 149 7.35 2.68 11.18
4/8/2021 5:15:00 AM 12.58 54.644 149 7.34 2.7 11.16
4/8/2021 5:30:00 AM 12.55 54.59 149 7.34 2.74 11.14
4/8/2021 5:45:00 AM 12.53 54.554 149 7.34 3.2 11.13
4/8/2021 6:00:00 AM 12.51 54.518 149 7.33 4.8 11.11
4/8/2021 6:15:00 AM 12.47 54.446 149 7.33 2.84 11.08
4/8/2021 6:30:00 AM 12.44 54.392 149 7.32 2.72 11.07
4/8/2021 6:45:00 AM 12.41 54.338 149 7.32 2.29 11.05
4/8/2021 7:00:00 AM 12.39 54.302 149 7.32 2.99 11.03
4/8/2021 7:15:00 AM 12.37 54.266 149 7.31 2.73 11.04
4/8/2021 7:30:00 AM 12.35 54.23 149 7.31 3.09 11.02
4/8/2021 7:45:00 AM 12.34 54.212 150 7.31 3.04 11.02
4/8/2021 8:00:00 AM 12.33 54.194 150 7.31 2.92 11.02
4/8/2021 8:15:00 AM 12.34 54.212 150 7.31 2.66 11.02
4/8/2021 8:30:00 AM 12.34 54.212 150 7.31 2.6 11.02
4/8/2021 8:45:00 AM 12.35 54.23 150 7.31 2.51 11.03
4/8/2021 9:00:00 AM 12.36 54.248 150 7.32 2.58 11.03
4/8/2021 9:15:00 AM 12.37 54.266 152 7.35 3.31 11.15
4/8/2021 9:30:00 AM 12.42 54.356 157 7.3 1.77 11.24
4/8/2021 9:45:00 AM 12.43 54.374 150 7.32 2.47 11.09
4/8/2021 10:00:00 AM 12.48 54.464 150 7.33 2.62 11.09
4/8/2021 10:15:00 AM 12.52 54.536 150 7.33 2.63 11.11
4/8/2021 10:30:00 AM 12.57 54.626 150 7.33 2.58 11.14
4/8/2021 10:45:00 AM 12.63 54.734 150 7.34 2.6 11.15
4/8/2021 11:00:00 AM 12.67 54.806 150 7.34 2.45 11.16
4/8/2021 11:15:00 AM 12.74 54.932 150 7.35 2.43 11.18
4/8/2021 11:30:00 AM 12.8 55.04 150 7.35 2.37 11.2
4/8/2021 11:45:00 AM 12.88 55.184 150 7.36 2.69 11.22
4/8/2021 12:00:00 PM 12.95 55.31 150 7.37 2.89 11.24
4/8/2021 12:15:00 PM 13.03 55.454 150 7.37 2.59 11.26
4/8/2021 12:30:00 PM 13.11 55.598 150 7.37 2.28 11.27
4/8/2021 12:45:00 PM 13.21 55.778 150 7.38 2.66 11.29
4/8/2021 1:00:00 PM 13.28 55.904 150 7.39 2.43 11.29
4/8/2021 1:15:00 PM 13.38 56.084 150 7.39 2.37 11.31
4/8/2021 1:30:00 PM 13.46 56.228 150 7.4 2.54 11.31
4/8/2021 1:45:00 PM 13.54 56.372 150 7.41 2.76 11.32
4/8/2021 2:00:00 PM 13.62 56.516 150 7.41 2.48 11.33
4/8/2021 2:15:00 PM 13.67 56.606 150 7.41 2.63 11.33
4/8/2021 2:30:00 PM 13.77 56.786 150 7.42 2.4 11.36
4/8/2021 2:45:00 PM 13.83 56.894 150 7.42 2.29 11.36
4/8/2021 3:00:00 PM 13.89 57.002 150 7.42 2.5 11.35
4/8/2021 3:15:00 PM 13.97 57.146 150 7.43 2.83 11.37
4/8/2021 3:30:00 PM 14.03 57.254 150 7.44 2.36 11.38
4/8/2021 3:45:00 PM 14.08 57.344 150 7.44 2.55 11.38
4/8/2021 4:00:00 PM 14.12 57.416 150 7.45 2.5 11.38
4/8/2021 4:15:00 PM 14.16 57.488 150 7.45 2.4 11.37
4/8/2021 4:30:00 PM 14.2 57.56 150 7.45 2.58 11.38
4/8/2021 4:45:00 PM 14.23 57.614 151 7.46 2.71 11.39
4/8/2021 5:00:00 PM 14.24 57.632 151 7.46 2.6 11.4
4/8/2021 5:15:00 PM 14.26 57.668 150 7.47 2.43 11.4
4/8/2021 5:30:00 PM 14.27 57.686 151 7.47 3.2 11.41
4/8/2021 5:45:00 PM 14.27 57.686 151 7.47 2.53 11.42
4/8/2021 6:00:00 PM 14.26 57.668 151 7.48 2.73 11.42
4/8/2021 6:15:00 PM 14.25 57.65 151 7.48 2.53 11.42
4/8/2021 6:30:00 PM 14.23 57.614 151 7.48 2.52 11.42
4/8/2021 6:45:00 PM 14.21 57.578 151 7.48 2.67 11.42
4/8/2021 7:00:00 PM 14.19 57.542 151 7.48 2.65 11.42
4/8/2021 7:15:00 PM 14.16 57.488 151 7.48 2.48 11.42
4/8/2021 7:30:00 PM 14.14 57.452 151 7.48 2.7 11.41
4/8/2021 7:45:00 PM 14.11 57.398 151 7.48 2.64 11.4
4/8/2021 8:00:00 PM 14.08 57.344 151 7.48 2.3 11.4
4/8/2021 8:15:00 PM 14.06 57.308 151 7.48 2.51 11.39
4/8/2021 8:30:00 PM 14.03 57.254 151 7.47 2.56 11.36
4/8/2021 8:45:00 PM 14 57.2 151 7.47 2.46 11.35
4/8/2021 9:00:00 PM 13.98 57.164 151 7.47 2.42 11.35
4/8/2021 9:15:00 PM 13.95 57.11 151 7.47 2.75 11.35
4/8/2021 9:30:00 PM 13.93 57.074 151 7.46 2.51 11.32
4/8/2021 9:45:00 PM 13.9 57.02 151 7.46 2.58 11.32
4/8/2021 10:00:00 PM 13.88 56.984 151 7.46 2.78 11.3
4/8/2021 10:15:00 PM 13.87 56.966 151 7.46 2.5 11.31
4/8/2021 10:30:00 PM 13.85 56.93 151 7.45 2.67 11.29
4/8/2021 10:45:00 PM 13.83 56.894 151 7.45 2.69 11.26
4/8/2021 11:00:00 PM 13.82 56.876 151 7.44 2.72 11.24
4/8/2021 11:15:00 PM 13.81 56.858 151 7.44 2.47 11.24
4/8/2021 11:30:00 PM 13.8 56.84 151 7.43 2.66 11.22
4/8/2021 11:45:00 PM 13.79 56.822 151 7.43 2.38 11.19
4/9/2021 12:00:00 AM 13.79 56.822 151 7.43 2.66 11.18
4/9/2021 12:15:00 AM 13.79 56.822 151 7.42 2.33 11.17
4/9/2021 12:30:00 AM 13.79 56.822 151 7.42 2.74 11.17
4/9/2021 12:45:00 AM 13.79 56.822 151 7.42 2.49 11.14
4/9/2021 1:00:00 AM 13.79 56.822 151 7.41 2.45 11.12
4/9/2021 1:15:00 AM 13.8 56.84 151 7.41 2.37 11.12
4/9/2021 1:30:00 AM 13.8 56.84 151 7.41 2.41 11.11
4/9/2021 1:45:00 AM 13.8 56.84 151 7.41 2.87 11.09
4/9/2021 2:00:00 AM 13.8 56.84 151 7.4 2.57 11.05
4/9/2021 2:15:00 AM 13.8 56.84 151 7.4 2.95 11.04
4/9/2021 2:30:00 AM 13.8 56.84 151 7.4 2.42 11.03
4/9/2021 2:45:00 AM 13.8 56.84 151 7.39 2.28 11.01
4/9/2021 3:00:00 AM 13.8 56.84 151 7.39 2.49 11.01
4/9/2021 3:15:00 AM 13.8 56.84 151 7.39 2.6 10.97
4/9/2021 3:30:00 AM 13.8 56.84 151 7.39 2.49 10.96
4/9/2021 3:45:00 AM 13.79 56.822 151 7.38 2.32 10.93
4/9/2021 4:00:00 AM 13.78 56.804 151 7.38 2.57 10.93
4/9/2021 4:15:00 AM 13.77 56.786 151 7.37 2.62 10.92
4/9/2021 4:30:00 AM 13.76 56.768 151 7.37 2.53 10.88
4/9/2021 4:45:00 AM 13.75 56.75 151 7.37 2.43 10.87
4/9/2021 5:00:00 AM 13.74 56.732 151 7.36 2.64 10.84
4/9/2021 5:15:00 AM 13.74 56.732 151 7.36 2.64 10.82
4/9/2021 5:30:00 AM 13.72 56.696 151 7.35 2.55 10.79
4/9/2021 5:45:00 AM 13.71 56.678 151 7.35 2.33 10.79
4/9/2021 6:00:00 AM 13.69 56.642 151 7.34 2.26 10.76
4/9/2021 6:15:00 AM 13.67 56.606 151 7.34 2.54 10.74
4/9/2021 6:30:00 AM 13.65 56.57 151 7.34 2.41 10.73
4/9/2021 6:45:00 AM 13.63 56.534 151 7.34 2.63 10.71
4/9/2021 7:00:00 AM 13.6 56.48 151 7.33 2.63 10.71
4/9/2021 7:15:00 AM 13.58 56.444 151 7.33 2.29 10.69
4/9/2021 7:30:00 AM 13.56 56.408 152 7.33 2.68 10.68
4/9/2021 7:45:00 AM 13.54 56.372 151 7.33 2.28 10.69
4/9/2021 8:00:00 AM 13.52 56.336 151 7.33 2.34 10.67
4/9/2021 8:15:00 AM 13.51 56.318 151 7.33 2.47 10.68
4/9/2021 8:30:00 AM 13.49 56.282 151 7.32 2.36 10.67
4/9/2021 8:45:00 AM 13.48 56.264 151 7.32 2.55 10.68
4/9/2021 9:00:00 AM 13.47 56.246 151 7.33 2.29 10.68
4/9/2021 9:15:00 AM 13.43 56.174 157 7.37 3.28 10.83
4/9/2021 9:30:00 AM 13.53 56.354 161 7.27 1.52 11.02
4/9/2021 9:45:00 AM 13.44 56.192 152 7.32 2.44 10.72
4/9/2021 10:00:00 AM 13.42 56.156 152 7.33 2.39 10.7
4/9/2021 10:15:00 AM 13.41 56.138 151 7.33 2.19 10.7
4/9/2021 10:30:00 AM 13.4 56.12 151 7.33 2.22 10.71
4/9/2021 10:45:00 AM 13.38 56.084 151 7.33 2.33 10.72
4/9/2021 11:00:00 AM 13.37 56.066 151 7.34 2.2 10.73
4/9/2021 11:15:00 AM 13.35 56.03 151 7.34 2.29 10.75
4/9/2021 11:30:00 AM 13.35 56.03 151 7.34 2.32 10.77
4/9/2021 11:45:00 AM 13.36 56.048 151 7.35 2.22 10.79
4/9/2021 12:00:00 PM 13.35 56.03 151 7.35 2.52 10.8
4/9/2021 12:15:00 PM 13.34 56.012 151 7.36 2.24 10.82
4/9/2021 12:30:00 PM 13.35 56.03 152 7.36 2.41 10.84
4/9/2021 12:45:00 PM 13.38 56.084 151 7.37 2.29 10.86
4/9/2021 1:00:00 PM 13.4 56.12 151 7.37 2.52 10.89
4/9/2021 1:15:00 PM 13.4 56.12 151 7.38 2.24 10.91
4/9/2021 1:30:00 PM 13.37 56.066 151 7.38 2.33 10.93
4/9/2021 1:45:00 PM 13.36 56.048 151 7.39 2.39 10.94
4/9/2021 2:00:00 PM 13.36 56.048 151 7.39 2.14 10.96
4/9/2021 2:15:00 PM 13.36 56.048 151 7.4 2.65 10.97
4/9/2021 2:30:00 PM 13.37 56.066 151 7.4 2.23 10.98
4/9/2021 2:45:00 PM 13.38 56.084 151 7.4 2.12 10.99
4/9/2021 3:00:00 PM 13.39 56.102 151 7.41 2.56 11.01
4/9/2021 3:15:00 PM 13.4 56.12 152 7.41 2.2 11.02
4/9/2021 3:30:00 PM 13.39 56.102 151 7.41 2.16 11.04
4/9/2021 3:45:00 PM 13.39 56.102 151 7.42 1.97 11.05
4/9/2021 4:00:00 PM 13.39 56.102 152 7.42 2.36 11.06
4/9/2021 4:15:00 PM 13.38 56.084 152 7.42 2.26 11.06
4/9/2021 4:30:00 PM 13.38 56.084 152 7.43 2.75 11.06
4/9/2021 4:45:00 PM 13.38 56.084 152 7.43 2.15 11.08
4/9/2021 5:00:00 PM 13.37 56.066 152 7.43 2.45 11.08
4/9/2021 5:15:00 PM 13.37 56.066 152 7.43 2.35 11.08
4/9/2021 5:30:00 PM 13.36 56.048 152 7.43 2.4 11.08
4/9/2021 5:45:00 PM 13.42 56.156 157 7.46 2.7 11.12
4/9/2021 6:00:00 PM 13.49 56.282 159 7.34 1.68 11.06
4/9/2021 6:15:00 PM 13.34 56.012 152 7.42 2.36 11.08
4/9/2021 6:30:00 PM 13.32 55.976 152 7.43 2.31 11.08
4/9/2021 6:45:00 PM 13.31 55.958 152 7.43 2.16 11.08
4/9/2021 7:00:00 PM 13.31 55.958 152 7.42 2.17 11.06
4/9/2021 7:15:00 PM 13.3 55.94 152 7.42 2.24 11.06
4/9/2021 7:30:00 PM 13.3 55.94 152 7.42 2.58 11.06
4/9/2021 7:45:00 PM 13.3 55.94 153 7.42 2.36 11.05
4/9/2021 8:00:00 PM 13.3 55.94 152 7.42 2.25 11.04
4/9/2021 8:15:00 PM 13.29 55.922 153 7.42 2.36 11.04
4/9/2021 8:30:00 PM 13.28 55.904 153 7.41 2.65 11.03
4/9/2021 8:45:00 PM 13.26 55.868 153 7.41 2.36 11.03
4/9/2021 9:00:00 PM 13.25 55.85 153 7.41 2.29 11.01
4/9/2021 9:15:00 PM 13.23 55.814 153 7.4 2.3 11
4/9/2021 9:30:00 PM 13.22 55.796 153 7.4 2.29 10.99
4/9/2021 9:45:00 PM 13.21 55.778 153 7.4 2.29 10.98
4/9/2021 10:00:00 PM 13.2 55.76 153 7.39 2.39 10.97
4/9/2021 10:15:00 PM 13.2 55.76 153 7.39 2.36 10.97
4/9/2021 10:30:00 PM 13.19 55.742 153 7.39 2.16 10.97
4/9/2021 10:45:00 PM 13.19 55.742 153 7.39 2.76 10.96
4/9/2021 11:00:00 PM 13.19 55.742 153 7.39 2.13 10.95
4/9/2021 11:15:00 PM 13.18 55.724 153 7.38 2.5 10.95
4/9/2021 11:30:00 PM 13.19 55.742 153 7.38 2.48 10.94
4/9/2021 11:45:00 PM 13.19 55.742 153 7.38 2.96 10.94
4/10/2021 12:00:00 AM 13.19 55.742 153 7.38 2.26 10.94
4/10/2021 12:15:00 AM 13.19 55.742 153 7.38 2.4 10.93
4/10/2021 12:30:00 AM 13.2 55.76 153 7.38 2.32 10.93
4/10/2021 12:45:00 AM 13.21 55.778 153 7.38 2.44 10.93
4/10/2021 1:00:00 AM 13.22 55.796 153 7.38 2.24 10.92
4/10/2021 1:15:00 AM 13.23 55.814 153 7.38 2.74 10.92
4/10/2021 1:30:00 AM 13.24 55.832 153 7.37 2.43 10.91
4/10/2021 1:45:00 AM 13.26 55.868 153 7.37 2.31 10.91
4/10/2021 2:00:00 AM 13.27 55.886 153 7.36 2.32 10.9
4/10/2021 2:15:00 AM 13.28 55.904 153 7.37 2.21 10.9
4/10/2021 2:30:00 AM 13.29 55.922 153 7.37 2.26 10.89
4/10/2021 2:45:00 AM 13.29 55.922 153 7.37 2.35 10.88
4/10/2021 3:00:00 AM 13.3 55.94 153 7.36 2.19 10.87
4/10/2021 3:15:00 AM 13.3 55.94 153 7.37 2.18 10.86
4/10/2021 3:30:00 AM 13.29 55.922 153 7.36 2.22 10.85
4/10/2021 3:45:00 AM 13.29 55.922 153 7.36 2.2 10.84
4/10/2021 4:00:00 AM 13.29 55.922 153 7.36 3.06 10.83
4/10/2021 4:15:00 AM 13.29 55.922 154 7.36 2.44 10.81
4/10/2021 4:30:00 AM 13.28 55.904 154 7.36 2.57 10.8
4/10/2021 4:45:00 AM 13.28 55.904 154 7.35 2.35 10.79
4/10/2021 5:00:00 AM 13.27 55.886 154 7.35 2.34 10.78
4/10/2021 5:15:00 AM 13.27 55.886 154 7.35 2.63 10.77
4/10/2021 5:30:00 AM 13.27 55.886 154 7.35 2.44 10.76
4/10/2021 5:45:00 AM 13.26 55.868 154 7.34 2.23 10.74
4/10/2021 6:00:00 AM 13.26 55.868 154 7.34 2.36 10.72
4/10/2021 6:15:00 AM 13.25 55.85 154 7.34 2.58 10.71
4/10/2021 6:30:00 AM 13.25 55.85 154 7.34 2.58 10.69
4/10/2021 6:45:00 AM 13.24 55.832 154 7.33 2.59 10.68
4/10/2021 7:00:00 AM 13.23 55.814 154 7.33 3.07 10.67
4/10/2021 7:15:00 AM 13.23 55.814 154 7.33 2.22 10.66
4/10/2021 7:30:00 AM 13.23 55.814 155 7.32 2.45 10.65
4/10/2021 7:45:00 AM 13.23 55.814 155 7.32 2.68 10.65
4/10/2021 8:00:00 AM 13.22 55.796 155 7.32 2.43 10.64
4/10/2021 8:15:00 AM 13.22 55.796 155 7.32 2.22 10.63
4/10/2021 8:30:00 AM 13.22 55.796 155 7.32 2.14 10.64
4/10/2021 8:45:00 AM 13.22 55.796 155 7.32 2.41 10.64
4/10/2021 9:00:00 AM 13.22 55.796 155 7.32 2.25 10.65
4/10/2021 9:15:00 AM 13.23 55.814 155 7.32 2.15 10.65
4/10/2021 9:30:00 AM 13.23 55.814 155 7.33 2.45 10.65
4/10/2021 9:45:00 AM 13.23 55.814 155 7.33 2.44 10.67
4/10/2021 10:00:00 AM 13.25 55.85 155 7.33 2.42 10.68
4/10/2021 10:15:00 AM 13.27 55.886 156 7.33 2.34 10.71
4/10/2021 10:30:00 AM 13.29 55.922 156 7.34 2.13 10.72
4/10/2021 10:45:00 AM 13.29 55.922 156 7.34 2.21 10.74
4/10/2021 11:00:00 AM 13.3 55.94 156 7.34 2.19 10.74
4/10/2021 11:15:00 AM 13.48 56.264 165 7.4 2.29 10.98
4/10/2021 11:30:00 AM 13.38 56.084 159 7.33 2.34 10.88
4/10/2021 11:45:00 AM 13.35 56.03 156 7.35 2.05 10.8
4/10/2021 12:00:00 PM 13.36 56.048 156 7.36 2.28 10.82
4/10/2021 12:15:00 PM 13.38 56.084 156 7.37 2.31 10.85
4/10/2021 12:30:00 PM 13.39 56.102 156 7.37 2.39 10.87
4/10/2021 12:45:00 PM 13.41 56.138 156 7.38 2.38 10.89
4/10/2021 1:00:00 PM 13.43 56.174 156 7.38 2.47 10.91
4/10/2021 1:15:00 PM 13.44 56.192 156 7.39 2.07 10.93
4/10/2021 1:30:00 PM 13.46 56.228 157 7.39 2.22 10.95
4/10/2021 1:45:00 PM 13.48 56.264 157 7.38 2.27 10.97
4/10/2021 2:00:00 PM 13.49 56.282 157 7.4 2.45 10.99
4/10/2021 2:15:00 PM 13.5 56.3 157 7.41 2.45 11.01
4/10/2021 2:30:00 PM 13.51 56.318 157 7.42 2.23 11.03
4/10/2021 2:45:00 PM 13.53 56.354 157 7.42 2.05 11.04
4/10/2021 3:00:00 PM 13.55 56.39 157 7.42 2.17 11.05
4/10/2021 3:15:00 PM 13.57 56.426 157 7.43 2.26 11.07
4/10/2021 3:30:00 PM 13.59 56.462 157 7.43 2.27 11.09
4/10/2021 3:45:00 PM 13.6 56.48 157 7.43 2.27 11.09
4/10/2021 4:00:00 PM 13.62 56.516 157 7.44 2.27 11.11
4/10/2021 4:15:00 PM 13.63 56.534 157 7.44 2.23 11.12
4/10/2021 4:30:00 PM 13.64 56.552 157 7.45 2.27 11.13
4/10/2021 4:45:00 PM 13.65 56.57 157 7.45 2.33 11.13
4/10/2021 5:00:00 PM 13.67 56.606 157 7.45 2.2 11.15
4/10/2021 5:15:00 PM 13.68 56.624 157 7.46 2.37 11.16
4/10/2021 5:30:00 PM 13.68 56.624 157 7.47 2.03 11.17
4/10/2021 5:45:00 PM 13.68 56.624 157 7.47 2.27 11.18
4/10/2021 6:00:00 PM 13.67 56.606 158 7.48 2.47 11.2
4/10/2021 6:15:00 PM 13.66 56.588 158 7.48 2.67 11.19
4/10/2021 6:30:00 PM 13.65 56.57 158 7.48 2.38 11.2
4/10/2021 6:45:00 PM 13.64 56.552 158 7.48 2.19 11.18
4/10/2021 7:00:00 PM 13.63 56.534 158 7.48 2.38 11.18
4/10/2021 7:15:00 PM 13.62 56.516 158 7.47 2.3 11.16
4/10/2021 7:30:00 PM 13.6 56.48 158 7.47 2.12 11.16
4/10/2021 7:45:00 PM 13.58 56.444 158 7.47 2.49 11.13
4/10/2021 8:00:00 PM 13.56 56.408 158 7.46 2.41 11.13
4/10/2021 8:15:00 PM 13.54 56.372 158 7.46 2.23 11.11
4/10/2021 8:30:00 PM 13.52 56.336 158 7.45 2.37 11.1
4/10/2021 8:45:00 PM 13.5 56.3 158 7.45 2.26 11.08
4/10/2021 9:00:00 PM 13.48 56.264 158 7.44 2.18 11.07
4/10/2021 9:15:00 PM 13.46 56.228 158 7.44 2.23 11.06
4/10/2021 9:30:00 PM 13.44 56.192 158 7.43 2.75 11.03
4/10/2021 9:45:00 PM 13.42 56.156 158 7.43 2.32 11.02
4/10/2021 10:00:00 PM 13.41 56.138 158 7.43 2.49 11.01
4/10/2021 10:15:00 PM 13.39 56.102 158 7.42 2.29 11
4/10/2021 10:30:00 PM 13.38 56.084 158 7.42 2.91 10.98
4/10/2021 10:45:00 PM 13.37 56.066 158 7.41 2.47 10.97
4/10/2021 11:00:00 PM 13.35 56.03 158 7.41 2.33 10.96
4/10/2021 11:15:00 PM 13.34 56.012 158 7.4 2.51 10.95
4/10/2021 11:30:00 PM 13.33 55.994 158 7.4 2.11 10.93
4/10/2021 11:45:00 PM 13.31 55.958 158 7.4 2.27 10.93
4/11/2021 12:00:00 AM 13.31 55.958 158 7.4 2.03 10.91
4/11/2021 12:15:00 AM 13.3 55.94 158 7.39 2.3 10.91
4/11/2021 12:30:00 AM 13.29 55.922 158 7.39 2.08 10.9
4/11/2021 12:45:00 AM 13.28 55.904 158 7.38 2.31 10.9
4/11/2021 1:00:00 AM 13.27 55.886 159 7.38 2.39 10.89
4/11/2021 1:15:00 AM 13.27 55.886 158 7.38 2.45 10.88
4/11/2021 1:30:00 AM 13.26 55.868 159 7.38 2.28 10.88
4/11/2021 1:45:00 AM 13.26 55.868 159 7.38 2.33 10.87
4/11/2021 2:00:00 AM 13.26 55.868 159 7.38 2.86 10.86
4/11/2021 2:15:00 AM 13.25 55.85 159 7.37 2.64 10.86
4/11/2021 2:30:00 AM 13.26 55.868 159 7.37 2.14 10.85
4/11/2021 2:45:00 AM 13.25 55.85 159 7.37 2.42 10.84
4/11/2021 3:00:00 AM 13.25 55.85 159 7.37 2.35 10.84
4/11/2021 3:15:00 AM 13.26 55.868 159 7.37 2.2 10.82
4/11/2021 3:30:00 AM 13.26 55.868 159 7.37 2.29 10.81
4/11/2021 3:45:00 AM 13.25 55.85 159 7.36 2.32 10.8
4/11/2021 4:00:00 AM 13.26 55.868 159 7.36 2.14 10.79
4/11/2021 4:15:00 AM 13.26 55.868 159 7.36 2.03 10.78
4/11/2021 4:30:00 AM 13.26 55.868 159 7.36 2.54 10.77
4/11/2021 4:45:00 AM 13.26 55.868 159 7.35 2.32 10.75
4/11/2021 5:00:00 AM 13.27 55.886 159 7.35 1.91 10.74
4/11/2021 5:15:00 AM 13.27 55.886 159 7.35 2.07 10.72
4/11/2021 5:30:00 AM 13.26 55.868 159 7.35 2.08 10.71
4/11/2021 5:45:00 AM 13.26 55.868 159 7.35 2.2 10.69
4/11/2021 6:00:00 AM 13.25 55.85 159 7.34 2 10.68
4/11/2021 6:15:00 AM 13.25 55.85 159 7.34 2.42 10.66
4/11/2021 6:30:00 AM 13.24 55.832 159 7.34 2.15 10.65
4/11/2021 6:45:00 AM 13.23 55.814 159 7.34 2.15 10.63
4/11/2021 7:00:00 AM 13.22 55.796 159 7.33 2.21 10.61
4/11/2021 7:15:00 AM 13.22 55.796 159 7.33 2.33 10.6
4/11/2021 7:30:00 AM 13.21 55.778 159 7.33 2.29 10.59
4/11/2021 7:45:00 AM 13.2 55.76 159 7.33 2.29 10.58
4/11/2021 8:00:00 AM 13.2 55.76 159 7.33 2.41 10.57
4/11/2021 8:15:00 AM 13.19 55.742 159 7.33 2.42 10.55
4/11/2021 8:30:00 AM 13.18 55.724 159 7.33 2.21 10.55
4/11/2021 8:45:00 AM 13.18 55.724 159 7.33 2.16 10.54
4/11/2021 9:00:00 AM 13.17 55.706 159 7.33 2.17 10.54
4/11/2021 9:15:00 AM 13.17 55.706 159 7.33 2.91 10.55
4/11/2021 9:30:00 AM 13.17 55.706 159 7.33 2.21 10.55
4/11/2021 9:45:00 AM 13.17 55.706 159 7.33 2.22 10.56
4/11/2021 10:00:00 AM 13.17 55.706 159 7.33 2.2 10.56
4/11/2021 10:15:00 AM 13.17 55.706 159 7.33 2.42 10.58
4/11/2021 10:30:00 AM 13.17 55.706 160 7.33 2.55 10.58
4/11/2021 10:45:00 AM 13.18 55.724 160 7.34 2.3 10.59
4/11/2021 11:00:00 AM 13.19 55.742 160 7.34 2.22 10.61
4/11/2021 11:15:00 AM 13.24 55.832 162 7.37 3.15 10.69
4/11/2021 11:30:00 AM 13.55 56.39 167 7.29 2.31 10.9
4/11/2021 11:45:00 AM 13.26 55.868 161 7.34 2.25 10.68
4/11/2021 12:00:00 PM 13.24 55.832 161 7.36 2.07 10.68
4/11/2021 12:15:00 PM 13.25 55.85 161 7.37 2.25 10.7
4/11/2021 12:30:00 PM 13.26 55.868 162 7.37 2.37 10.72
4/11/2021 12:45:00 PM 13.28 55.904 162 7.38 2.3 10.75
4/11/2021 1:00:00 PM 13.3 55.94 162 7.39 2.56 10.78
4/11/2021 1:15:00 PM 13.31 55.958 162 7.39 2.41 10.79
4/11/2021 1:30:00 PM 13.33 55.994 162 7.4 2.63 10.83
4/11/2021 1:45:00 PM 13.35 56.03 162 7.41 2.38 10.85
4/11/2021 2:00:00 PM 13.36 56.048 162 7.41 2.52 10.86
4/11/2021 2:15:00 PM 13.36 56.048 162 7.42 2.54 10.88
4/11/2021 2:30:00 PM 13.36 56.048 162 7.43 2.28 10.89
4/11/2021 2:45:00 PM 13.36 56.048 162 7.43 2.63 10.9
4/11/2021 3:00:00 PM 13.36 56.048 162 7.43 2.41 10.92
4/11/2021 3:15:00 PM 13.36 56.048 162 7.44 2.94 10.93
4/11/2021 3:30:00 PM 13.37 56.066 162 7.44 2.95 10.94
4/11/2021 3:45:00 PM 13.39 56.102 162 7.45 2.51 10.96
4/11/2021 4:00:00 PM 13.4 56.12 162 7.46 2.68 10.98
4/11/2021 4:15:00 PM 13.4 56.12 163 7.46 2.42 10.99
4/11/2021 4:30:00 PM 13.41 56.138 163 7.47 2.74 11
4/11/2021 4:45:00 PM 13.42 56.156 163 7.47 2.53 11
4/11/2021 5:00:00 PM 13.42 56.156 164 7.48 2.79 11.02
4/11/2021 5:15:00 PM 13.42 56.156 164 7.48 2.37 11.01
4/11/2021 5:30:00 PM 13.41 56.138 165 7.48 2.65 11
4/11/2021 5:45:00 PM 13.39 56.102 165 7.48 2.85 11
4/11/2021 6:00:00 PM 13.38 56.084 165 7.48 2.87 11
4/11/2021 6:15:00 PM 13.37 56.066 165 7.48 2.92 10.99
4/11/2021 6:30:00 PM 13.36 56.048 166 7.48 2.73 10.99
4/11/2021 6:45:00 PM 13.35 56.03 166 7.48 2.42 10.98
4/11/2021 7:00:00 PM 13.34 56.012 166 7.47 2.73 10.97
4/11/2021 7:15:00 PM 13.33 55.994 166 7.47 2.59 10.95
4/11/2021 7:30:00 PM 13.33 55.994 166 7.46 2.54 10.94
4/11/2021 7:45:00 PM 13.32 55.976 165 7.46 2.66 10.93
4/11/2021 8:00:00 PM 13.32 55.976 165 7.46 2.78 10.93
4/11/2021 8:15:00 PM 13.31 55.958 165 7.45 3.21 10.92
4/11/2021 8:30:00 PM 13.31 55.958 164 7.45 3.11 10.91
4/11/2021 8:45:00 PM 13.31 55.958 164 7.45 3.15 10.91
4/11/2021 9:00:00 PM 13.31 55.958 164 7.44 4.49 10.9
4/11/2021 9:15:00 PM 13.31 55.958 164 7.44 3.02 10.89
4/11/2021 9:30:00 PM 13.31 55.958 163 7.43 2.67 10.87
4/11/2021 9:45:00 PM 13.31 55.958 163 7.43 2.82 10.87
4/11/2021 10:00:00 PM 13.31 55.958 163 7.43 2.93 10.86
4/11/2021 10:15:00 PM 13.31 55.958 163 7.42 2.92 10.85
4/11/2021 10:30:00 PM 13.3 55.94 163 7.42 2.91 10.84
4/11/2021 10:45:00 PM 13.3 55.94 163 7.42 3.36 10.83
4/11/2021 11:00:00 PM 13.3 55.94 163 7.42 3.16 10.82
4/11/2021 11:15:00 PM 13.29 55.922 163 7.42 2.96 10.81
4/11/2021 11:30:00 PM 13.29 55.922 163 7.41 3.26 10.8
4/11/2021 11:45:00 PM 13.28 55.904 163 7.41 3.02 10.79
4/12/2021 12:00:00 AM 13.27 55.886 163 7.41 3.37 10.79
4/12/2021 12:15:00 AM 13.27 55.886 162 7.42 3.57 10.78
4/12/2021 12:30:00 AM 13.26 55.868 162 7.42 3.39 10.78
4/12/2021 12:45:00 AM 13.24 55.832 162 7.43 3.99 10.77
4/12/2021 1:00:00 AM 13.45 56.21 167 7.42 3.06 10.84
4/12/2021 1:15:00 AM 13.29 55.922 163 7.4 3.32 10.78
4/12/2021 1:30:00 AM 13.21 55.778 162 7.42 4.06 10.75
4/12/2021 1:45:00 AM 13.2 55.76 162 7.42 3.45 10.74
4/12/2021 2:00:00 AM 13.18 55.724 162 7.42 5.05 10.73
4/12/2021 2:15:00 AM 13.17 55.706 162 7.42 4.34 10.72
4/12/2021 2:30:00 AM 13.16 55.688 162 7.43 4.75 10.7
4/12/2021 2:45:00 AM 13.14 55.652 163 7.43 5.22 10.69
4/12/2021 3:00:00 AM 13.12 55.616 163 7.43 5.39 10.68
4/12/2021 3:15:00 AM 13.11 55.598 164 7.43 5.18 10.66
4/12/2021 3:30:00 AM 13.1 55.58 164 7.43 5.92 10.66
4/12/2021 3:45:00 AM 13.09 55.562 165 7.44 8.68 10.65
4/12/2021 4:00:00 AM 13.09 55.562 165 7.44 8.99 10.63
4/12/2021 4:15:00 AM 13.08 55.544 164 7.44 10.92 10.62
4/12/2021 4:30:00 AM 13.07 55.526 164 7.44 11.56 10.6
4/12/2021 4:45:00 AM 13.06 55.508 163 7.43 13.06 10.59
4/12/2021 5:00:00 AM 13.05 55.49 164 7.42 15.48 10.56
4/12/2021 5:15:00 AM 13.03 55.454 165 7.42 17.66 10.53
4/12/2021 5:30:00 AM 13.01 55.418 169 7.43 19.09 10.49
4/12/2021 5:45:00 AM 12.98 55.364 171 7.43 19.84 10.45
4/12/2021 6:00:00 AM 12.95 55.31 172 7.42 26.72 10.42
4/12/2021 6:15:00 AM 12.93 55.274 171 7.41 31.65 10.38
4/12/2021 6:30:00 AM 12.91 55.238 171 7.4 34.07 10.36
4/12/2021 6:45:00 AM 12.88 55.184 170 7.39 51.7 10.33
4/12/2021 7:00:00 AM 12.86 55.148 168 7.38 59.57 10.31
4/12/2021 7:15:00 AM 12.83 55.094 167 7.36 67.02 10.29
4/12/2021 7:30:00 AM 12.8 55.04 165 7.34 70.03 10.28
4/12/2021 7:45:00 AM 12.78 55.004 164 7.33 70.13 10.28
4/12/2021 8:00:00 AM 12.77 54.986 163 7.32 73.89 10.28
4/12/2021 8:15:00 AM 12.77 54.986 162 7.32 78.26 10.28
4/12/2021 8:30:00 AM 12.76 54.968 161 7.32 64.73 10.28
4/12/2021 8:45:00 AM 12.76 54.968 160 7.31 55.66 10.29
4/12/2021 9:00:00 AM 12.76 54.968 159 7.31 55.89 10.29
4/12/2021 9:15:00 AM 12.76 54.968 159 7.31 57.5 10.3
4/12/2021 9:30:00 AM 12.76 54.968 159 7.31 50.5 10.32
4/12/2021 9:45:00 AM 12.76 54.968 158 7.31 48.02 10.32
4/12/2021 10:00:00 AM 12.76 54.968 157 7.31 40.91 10.34
4/12/2021 10:15:00 AM 12.76 54.968 157 7.31 28.78 10.34
4/12/2021 10:30:00 AM 12.76 54.968 157 7.31 31.53 10.35
4/12/2021 10:45:00 AM 12.76 54.968 156 7.32 28.1 10.36
4/12/2021 11:00:00 AM 12.75 54.95 156 7.32 22.81 10.37
4/12/2021 11:15:00 AM 12.76 54.968 155 7.33 25.9 10.39
4/12/2021 11:30:00 AM 12.76 54.968 155 7.33 16.76 10.39
4/12/2021 11:45:00 AM 12.75 54.95 155 7.33 19.55 10.41
4/12/2021 12:00:00 PM 12.76 54.968 155 7.33 15.54 10.42
4/12/2021 12:15:00 PM 12.76 54.968 155 7.33 14.51 10.42
4/12/2021 12:30:00 PM 12.76 54.968 154 7.33 15.77 10.43
4/12/2021 12:45:00 PM 12.76 54.968 154 7.33 16.42 10.42
4/12/2021 1:00:00 PM 12.76 54.968 154 7.33 13.54 10.42
4/12/2021 1:15:00 PM 12.76 54.968 154 7.33 13.57 10.42
4/12/2021 1:30:00 PM 12.77 54.986 154 7.33 12.57 10.43
4/12/2021 1:45:00 PM 12.77 54.986 154 7.33 15.34 10.43
4/12/2021 2:00:00 PM 12.77 54.986 154 7.33 14.73 10.43
4/12/2021 2:15:00 PM 12.77 54.986 153 7.33 14.01 10.44
4/12/2021 2:30:00 PM 12.76 54.968 152 7.34 15.17 10.44
4/12/2021 2:45:00 PM 12.76 54.968 152 7.34 13.37 10.44
4/12/2021 3:00:00 PM 12.75 54.95 151 7.34 13.42 10.43
4/12/2021 3:15:00 PM 12.73 54.914 150 7.35 17.22 10.44
4/12/2021 3:30:00 PM 12.72 54.896 149 7.35 17.6 10.42
4/12/2021 3:45:00 PM 12.7 54.86 149 7.35 15.91 10.44
4/12/2021 4:00:00 PM 12.68 54.824 148 7.35 17.51 10.43
4/12/2021 4:15:00 PM 12.66 54.788 147 7.34 16.51 10.45
4/12/2021 4:30:00 PM 12.63 54.734 146 7.34 19.79 10.45
4/12/2021 4:45:00 PM 12.61 54.698 145 7.34 18.08 10.47
4/12/2021 5:00:00 PM 12.58 54.644 144 7.34 19.05 10.47
4/12/2021 5:15:00 PM 12.67 54.806 148 7.35 22.48 10.56
4/12/2021 5:30:00 PM 12.75 54.95 156 7.32 9.78 10.75
4/12/2021 5:45:00 PM 12.52 54.536 142 7.33 19.63 10.55
4/12/2021 6:00:00 PM 12.47 54.446 141 7.33 19.66 10.53
4/12/2021 6:15:00 PM 12.44 54.392 140 7.33 17.5 10.55
4/12/2021 6:30:00 PM 12.42 54.356 139 7.34 16.83 10.58
4/12/2021 6:45:00 PM 12.4 54.32 139 7.34 18.22 10.59
4/12/2021 7:00:00 PM 12.38 54.284 138 7.34 16.26 10.6
4/12/2021 7:15:00 PM 12.35 54.23 138 7.34 16.07 10.61
4/12/2021 7:30:00 PM 12.34 54.212 137 7.34 17.27 10.62
4/12/2021 7:45:00 PM 12.3 54.14 136 7.35 18.74 10.64
4/12/2021 8:00:00 PM 12.28 54.104 136 7.35 18.01 10.63
4/12/2021 8:15:00 PM 12.25 54.05 135 7.35 17.13 10.63
4/12/2021 8:30:00 PM 12.22 53.996 135 7.35 17.71 10.64
4/12/2021 8:45:00 PM 12.2 53.96 134 7.35 18.88 10.64
4/12/2021 9:00:00 PM 12.18 53.924 134 7.35 18.68 10.65
4/12/2021 9:15:00 PM 12.16 53.888 134 7.35 17.77 10.65
4/12/2021 9:30:00 PM 12.14 53.852 133 7.35 19.84 10.67
4/12/2021 9:45:00 PM 12.12 53.816 133 7.34 19.4 10.66
4/12/2021 10:00:00 PM 12.1 53.78 133 7.34 19.54 10.67
4/12/2021 10:15:00 PM 12.08 53.744 133 7.34 19.81 10.68
4/12/2021 10:30:00 PM 12.05 53.69 132 7.34 21.37 10.68
4/12/2021 10:45:00 PM 12.03 53.654 132 7.34 20.92 10.69
4/12/2021 11:00:00 PM 12.01 53.618 132 7.34 20.82 10.69
4/12/2021 11:15:00 PM 12.01 53.618 132 7.34 21.14 10.7
4/12/2021 11:30:00 PM 11.99 53.582 132 7.33 20.73 10.7
4/12/2021 11:45:00 PM 11.98 53.564 132 7.33 20.24 10.71
4/13/2021 12:00:00 AM 11.97 53.546 132 7.33 20.15 10.72
4/13/2021 12:15:00 AM 11.95 53.51 132 7.33 19.84 10.72
4/13/2021 12:30:00 AM 11.95 53.51 132 7.33 19.31 10.73
4/13/2021 12:45:00 AM 11.94 53.492 132 7.33 18.37 10.74
4/13/2021 1:00:00 AM 11.93 53.474 132 7.33 16.8 10.75
4/13/2021 1:15:00 AM 11.91 53.438 131 7.33 16.64 10.75
4/13/2021 1:30:00 AM 11.91 53.438 131 7.33 18.58 10.77
4/13/2021 1:45:00 AM 11.89 53.402 131 7.33 17.64 10.77
4/13/2021 2:00:00 AM 11.89 53.402 131 7.32 16.49 10.77
4/13/2021 2:15:00 AM 11.88 53.384 131 7.32 16.02 10.78
4/13/2021 2:30:00 AM 11.87 53.366 131 7.32 15.17 10.77
4/13/2021 2:45:00 AM 11.86 53.348 131 7.32 14.95 10.78
4/13/2021 3:00:00 AM 11.86 53.348 131 7.32 14.5 10.78
4/13/2021 3:15:00 AM 11.85 53.33 131 7.32 13.48 10.78
4/13/2021 3:30:00 AM 11.84 53.312 131 7.31 14.23 10.79
4/13/2021 3:45:00 AM 11.83 53.294 131 7.31 14.67 10.78
4/13/2021 4:00:00 AM 11.82 53.276 130 7.31 13.27 10.78
4/13/2021 4:15:00 AM 11.81 53.258 130 7.31 13.32 10.78
4/13/2021 4:30:00 AM 11.8 53.24 130 7.31 12.94 10.77
4/13/2021 4:45:00 AM 11.79 53.222 130 7.31 12.86 10.77
4/13/2021 5:00:00 AM 11.79 53.222 131 7.3 12.93 10.76
4/13/2021 5:15:00 AM 11.78 53.204 131 7.3 12.59 10.76
4/13/2021 5:30:00 AM 11.77 53.186 131 7.3 12.27 10.76
4/13/2021 5:45:00 AM 11.76 53.168 131 7.3 12.06 10.76
4/13/2021 6:00:00 AM 11.76 53.168 131 7.3 12.05 10.76
4/13/2021 6:15:00 AM 11.75 53.15 131 7.3 11.61 10.76
4/13/2021 6:30:00 AM 11.74 53.132 131 7.3 11.89 10.76
4/13/2021 6:45:00 AM 11.74 53.132 132 7.3 11.76 10.75
4/13/2021 7:00:00 AM 11.74 53.132 132 7.29 11.47 10.76
4/13/2021 7:15:00 AM 11.73 53.114 132 7.29 11.26 10.76
4/13/2021 7:30:00 AM 11.72 53.096 132 7.29 11.03 10.75
4/13/2021 7:45:00 AM 11.72 53.096 132 7.29 10.62 10.76
4/13/2021 8:00:00 AM 11.72 53.096 132 7.29 10.96 10.76
4/13/2021 8:15:00 AM 11.73 53.114 132 7.29 10.58 10.76
4/13/2021 8:30:00 AM 11.74 53.132 133 7.29 10.06 10.77
4/13/2021 8:45:00 AM 12.06 53.708 144 7.3 7.19 11
4/13/2021 9:00:00 AM 11.85 53.33 136 7.28 9.11 10.83
4/13/2021 9:15:00 AM 11.82 53.276 133 7.29 9.98 10.79
4/13/2021 9:30:00 AM 11.83 53.294 134 7.3 9.99 10.8
4/13/2021 9:45:00 AM 11.86 53.348 134 7.3 9.34 10.8
4/13/2021 10:00:00 AM 11.88 53.384 134 7.3 9.89 10.82
4/13/2021 10:15:00 AM 11.91 53.438 134 7.3 9.75 10.83
4/13/2021 10:30:00 AM 11.94 53.492 134 7.31 8.81 10.85
4/13/2021 10:45:00 AM 12 53.6 134 7.31 8.61 10.86
4/13/2021 11:00:00 AM 12.03 53.654 134 7.31 8.87 10.88
4/13/2021 11:15:00 AM 12.09 53.762 134 7.32 8.72 10.9
4/13/2021 11:30:00 AM 12.15 53.87 134 7.32 8.34 10.92
4/13/2021 11:45:00 AM 12.21 53.978 135 7.33 8.16 10.94
4/13/2021 12:00:00 PM 12.21 53.978 134 7.33 7.89 10.96
4/13/2021 12:15:00 PM 12.22 53.996 135 7.34 8.19 10.97
4/13/2021 12:30:00 PM 12.29 54.122 135 7.34 7.56 11
4/13/2021 12:45:00 PM 12.37 54.266 135 7.35 9.54 11.02
4/13/2021 1:00:00 PM 12.44 54.392 135 7.35 8.21 11.04
4/13/2021 1:15:00 PM 12.47 54.446 135 7.36 7.9 11.05
4/13/2021 1:30:00 PM 12.49 54.482 135 7.36 7.92 11.06
4/13/2021 1:45:00 PM 12.51 54.518 135 7.36 7.5 11.07
4/13/2021 2:00:00 PM 12.59 54.662 135 7.37 7.11 11.09
4/13/2021 2:15:00 PM 12.67 54.806 135 7.37 7.17 11.11
4/13/2021 2:30:00 PM 12.71 54.878 135 7.38 7.53 11.11
4/13/2021 2:45:00 PM 12.73 54.914 136 7.38 6.87 11.13
4/13/2021 3:00:00 PM 12.77 54.986 136 7.38 6.75 11.14
4/13/2021 3:15:00 PM 12.85 55.13 136 7.39 6.66 11.15
4/13/2021 3:30:00 PM 12.87 55.166 136 7.39 6.47 11.16
4/13/2021 3:45:00 PM 12.87 55.166 136 7.4 6.91 11.17
4/13/2021 4:00:00 PM 12.87 55.166 136 7.4 6.78 11.18
4/13/2021 4:15:00 PM 12.89 55.202 136 7.4 6.44 11.19
4/13/2021 4:30:00 PM 12.87 55.166 136 7.41 6.45 11.2
4/13/2021 4:45:00 PM 12.86 55.148 137 7.41 7.19 11.2
4/13/2021 5:00:00 PM 12.86 55.148 137 7.41 6.66 11.2
4/13/2021 5:15:00 PM 12.88 55.184 137 7.41 5.8 11.21
4/13/2021 5:30:00 PM 12.9 55.22 137 7.42 5.79 11.22
4/13/2021 5:45:00 PM 12.93 55.274 137 7.42 6.32 11.22
4/13/2021 6:00:00 PM 12.94 55.292 137 7.42 6.19 11.23
4/13/2021 6:15:00 PM 12.97 55.346 137 7.43 5.92 11.24
4/13/2021 6:30:00 PM 13.01 55.418 137 7.43 5.47 11.26
4/13/2021 6:45:00 PM 13.07 55.526 137 7.43 6.07 11.27
4/13/2021 7:00:00 PM 13.11 55.598 137 7.44 5.38 11.28
4/13/2021 7:15:00 PM 13.11 55.598 137 7.44 5.76 11.28
4/13/2021 7:30:00 PM 13.1 55.58 137 7.44 5.01 11.28
4/13/2021 7:45:00 PM 13.11 55.598 138 7.44 5.93 11.28
4/13/2021 8:00:00 PM 13.1 55.58 138 7.44 5.14 11.27
4/13/2021 8:15:00 PM 13.1 55.58 138 7.44 5.22 11.27
4/13/2021 8:30:00 PM 13.09 55.562 138 7.44 5.42 11.27
4/13/2021 8:45:00 PM 13.08 55.544 138 7.44 6.21 11.27
4/13/2021 9:00:00 PM 13.07 55.526 138 7.43 5.84 11.26
4/13/2021 9:15:00 PM 13.05 55.49 138 7.43 5.75 11.26
4/13/2021 9:30:00 PM 13.04 55.472 138 7.43 5.76 11.25
4/13/2021 9:45:00 PM 13.02 55.436 139 7.42 5.83 11.23
4/13/2021 10:00:00 PM 12.98 55.364 139 7.42 5.44 11.21
4/13/2021 10:15:00 PM 12.93 55.274 139 7.41 6.83 11.21
4/13/2021 10:30:00 PM 12.9 55.22 139 7.41 13.45 11.19
4/13/2021 10:45:00 PM 12.88 55.184 139 7.41 6.6 11.18
4/13/2021 11:00:00 PM 12.86 55.148 139 7.4 6.18 11.16
4/13/2021 11:15:00 PM 12.84 55.112 139 7.4 5.99 11.15
4/13/2021 11:30:00 PM 12.84 55.112 139 7.39 6.05 11.14
4/13/2021 11:45:00 PM 12.83 55.094 139 7.39 6.09 11.14
4/14/2021 12:00:00 AM 12.82 55.076 139 7.39 5.82 11.12
4/14/2021 12:15:00 AM 12.81 55.058 139 7.38 5.81 11.11
4/14/2021 12:30:00 AM 12.79 55.022 139 7.38 6.07 11.1
4/14/2021 12:45:00 AM 12.81 55.058 145 7.31 4.16 11.16
4/14/2021 1:00:00 AM 12.76 54.968 140 7.36 6.12 11.08
4/14/2021 1:15:00 AM 12.76 54.968 140 7.37 6.01 11.06
4/14/2021 1:30:00 AM 12.75 54.95 140 7.36 5.56 11.06
4/14/2021 1:45:00 AM 12.75 54.95 140 7.36 6.15 11.04
4/14/2021 2:00:00 AM 12.74 54.932 140 7.36 6.7 11.03
4/14/2021 2:15:00 AM 12.74 54.932 140 7.35 6.49 11.02
4/14/2021 2:30:00 AM 12.74 54.932 141 7.35 6.18 11
4/14/2021 2:45:00 AM 12.73 54.914 141 7.35 7.4 10.99
4/14/2021 3:00:00 AM 12.72 54.896 141 7.34 10.95 10.97
4/14/2021 3:15:00 AM 12.71 54.878 141 7.33 5.49 10.95
4/14/2021 3:30:00 AM 12.7 54.86 141 7.33 5.89 10.94
4/14/2021 3:45:00 AM 12.69 54.842 141 7.33 5.55 10.93
4/14/2021 4:00:00 AM 12.67 54.806 141 7.32 6.1 10.91
4/14/2021 4:15:00 AM 12.64 54.752 141 7.32 5.26 10.9
4/14/2021 4:30:00 AM 12.62 54.716 141 7.31 4.89 10.88
4/14/2021 4:45:00 AM 12.6 54.68 142 7.31 5.52 10.87
4/14/2021 5:00:00 AM 12.58 54.644 142 7.3 5.59 10.86
4/14/2021 5:15:00 AM 12.54 54.572 142 7.3 4.94 10.84
4/14/2021 5:30:00 AM 12.51 54.518 142 7.3 5.44 10.83
4/14/2021 5:45:00 AM 12.49 54.482 142 7.29 4.58 10.81
4/14/2021 6:00:00 AM 12.46 54.428 142 7.29 5.32 10.81
4/14/2021 6:15:00 AM 12.43 54.374 142 7.28 5.24 10.8
4/14/2021 6:30:00 AM 12.42 54.356 142 7.28 4.81 10.79
4/14/2021 6:45:00 AM 12.4 54.32 142 7.28 5.02 10.78
4/14/2021 7:00:00 AM 12.38 54.284 142 7.28 4.71 10.78
4/14/2021 7:15:00 AM 12.36 54.248 142 7.27 4.69 10.77
4/14/2021 7:30:00 AM 12.34 54.212 142 7.27 4.77 10.78
4/14/2021 7:45:00 AM 12.33 54.194 143 7.27 5.11 10.78
4/14/2021 8:00:00 AM 12.33 54.194 143 7.27 4.92 10.79
4/14/2021 8:15:00 AM 12.32 54.176 143 7.27 4.22 10.78
4/14/2021 8:30:00 AM 12.33 54.194 143 7.27 3.71 10.77
4/14/2021 8:45:00 AM 12.33 54.194 143 7.27 3.54 10.75
4/14/2021 9:00:00 AM 12.34 54.212 143 7.27 3.92 10.73
4/14/2021 9:15:00 AM 12.34 54.212 143 7.28 3.84 10.75
4/14/2021 9:30:00 AM 12.35 54.23 143 7.27 4.51 10.74
4/14/2021 9:45:00 AM 12.43 54.374 147 7.24 3.54 10.8
4/14/2021 10:00:00 AM 12.37 54.266 143 7.28 4.08 10.86
4/14/2021 10:15:00 AM 12.38 54.284 143 7.29 5.08 10.9
4/14/2021 10:30:00 AM 12.38 54.284 143 7.3 4.62 10.93
4/14/2021 10:45:00 AM 12.41 54.338 143 7.3 4.87 10.94
4/14/2021 11:00:00 AM 12.44 54.392 144 7.31 4.61 10.96
4/14/2021 11:15:00 AM 12.47 54.446 144 7.31 4.08 11
4/14/2021 11:30:00 AM 12.51 54.518 144 7.32 4.41 11.01
4/14/2021 11:45:00 AM 12.55 54.59 144 7.32 4.32 11.02
4/14/2021 12:00:00 PM 12.58 54.644 143 7.33 4 11.06
4/14/2021 12:15:00 PM 12.61 54.698 143 7.33 4.11 11.07
4/14/2021 12:30:00 PM 12.65 54.77 143 7.34 4.33 11.09
4/14/2021 12:45:00 PM 12.69 54.842 143 7.34 4.27 11.12
4/14/2021 1:00:00 PM 12.74 54.932 143 7.35 4.01 11.13
4/14/2021 1:15:00 PM 12.78 55.004 143 7.35 3.87 11.16
4/14/2021 1:30:00 PM 12.84 55.112 144 7.36 4.3 11.17
4/14/2021 1:45:00 PM 12.89 55.202 143 7.37 4.46 11.19
4/14/2021 2:00:00 PM 12.95 55.31 143 7.37 4.58 11.21
4/14/2021 2:15:00 PM 13.01 55.418 143 7.38 4.21 11.23
4/14/2021 2:30:00 PM 13.09 55.562 143 7.38 5.13 11.24
4/14/2021 2:45:00 PM 13.16 55.688 143 7.39 3.5 11.26
4/14/2021 3:00:00 PM 13.2 55.76 143 7.4 4.26 11.27
4/14/2021 3:15:00 PM 13.23 55.814 143 7.4 3.81 11.29
4/14/2021 3:30:00 PM 13.25 55.85 143 7.4 4.18 11.29
4/14/2021 3:45:00 PM 13.29 55.922 143 7.41 4.39 11.3
4/14/2021 4:00:00 PM 13.34 56.012 143 7.41 3.66 11.31
4/14/2021 4:15:00 PM 13.37 56.066 143 7.41 4.19 11.32
4/14/2021 4:30:00 PM 13.39 56.102 143 7.42 3.64 11.33
4/14/2021 4:45:00 PM 13.38 56.084 143 7.42 3.8 11.33
4/14/2021 5:00:00 PM 13.31 55.958 144 7.42 3.89 11.32
4/14/2021 5:15:00 PM 13.22 55.796 143 7.41 4.25 11.33
4/14/2021 5:30:00 PM 13.14 55.652 143 7.41 4.22 11.33
4/14/2021 5:45:00 PM 13.09 55.562 143 7.41 3.82 11.33
4/14/2021 6:00:00 PM 13.04 55.472 143 7.41 4.11 11.33
4/14/2021 6:15:00 PM 13 55.4 143 7.41 3.57 11.32
4/14/2021 6:30:00 PM 12.94 55.292 143 7.4 3.46 11.31
4/14/2021 6:45:00 PM 12.9 55.22 144 7.4 3.9 11.3
4/14/2021 7:00:00 PM 13.09 55.562 154 7.4 3.05 11.22
4/14/2021 7:15:00 PM 12.98 55.364 148 7.31 3 11.21
4/14/2021 7:30:00 PM 12.88 55.184 144 7.39 4.46 11.31
4/14/2021 7:45:00 PM 12.89 55.202 144 7.4 3.85 11.33
4/14/2021 8:00:00 PM 12.91 55.238 144 7.4 3.63 11.33
4/14/2021 8:15:00 PM 12.92 55.256 144 7.41 3.87 11.33
4/14/2021 8:30:00 PM 12.93 55.274 144 7.41 3.74 11.32
4/14/2021 8:45:00 PM 12.94 55.292 144 7.4 4.03 11.31
4/14/2021 9:00:00 PM 12.94 55.292 144 7.4 4.29 11.3
4/14/2021 9:15:00 PM 12.94 55.292 145 7.4 4.47 11.3
4/14/2021 9:30:00 PM 12.94 55.292 145 7.4 4.03 11.29
4/14/2021 9:45:00 PM 12.93 55.274 145 7.4 4.26 11.28
4/14/2021 10:00:00 PM 12.92 55.256 145 7.4 3.81 11.28
4/14/2021 10:15:00 PM 12.92 55.256 145 7.39 4.39 11.26
4/14/2021 10:30:00 PM 12.91 55.238 145 7.39 4.2 11.26
4/14/2021 10:45:00 PM 12.89 55.202 145 7.39 3.68 11.25
4/14/2021 11:00:00 PM 12.88 55.184 145 7.39 4.33 11.24
4/14/2021 11:15:00 PM 12.86 55.148 145 7.38 4.84 11.22
4/14/2021 11:30:00 PM 12.84 55.112 146 7.38 4.46 11.21
4/14/2021 11:45:00 PM 12.82 55.076 146 7.38 3.94 11.2
4/15/2021 12:00:00 AM 12.8 55.04 146 7.38 3.94 11.2
4/15/2021 12:15:00 AM 12.79 55.022 146 7.38 3.98 11.18
4/15/2021 12:30:00 AM 12.78 55.004 146 7.37 3.79 11.17
4/15/2021 12:45:00 AM 12.94 55.292 154 7.34 3.15 11.15
4/15/2021 1:00:00 AM 12.82 55.076 150 7.3 3.22 11.14
4/15/2021 1:15:00 AM 12.74 54.932 146 7.35 4.53 11.14
4/15/2021 1:30:00 AM 12.73 54.914 146 7.36 4.81 11.13
4/15/2021 1:45:00 AM 12.72 54.896 147 7.36 4.86 11.11
4/15/2021 2:00:00 AM 12.71 54.878 147 7.35 3.86 11.1
4/15/2021 2:15:00 AM 12.7 54.86 147 7.35 5.18 11.09
4/15/2021 2:30:00 AM 12.69 54.842 147 7.35 5.14 11.07
4/15/2021 2:45:00 AM 12.68 54.824 147 7.34 5.21 11.05
4/15/2021 3:00:00 AM 12.68 54.824 147 7.34 5.03 11.04
4/15/2021 3:15:00 AM 12.66 54.788 147 7.34 4.79 11.02
4/15/2021 3:30:00 AM 12.65 54.77 147 7.34 5.15 11
4/15/2021 3:45:00 AM 12.64 54.752 147 7.33 5.35 10.99
4/15/2021 4:00:00 AM 12.63 54.734 147 7.33 5.14 10.96
4/15/2021 4:15:00 AM 12.62 54.716 147 7.32 4.75 10.95
4/15/2021 4:30:00 AM 12.61 54.698 147 7.32 4.93 10.94
4/15/2021 4:45:00 AM 12.6 54.68 147 7.32 4.57 10.91
4/15/2021 5:00:00 AM 12.58 54.644 147 7.31 4.41 10.9
4/15/2021 5:15:00 AM 12.56 54.608 147 7.31 4.49 10.89
4/15/2021 5:30:00 AM 12.54 54.572 148 7.3 4.61 10.87
4/15/2021 5:45:00 AM 12.52 54.536 148 7.3 4.57 10.85
4/15/2021 6:00:00 AM 12.51 54.518 148 7.3 4.8 10.84
4/15/2021 6:15:00 AM 12.49 54.482 148 7.29 4.63 10.82
4/15/2021 6:30:00 AM 12.48 54.464 148 7.29 4.41 10.81
4/15/2021 6:45:00 AM 12.47 54.446 148 7.29 4.13 10.81
4/15/2021 7:00:00 AM 12.45 54.41 148 7.28 4.61 10.79
4/15/2021 7:15:00 AM 12.45 54.41 148 7.28 4.66 10.79
4/15/2021 7:30:00 AM 12.43 54.374 148 7.28 4.67 10.79
4/15/2021 7:45:00 AM 12.43 54.374 148 7.28 4.35 10.78
4/15/2021 8:00:00 AM 12.43 54.374 149 7.28 4.38 10.78
4/15/2021 8:15:00 AM 12.43 54.374 149 7.28 4.37 10.78
4/15/2021 8:30:00 AM 12.54 54.572 153 7.32 3.65 10.87
4/15/2021 8:45:00 AM 12.48 54.464 151 7.29 3.81 10.86
4/15/2021 9:00:00 AM 12.47 54.446 151 7.28 3.59 10.85
4/15/2021 9:15:00 AM 12.41 54.338 149 7.28 3.86 10.81
4/15/2021 9:30:00 AM 12.41 54.338 149 7.28 4.25 10.81
4/15/2021 9:45:00 AM 12.41 54.338 150 7.28 4.1 10.81
4/15/2021 10:00:00 AM 12.41 54.338 150 7.28 3.8 10.81
4/15/2021 10:15:00 AM 12.41 54.338 150 7.28 3.65 10.83
4/15/2021 10:30:00 AM 12.4 54.32 150 7.28 3.67 10.83
4/15/2021 10:45:00 AM 12.65 54.77 157 7.31 2.34 11.01
4/15/2021 11:00:00 AM 12.43 54.374 151 7.29 4.07 10.89
4/15/2021 11:15:00 AM 12.4 54.32 151 7.29 4.46 10.89
4/15/2021 11:30:00 AM 12.39 54.302 151 7.3 3.97 10.9
4/15/2021 11:45:00 AM 12.39 54.302 151 7.3 4.2 10.92
4/15/2021 12:00:00 PM 12.41 54.338 151 7.31 3.9 10.95
4/15/2021 12:15:00 PM 12.43 54.374 151 7.31 3.95 10.97
4/15/2021 12:30:00 PM 12.45 54.41 151 7.32 4.09 10.99
4/15/2021 12:45:00 PM 12.47 54.446 151 7.32 4.04 11.01
4/15/2021 1:00:00 PM 12.5 54.5 151 7.33 4.02 11.04
4/15/2021 1:15:00 PM 12.51 54.518 151 7.33 3.93 11.06
4/15/2021 1:30:00 PM 12.55 54.59 151 7.34 4.08 11.07
4/15/2021 1:45:00 PM 12.56 54.608 151 7.34 4.17 11.09
4/15/2021 2:00:00 PM 12.6 54.68 151 7.35 4.02 11.11
4/15/2021 2:15:00 PM 12.64 54.752 152 7.35 3.94 11.13
4/15/2021 2:30:00 PM 12.65 54.77 152 7.36 4.07 11.14
4/15/2021 2:45:00 PM 12.64 54.752 152 7.36 3.75 11.15
4/15/2021 3:00:00 PM 12.6 54.68 152 7.37 3.87 11.16
4/15/2021 3:15:00 PM 12.57 54.626 152 7.37 4.08 11.17
4/15/2021 3:30:00 PM 12.55 54.59 152 7.37 3.85 11.18
4/15/2021 3:45:00 PM 12.52 54.536 152 7.37 3.84 11.19
4/15/2021 4:00:00 PM 12.51 54.518 152 7.37 3.82 11.19
4/15/2021 4:15:00 PM 12.51 54.518 152 7.38 3.85 11.21
4/15/2021 4:30:00 PM 12.48 54.464 152 7.38 3.62 11.19
4/15/2021 4:45:00 PM 12.45 54.41 152 7.38 4.4 11.2
4/15/2021 5:00:00 PM 12.42 54.356 152 7.38 3.89 11.19
4/15/2021 5:15:00 PM 12.4 54.32 152 7.38 4.07 11.2
4/15/2021 5:30:00 PM 12.38 54.284 152 7.38 3.69 11.21
4/15/2021 5:45:00 PM 12.36 54.248 152 7.38 3.99 11.21
4/15/2021 6:00:00 PM 12.34 54.212 153 7.38 3.58 11.22
4/15/2021 6:15:00 PM 12.32 54.176 153 7.38 3.62 11.22
4/15/2021 6:30:00 PM 12.3 54.14 153 7.38 3.87 11.22
4/15/2021 6:45:00 PM 12.27 54.086 153 7.38 3.99 11.22
4/15/2021 7:00:00 PM 12.25 54.05 153 7.38 3.63 11.22
4/15/2021 7:15:00 PM 12.23 54.014 153 7.38 3.78 11.22
4/15/2021 7:30:00 PM 12.22 53.996 153 7.38 3.72 11.23
4/15/2021 7:45:00 PM 12.55 54.59 160 7.37 2.42 11.19
4/15/2021 8:00:00 PM 12.25 54.05 154 7.35 3.31 11.21
4/15/2021 8:15:00 PM 12.17 53.906 153 7.38 3.77 11.22
4/15/2021 8:30:00 PM 12.15 53.87 153 7.38 4.23 11.23
4/15/2021 8:45:00 PM 12.14 53.852 153 7.38 3.78 11.24
4/15/2021 9:00:00 PM 12.12 53.816 153 7.38 4.43 11.24
4/15/2021 9:15:00 PM 12.11 53.798 153 7.38 4.44 11.25
4/15/2021 9:30:00 PM 12.09 53.762 153 7.38 4.01 11.24
4/15/2021 9:45:00 PM 12.07 53.726 154 7.38 4.24 11.24
4/15/2021 10:00:00 PM 12.05 53.69 153 7.38 4.28 11.23
4/15/2021 10:15:00 PM 12.04 53.672 153 7.37 3.87 11.22
4/15/2021 10:30:00 PM 12.02 53.636 153 7.37 3.76 11.21
4/15/2021 10:45:00 PM 12 53.6 153 7.37 4.22 11.2
4/15/2021 11:00:00 PM 11.98 53.564 154 7.37 4.18 11.2
4/15/2021 11:15:00 PM 11.96 53.528 153 7.37 4.02 11.19
4/15/2021 11:30:00 PM 11.93 53.474 154 7.36 3.72 11.19
4/15/2021 11:45:00 PM 11.9 53.42 154 7.36 4.06 11.18
4/16/2021 12:00:00 AM 11.87 53.366 154 7.36 4.14 11.18
4/16/2021 12:15:00 AM 11.84 53.312 154 7.36 4.43 11.17
4/16/2021 12:30:00 AM 11.81 53.258 154 7.36 4.06 11.16
4/16/2021 12:45:00 AM 11.78 53.204 154 7.35 4.57 11.15
4/16/2021 1:00:00 AM 11.75 53.15 154 7.35 3.95 11.14
4/16/2021 1:15:00 AM 11.73 53.114 154 7.35 4.25 11.13
4/16/2021 1:30:00 AM 11.71 53.078 154 7.35 4.61 11.13
4/16/2021 1:45:00 AM 11.68 53.024 154 7.35 4.08 11.12
4/16/2021 2:00:00 AM 11.66 52.988 154 7.34 3.99 11.12
4/16/2021 2:15:00 AM 11.63 52.934 154 7.34 4.14 11.1
4/16/2021 2:30:00 AM 11.61 52.898 154 7.34 4.33 11.1
4/16/2021 2:45:00 AM 11.59 52.862 154 7.34 4.01 11.09
4/16/2021 3:00:00 AM 11.57 52.826 154 7.33 4.3 11.07
4/16/2021 3:15:00 AM 11.55 52.79 154 7.33 4.33 11.07
4/16/2021 3:30:00 AM 11.77 53.186 159 7.37 3.97 11.15
4/16/2021 3:45:00 AM 11.77 53.186 157 7.28 2.72 11.17
4/16/2021 4:00:00 AM 11.52 52.736 154 7.32 4.85 11.04
4/16/2021 4:15:00 AM 11.5 52.7 153 7.32 4.45 11.03
4/16/2021 4:30:00 AM 11.48 52.664 153 7.32 4.09 11.02
4/16/2021 4:45:00 AM 11.47 52.646 153 7.32 4.37 11.01
4/16/2021 5:00:00 AM 11.45 52.61 153 7.32 4.05 11.01
4/16/2021 5:15:00 AM 11.44 52.592 153 7.32 3.95 11
4/16/2021 5:30:00 AM 11.42 52.556 153 7.31 4.09 10.98
4/16/2021 5:45:00 AM 11.4 52.52 153 7.31 4.07 10.98
4/16/2021 6:00:00 AM 11.38 52.484 152 7.31 4.66 10.97
4/16/2021 6:15:00 AM 11.37 52.466 153 7.31 4.35 10.96
4/16/2021 6:30:00 AM 11.35 52.43 152 7.3 4.12 10.96
4/16/2021 6:45:00 AM 11.34 52.412 152 7.3 4.17 10.94
4/16/2021 7:00:00 AM 11.33 52.394 152 7.3 4.09 10.94
4/16/2021 7:15:00 AM 11.31 52.358 152 7.3 3.98 10.94
4/16/2021 7:30:00 AM 11.3 52.34 152 7.3 3.84 10.94
4/16/2021 7:45:00 AM 11.29 52.322 152 7.3 3.81 10.93
4/16/2021 8:00:00 AM 11.29 52.322 152 7.3 3.96 10.93
4/16/2021 8:15:00 AM 11.28 52.304 152 7.3 3.86 10.94
4/16/2021 8:30:00 AM 11.27 52.286 151 7.3 3.96 10.95
4/16/2021 8:45:00 AM 11.26 52.268 151 7.3 3.8 10.96
4/16/2021 9:00:00 AM 11.25 52.25 151 7.3 3.95 10.96
4/16/2021 9:15:00 AM 11.24 52.232 151 7.31 3.67 10.99
4/16/2021 9:30:00 AM 11.23 52.214 151 7.31 3.65 11
4/16/2021 9:45:00 AM 11.23 52.214 150 7.31 3.55 11
4/16/2021 10:00:00 AM 11.23 52.214 150 7.32 3.66 11.02
4/16/2021 10:15:00 AM 11.24 52.232 150 7.32 3.68 11.04
4/16/2021 10:30:00 AM 11.25 52.25 150 7.33 3.65 11.06
4/16/2021 10:45:00 AM 11.27 52.286 150 7.33 3.58 11.1
4/16/2021 11:00:00 AM 11.28 52.304 150 7.34 3.56 11.12
4/16/2021 11:15:00 AM 11.29 52.322 149 7.34 3.81 11.15
4/16/2021 11:30:00 AM 11.29 52.322 150 7.35 3.42 11.16
4/16/2021 11:45:00 AM 11.3 52.34 149 7.36 3.52 11.19
4/16/2021 12:00:00 PM 11.31 52.358 149 7.37 3.4 11.21
4/16/2021 12:15:00 PM 11.31 52.358 149 7.37 3.82 11.25
4/16/2021 12:30:00 PM 11.33 52.394 149 7.38 3.36 11.27
4/16/2021 12:45:00 PM 11.36